<?xml version="1.0" encoding="UTF-8" standalone="no" ?>
<gpx xmlns="http://www.topografix.com/GPX/1/1" xmlns:xsi="http://www.w3.org/2001/XMLSchema-instance" xsi:schemaLocation="http://www.topografix.com/GPX/1/1 http://www.topografix.com/GPX/1/1/gpx.xsd" version="1.1" creator="VisuGPX - https://www.visugpx.com">
  <metadata>
    <name>Tuc de Baciver (CAF 2010)</name>
    <desc><![CDATA[Sortie CAF au Tuc de Baciver]]></desc>
  </metadata>
  <trk>
    <name><![CDATA[CAF7-Bacivere]]></name>
    <trkseg>
      <trkpt lat="42.70471" lon="0.96703">
        <ele>1951.13</ele>
        <time>2010-02-07T09:19:56Z</time>
      </trkpt>
      <trkpt lat="42.70468" lon="0.96706">
        <ele>1951.13</ele>
        <time>2010-02-07T09:20:13Z</time>
      </trkpt>
      <trkpt lat="42.70468" lon="0.96708">
        <ele>1951.13</ele>
        <time>2010-02-07T09:20:25Z</time>
      </trkpt>
      <trkpt lat="42.70468" lon="0.96708">
        <ele>1951.61</ele>
        <time>2010-02-07T09:20:40Z</time>
      </trkpt>
      <trkpt lat="42.70467" lon="0.96709">
        <ele>1951.13</ele>
        <time>2010-02-07T09:20:56Z</time>
      </trkpt>
      <trkpt lat="42.70465" lon="0.96712">
        <ele>1952.09</ele>
        <time>2010-02-07T09:21:00Z</time>
      </trkpt>
      <trkpt lat="42.70463" lon="0.96716">
        <ele>1952.57</ele>
        <time>2010-02-07T09:21:08Z</time>
      </trkpt>
      <trkpt lat="42.70464" lon="0.96724">
        <ele>1953.54</ele>
        <time>2010-02-07T09:21:18Z</time>
      </trkpt>
      <trkpt lat="42.70464" lon="0.96728">
        <ele>1953.06</ele>
        <time>2010-02-07T09:21:22Z</time>
      </trkpt>
      <trkpt lat="42.70465" lon="0.96743">
        <ele>1954.02</ele>
        <time>2010-02-07T09:21:36Z</time>
      </trkpt>
      <trkpt lat="42.70462" lon="0.96757">
        <ele>1953.06</ele>
        <time>2010-02-07T09:21:49Z</time>
      </trkpt>
      <trkpt lat="42.70461" lon="0.96769">
        <ele>1954.02</ele>
        <time>2010-02-07T09:22:01Z</time>
      </trkpt>
      <trkpt lat="42.7046" lon="0.96779">
        <ele>1954.02</ele>
        <time>2010-02-07T09:22:15Z</time>
      </trkpt>
      <trkpt lat="42.7046" lon="0.96781">
        <ele>1954.02</ele>
        <time>2010-02-07T09:22:19Z</time>
      </trkpt>
      <trkpt lat="42.70461" lon="0.96785">
        <ele>1954.02</ele>
        <time>2010-02-07T09:22:23Z</time>
      </trkpt>
      <trkpt lat="42.70461" lon="0.96795">
        <ele>1954.02</ele>
        <time>2010-02-07T09:22:29Z</time>
      </trkpt>
      <trkpt lat="42.70461" lon="0.96801">
        <ele>1954.02</ele>
        <time>2010-02-07T09:22:33Z</time>
      </trkpt>
      <trkpt lat="42.70459" lon="0.96816">
        <ele>1953.06</ele>
        <time>2010-02-07T09:22:44Z</time>
      </trkpt>
      <trkpt lat="42.70456" lon="0.96828">
        <ele>1953.54</ele>
        <time>2010-02-07T09:22:57Z</time>
      </trkpt>
      <trkpt lat="42.70457" lon="0.96839">
        <ele>1954.5</ele>
        <time>2010-02-07T09:23:13Z</time>
      </trkpt>
      <trkpt lat="42.70455" lon="0.96847">
        <ele>1953.54</ele>
        <time>2010-02-07T09:23:29Z</time>
      </trkpt>
      <trkpt lat="42.70454" lon="0.96856">
        <ele>1954.5</ele>
        <time>2010-02-07T09:23:36Z</time>
      </trkpt>
      <trkpt lat="42.7045" lon="0.96873">
        <ele>1954.5</ele>
        <time>2010-02-07T09:23:50Z</time>
      </trkpt>
      <trkpt lat="42.70447" lon="0.96883">
        <ele>1953.54</ele>
        <time>2010-02-07T09:23:57Z</time>
      </trkpt>
      <trkpt lat="42.70446" lon="0.96892">
        <ele>1954.02</ele>
        <time>2010-02-07T09:24:10Z</time>
      </trkpt>
      <trkpt lat="42.70444" lon="0.969">
        <ele>1954.5</ele>
        <time>2010-02-07T09:24:21Z</time>
      </trkpt>
      <trkpt lat="42.70441" lon="0.96904">
        <ele>1954.98</ele>
        <time>2010-02-07T09:24:25Z</time>
      </trkpt>
      <trkpt lat="42.70431" lon="0.96925">
        <ele>1953.06</ele>
        <time>2010-02-07T09:24:39Z</time>
      </trkpt>
      <trkpt lat="42.7043" lon="0.96927">
        <ele>1953.06</ele>
        <time>2010-02-07T09:24:40Z</time>
      </trkpt>
      <trkpt lat="42.70428" lon="0.96931">
        <ele>1952.57</ele>
        <time>2010-02-07T09:24:55Z</time>
      </trkpt>
      <trkpt lat="42.70421" lon="0.9694">
        <ele>1952.57</ele>
        <time>2010-02-07T09:25:06Z</time>
      </trkpt>
      <trkpt lat="42.70415" lon="0.96945">
        <ele>1953.06</ele>
        <time>2010-02-07T09:25:16Z</time>
      </trkpt>
      <trkpt lat="42.70411" lon="0.96947">
        <ele>1952.09</ele>
        <time>2010-02-07T09:25:20Z</time>
      </trkpt>
      <trkpt lat="42.70402" lon="0.96952">
        <ele>1951.61</ele>
        <time>2010-02-07T09:25:27Z</time>
      </trkpt>
      <trkpt lat="42.70391" lon="0.96958">
        <ele>1950.65</ele>
        <time>2010-02-07T09:25:39Z</time>
      </trkpt>
      <trkpt lat="42.70391" lon="0.96958">
        <ele>1950.65</ele>
        <time>2010-02-07T09:25:40Z</time>
      </trkpt>
      <trkpt lat="42.70384" lon="0.9697">
        <ele>1951.13</ele>
        <time>2010-02-07T09:25:54Z</time>
      </trkpt>
      <trkpt lat="42.70378" lon="0.96981">
        <ele>1951.13</ele>
        <time>2010-02-07T09:26:06Z</time>
      </trkpt>
      <trkpt lat="42.7037" lon="0.96994">
        <ele>1951.61</ele>
        <time>2010-02-07T09:26:20Z</time>
      </trkpt>
      <trkpt lat="42.70364" lon="0.97002">
        <ele>1952.09</ele>
        <time>2010-02-07T09:26:33Z</time>
      </trkpt>
      <trkpt lat="42.70359" lon="0.97011">
        <ele>1952.57</ele>
        <time>2010-02-07T09:26:46Z</time>
      </trkpt>
      <trkpt lat="42.70356" lon="0.97017">
        <ele>1953.06</ele>
        <time>2010-02-07T09:27:00Z</time>
      </trkpt>
      <trkpt lat="42.70351" lon="0.97024">
        <ele>1953.54</ele>
        <time>2010-02-07T09:27:11Z</time>
      </trkpt>
      <trkpt lat="42.7035" lon="0.97027">
        <ele>1954.5</ele>
        <time>2010-02-07T09:27:31Z</time>
      </trkpt>
      <trkpt lat="42.70347" lon="0.97034">
        <ele>1956.42</ele>
        <time>2010-02-07T09:27:43Z</time>
      </trkpt>
      <trkpt lat="42.70344" lon="0.97044">
        <ele>1958.34</ele>
        <time>2010-02-07T09:28:01Z</time>
      </trkpt>
      <trkpt lat="42.70342" lon="0.97055">
        <ele>1960.27</ele>
        <time>2010-02-07T09:28:13Z</time>
      </trkpt>
      <trkpt lat="42.70339" lon="0.97063">
        <ele>1961.71</ele>
        <time>2010-02-07T09:28:25Z</time>
      </trkpt>
      <trkpt lat="42.70335" lon="0.97071">
        <ele>1963.15</ele>
        <time>2010-02-07T09:28:39Z</time>
      </trkpt>
      <trkpt lat="42.70328" lon="0.97082">
        <ele>1963.15</ele>
        <time>2010-02-07T09:28:52Z</time>
      </trkpt>
      <trkpt lat="42.70321" lon="0.97091">
        <ele>1963.15</ele>
        <time>2010-02-07T09:29:05Z</time>
      </trkpt>
      <trkpt lat="42.70315" lon="0.97101">
        <ele>1963.63</ele>
        <time>2010-02-07T09:29:20Z</time>
      </trkpt>
      <trkpt lat="42.70312" lon="0.97107">
        <ele>1965.55</ele>
        <time>2010-02-07T09:29:37Z</time>
      </trkpt>
      <trkpt lat="42.70307" lon="0.97115">
        <ele>1966.03</ele>
        <time>2010-02-07T09:29:45Z</time>
      </trkpt>
      <trkpt lat="42.70302" lon="0.97127">
        <ele>1967.48</ele>
        <time>2010-02-07T09:29:57Z</time>
      </trkpt>
      <trkpt lat="42.703" lon="0.97129">
        <ele>1967.96</ele>
        <time>2010-02-07T09:30:01Z</time>
      </trkpt>
      <trkpt lat="42.70293" lon="0.97128">
        <ele>1969.88</ele>
        <time>2010-02-07T09:30:13Z</time>
      </trkpt>
      <trkpt lat="42.70292" lon="0.97137">
        <ele>1971.32</ele>
        <time>2010-02-07T09:30:25Z</time>
      </trkpt>
      <trkpt lat="42.7029" lon="0.97145">
        <ele>1973.24</ele>
        <time>2010-02-07T09:30:35Z</time>
      </trkpt>
      <trkpt lat="42.70289" lon="0.97149">
        <ele>1973.24</ele>
        <time>2010-02-07T09:30:39Z</time>
      </trkpt>
      <trkpt lat="42.70289" lon="0.97154">
        <ele>1974.2</ele>
        <time>2010-02-07T09:30:44Z</time>
      </trkpt>
      <trkpt lat="42.70288" lon="0.97163">
        <ele>1975.17</ele>
        <time>2010-02-07T09:30:57Z</time>
      </trkpt>
      <trkpt lat="42.70287" lon="0.97171">
        <ele>1977.57</ele>
        <time>2010-02-07T09:31:12Z</time>
      </trkpt>
      <trkpt lat="42.70286" lon="0.97179">
        <ele>1978.53</ele>
        <time>2010-02-07T09:31:23Z</time>
      </trkpt>
      <trkpt lat="42.70285" lon="0.97178">
        <ele>1979.97</ele>
        <time>2010-02-07T09:31:37Z</time>
      </trkpt>
      <trkpt lat="42.70283" lon="0.97181">
        <ele>1980.93</ele>
        <time>2010-02-07T09:31:45Z</time>
      </trkpt>
      <trkpt lat="42.70281" lon="0.97182">
        <ele>1982.38</ele>
        <time>2010-02-07T09:31:54Z</time>
      </trkpt>
      <trkpt lat="42.70275" lon="0.97179">
        <ele>1982.86</ele>
        <time>2010-02-07T09:32:04Z</time>
      </trkpt>
      <trkpt lat="42.70275" lon="0.9719">
        <ele>1984.3</ele>
        <time>2010-02-07T09:32:16Z</time>
      </trkpt>
      <trkpt lat="42.70275" lon="0.972">
        <ele>1985.74</ele>
        <time>2010-02-07T09:32:30Z</time>
      </trkpt>
      <trkpt lat="42.70274" lon="0.97204">
        <ele>1986.7</ele>
        <time>2010-02-07T09:32:35Z</time>
      </trkpt>
      <trkpt lat="42.70271" lon="0.97212">
        <ele>1988.14</ele>
        <time>2010-02-07T09:32:48Z</time>
      </trkpt>
      <trkpt lat="42.70267" lon="0.97222">
        <ele>1989.1</ele>
        <time>2010-02-07T09:33:01Z</time>
      </trkpt>
      <trkpt lat="42.70268" lon="0.97231">
        <ele>1991.51</ele>
        <time>2010-02-07T09:33:15Z</time>
      </trkpt>
      <trkpt lat="42.70267" lon="0.97236">
        <ele>1991.51</ele>
        <time>2010-02-07T09:33:28Z</time>
      </trkpt>
      <trkpt lat="42.70267" lon="0.97242">
        <ele>1992.95</ele>
        <time>2010-02-07T09:33:36Z</time>
      </trkpt>
      <trkpt lat="42.70263" lon="0.97253">
        <ele>1992.47</ele>
        <time>2010-02-07T09:33:47Z</time>
      </trkpt>
      <trkpt lat="42.70261" lon="0.97257">
        <ele>1992.95</ele>
        <time>2010-02-07T09:33:51Z</time>
      </trkpt>
      <trkpt lat="42.7026" lon="0.97264">
        <ele>1993.91</ele>
        <time>2010-02-07T09:34:11Z</time>
      </trkpt>
      <trkpt lat="42.70256" lon="0.97282">
        <ele>1993.43</ele>
        <time>2010-02-07T09:34:24Z</time>
      </trkpt>
      <trkpt lat="42.70256" lon="0.97285">
        <ele>1993.91</ele>
        <time>2010-02-07T09:34:27Z</time>
      </trkpt>
      <trkpt lat="42.70253" lon="0.97292">
        <ele>1993.43</ele>
        <time>2010-02-07T09:34:41Z</time>
      </trkpt>
      <trkpt lat="42.70252" lon="0.973">
        <ele>1994.39</ele>
        <time>2010-02-07T09:34:49Z</time>
      </trkpt>
      <trkpt lat="42.70251" lon="0.97305">
        <ele>1993.43</ele>
        <time>2010-02-07T09:34:53Z</time>
      </trkpt>
      <trkpt lat="42.7025" lon="0.9731">
        <ele>1994.39</ele>
        <time>2010-02-07T09:34:57Z</time>
      </trkpt>
      <trkpt lat="42.70248" lon="0.97328">
        <ele>1993.91</ele>
        <time>2010-02-07T09:35:10Z</time>
      </trkpt>
      <trkpt lat="42.70249" lon="0.97333">
        <ele>1993.91</ele>
        <time>2010-02-07T09:35:14Z</time>
      </trkpt>
      <trkpt lat="42.70249" lon="0.9734">
        <ele>1994.87</ele>
        <time>2010-02-07T09:35:25Z</time>
      </trkpt>
      <trkpt lat="42.70249" lon="0.97353">
        <ele>1995.83</ele>
        <time>2010-02-07T09:35:38Z</time>
      </trkpt>
      <trkpt lat="42.70249" lon="0.97359">
        <ele>1997.28</ele>
        <time>2010-02-07T09:35:51Z</time>
      </trkpt>
      <trkpt lat="42.70246" lon="0.97369">
        <ele>1999.2</ele>
        <time>2010-02-07T09:36:05Z</time>
      </trkpt>
      <trkpt lat="42.70244" lon="0.97379">
        <ele>2000.16</ele>
        <time>2010-02-07T09:36:17Z</time>
      </trkpt>
      <trkpt lat="42.70243" lon="0.97387">
        <ele>2001.6</ele>
        <time>2010-02-07T09:36:28Z</time>
      </trkpt>
      <trkpt lat="42.70238" lon="0.97395">
        <ele>2003.04</ele>
        <time>2010-02-07T09:36:40Z</time>
      </trkpt>
      <trkpt lat="42.70235" lon="0.974">
        <ele>2004.01</ele>
        <time>2010-02-07T09:36:52Z</time>
      </trkpt>
      <trkpt lat="42.7023" lon="0.97406">
        <ele>2005.45</ele>
        <time>2010-02-07T09:37:05Z</time>
      </trkpt>
      <trkpt lat="42.70226" lon="0.97413">
        <ele>2006.89</ele>
        <time>2010-02-07T09:37:18Z</time>
      </trkpt>
      <trkpt lat="42.70223" lon="0.97417">
        <ele>2007.85</ele>
        <time>2010-02-07T09:37:29Z</time>
      </trkpt>
      <trkpt lat="42.70214" lon="0.97419">
        <ele>2009.29</ele>
        <time>2010-02-07T09:37:42Z</time>
      </trkpt>
      <trkpt lat="42.70208" lon="0.97426">
        <ele>2010.73</ele>
        <time>2010-02-07T09:37:56Z</time>
      </trkpt>
      <trkpt lat="42.70203" lon="0.97426">
        <ele>2012.18</ele>
        <time>2010-02-07T09:38:07Z</time>
      </trkpt>
      <trkpt lat="42.70203" lon="0.97426">
        <ele>2012.66</ele>
        <time>2010-02-07T09:38:08Z</time>
      </trkpt>
      <trkpt lat="42.70195" lon="0.97422">
        <ele>2013.62</ele>
        <time>2010-02-07T09:38:20Z</time>
      </trkpt>
      <trkpt lat="42.70193" lon="0.97421">
        <ele>2016.02</ele>
        <time>2010-02-07T09:38:34Z</time>
      </trkpt>
      <trkpt lat="42.70191" lon="0.97424">
        <ele>2016.98</ele>
        <time>2010-02-07T09:38:46Z</time>
      </trkpt>
      <trkpt lat="42.70186" lon="0.97431">
        <ele>2019.39</ele>
        <time>2010-02-07T09:39:00Z</time>
      </trkpt>
      <trkpt lat="42.70184" lon="0.97437">
        <ele>2020.35</ele>
        <time>2010-02-07T09:39:12Z</time>
      </trkpt>
      <trkpt lat="42.70179" lon="0.97443">
        <ele>2022.75</ele>
        <time>2010-02-07T09:39:26Z</time>
      </trkpt>
      <trkpt lat="42.70179" lon="0.97444">
        <ele>2022.27</ele>
        <time>2010-02-07T09:39:27Z</time>
      </trkpt>
      <trkpt lat="42.70176" lon="0.9745">
        <ele>2024.19</ele>
        <time>2010-02-07T09:39:39Z</time>
      </trkpt>
      <trkpt lat="42.70172" lon="0.97461">
        <ele>2025.64</ele>
        <time>2010-02-07T09:39:55Z</time>
      </trkpt>
      <trkpt lat="42.70169" lon="0.9747">
        <ele>2027.08</ele>
        <time>2010-02-07T09:40:07Z</time>
      </trkpt>
      <trkpt lat="42.70167" lon="0.97477">
        <ele>2029.48</ele>
        <time>2010-02-07T09:40:22Z</time>
      </trkpt>
      <trkpt lat="42.70163" lon="0.97487">
        <ele>2030.44</ele>
        <time>2010-02-07T09:40:35Z</time>
      </trkpt>
      <trkpt lat="42.70164" lon="0.97493">
        <ele>2031.4</ele>
        <time>2010-02-07T09:40:48Z</time>
      </trkpt>
      <trkpt lat="42.70163" lon="0.97498">
        <ele>2032.36</ele>
        <time>2010-02-07T09:41:00Z</time>
      </trkpt>
      <trkpt lat="42.70158" lon="0.97501">
        <ele>2033.81</ele>
        <time>2010-02-07T09:41:09Z</time>
      </trkpt>
      <trkpt lat="42.70153" lon="0.97502">
        <ele>2035.25</ele>
        <time>2010-02-07T09:41:18Z</time>
      </trkpt>
      <trkpt lat="42.70147" lon="0.975">
        <ele>2037.17</ele>
        <time>2010-02-07T09:41:29Z</time>
      </trkpt>
      <trkpt lat="42.70147" lon="0.97504">
        <ele>2038.13</ele>
        <time>2010-02-07T09:41:41Z</time>
      </trkpt>
      <trkpt lat="42.70148" lon="0.9751">
        <ele>2039.57</ele>
        <time>2010-02-07T09:41:53Z</time>
      </trkpt>
      <trkpt lat="42.70149" lon="0.97521">
        <ele>2041.98</ele>
        <time>2010-02-07T09:42:08Z</time>
      </trkpt>
      <trkpt lat="42.70147" lon="0.97532">
        <ele>2044.38</ele>
        <time>2010-02-07T09:42:22Z</time>
      </trkpt>
      <trkpt lat="42.70146" lon="0.97536">
        <ele>2045.82</ele>
        <time>2010-02-07T09:42:33Z</time>
      </trkpt>
      <trkpt lat="42.70144" lon="0.97544">
        <ele>2047.26</ele>
        <time>2010-02-07T09:42:46Z</time>
      </trkpt>
      <trkpt lat="42.70143" lon="0.97549">
        <ele>2048.71</ele>
        <time>2010-02-07T09:42:57Z</time>
      </trkpt>
      <trkpt lat="42.70142" lon="0.97554">
        <ele>2050.15</ele>
        <time>2010-02-07T09:43:09Z</time>
      </trkpt>
      <trkpt lat="42.70142" lon="0.97558">
        <ele>2051.11</ele>
        <time>2010-02-07T09:43:19Z</time>
      </trkpt>
      <trkpt lat="42.70143" lon="0.97559">
        <ele>2052.55</ele>
        <time>2010-02-07T09:43:24Z</time>
      </trkpt>
      <trkpt lat="42.70147" lon="0.97569">
        <ele>2053.99</ele>
        <time>2010-02-07T09:43:39Z</time>
      </trkpt>
      <trkpt lat="42.70146" lon="0.97576">
        <ele>2054.96</ele>
        <time>2010-02-07T09:43:49Z</time>
      </trkpt>
      <trkpt lat="42.70143" lon="0.97578">
        <ele>2057.36</ele>
        <time>2010-02-07T09:44:00Z</time>
      </trkpt>
      <trkpt lat="42.70139" lon="0.97578">
        <ele>2057.84</ele>
        <time>2010-02-07T09:44:19Z</time>
      </trkpt>
      <trkpt lat="42.70138" lon="0.97578">
        <ele>2057.84</ele>
        <time>2010-02-07T09:44:25Z</time>
      </trkpt>
      <trkpt lat="42.70129" lon="0.97578">
        <ele>2059.28</ele>
        <time>2010-02-07T09:44:35Z</time>
      </trkpt>
      <trkpt lat="42.70125" lon="0.97578">
        <ele>2061.2</ele>
        <time>2010-02-07T09:44:41Z</time>
      </trkpt>
      <trkpt lat="42.70115" lon="0.9758">
        <ele>2062.17</ele>
        <time>2010-02-07T09:44:55Z</time>
      </trkpt>
      <trkpt lat="42.70111" lon="0.97587">
        <ele>2063.13</ele>
        <time>2010-02-07T09:45:09Z</time>
      </trkpt>
      <trkpt lat="42.70109" lon="0.97593">
        <ele>2064.57</ele>
        <time>2010-02-07T09:45:19Z</time>
      </trkpt>
      <trkpt lat="42.70109" lon="0.97599">
        <ele>2065.53</ele>
        <time>2010-02-07T09:45:29Z</time>
      </trkpt>
      <trkpt lat="42.70102" lon="0.97599">
        <ele>2066.97</ele>
        <time>2010-02-07T09:45:42Z</time>
      </trkpt>
      <trkpt lat="42.70096" lon="0.976">
        <ele>2068.41</ele>
        <time>2010-02-07T09:45:55Z</time>
      </trkpt>
      <trkpt lat="42.70096" lon="0.97606">
        <ele>2069.38</ele>
        <time>2010-02-07T09:46:06Z</time>
      </trkpt>
      <trkpt lat="42.70095" lon="0.97615">
        <ele>2070.82</ele>
        <time>2010-02-07T09:46:19Z</time>
      </trkpt>
      <trkpt lat="42.70095" lon="0.97623">
        <ele>2072.74</ele>
        <time>2010-02-07T09:46:33Z</time>
      </trkpt>
      <trkpt lat="42.70095" lon="0.97625">
        <ele>2072.26</ele>
        <time>2010-02-07T09:46:35Z</time>
      </trkpt>
      <trkpt lat="42.70094" lon="0.97629">
        <ele>2073.22</ele>
        <time>2010-02-07T09:46:46Z</time>
      </trkpt>
      <trkpt lat="42.7009" lon="0.97634">
        <ele>2074.66</ele>
        <time>2010-02-07T09:46:58Z</time>
      </trkpt>
      <trkpt lat="42.70086" lon="0.9764">
        <ele>2075.62</ele>
        <time>2010-02-07T09:47:08Z</time>
      </trkpt>
      <trkpt lat="42.7008" lon="0.97652">
        <ele>2078.03</ele>
        <time>2010-02-07T09:47:22Z</time>
      </trkpt>
      <trkpt lat="42.70079" lon="0.97659">
        <ele>2078.51</ele>
        <time>2010-02-07T09:47:34Z</time>
      </trkpt>
      <trkpt lat="42.70079" lon="0.9766">
        <ele>2078.99</ele>
        <time>2010-02-07T09:47:48Z</time>
      </trkpt>
      <trkpt lat="42.70079" lon="0.97661">
        <ele>2078.03</ele>
        <time>2010-02-07T09:48:28Z</time>
      </trkpt>
      <trkpt lat="42.70079" lon="0.97661">
        <ele>2074.66</ele>
        <time>2010-02-07T09:48:49Z</time>
      </trkpt>
      <trkpt lat="42.70079" lon="0.97661">
        <ele>2076.59</ele>
        <time>2010-02-07T09:48:52Z</time>
      </trkpt>
      <trkpt lat="42.70079" lon="0.97661">
        <ele>2080.43</ele>
        <time>2010-02-07T09:49:39Z</time>
      </trkpt>
      <trkpt lat="42.70079" lon="0.97661">
        <ele>2076.1</ele>
        <time>2010-02-07T09:49:40Z</time>
      </trkpt>
      <trkpt lat="42.70079" lon="0.97661">
        <ele>2080.43</ele>
        <time>2010-02-07T09:50:31Z</time>
      </trkpt>
      <trkpt lat="42.70079" lon="0.97661">
        <ele>2079.47</ele>
        <time>2010-02-07T09:50:32Z</time>
      </trkpt>
      <trkpt lat="42.70079" lon="0.97661">
        <ele>2077.07</ele>
        <time>2010-02-07T09:50:38Z</time>
      </trkpt>
      <trkpt lat="42.70079" lon="0.97661">
        <ele>2081.39</ele>
        <time>2010-02-07T09:50:43Z</time>
      </trkpt>
      <trkpt lat="42.70079" lon="0.97661">
        <ele>2072.74</ele>
        <time>2010-02-07T09:50:44Z</time>
      </trkpt>
      <trkpt lat="42.70079" lon="0.97661">
        <ele>2077.07</ele>
        <time>2010-02-07T09:50:45Z</time>
      </trkpt>
      <trkpt lat="42.70079" lon="0.9766">
        <ele>2078.99</ele>
        <time>2010-02-07T09:51:05Z</time>
      </trkpt>
      <trkpt lat="42.70078" lon="0.9766">
        <ele>2078.99</ele>
        <time>2010-02-07T09:51:26Z</time>
      </trkpt>
      <trkpt lat="42.70078" lon="0.9766">
        <ele>2078.99</ele>
        <time>2010-02-07T09:51:55Z</time>
      </trkpt>
      <trkpt lat="42.70078" lon="0.9766">
        <ele>2079.47</ele>
        <time>2010-02-07T09:53:12Z</time>
      </trkpt>
      <trkpt lat="42.70078" lon="0.97662">
        <ele>2078.99</ele>
        <time>2010-02-07T09:53:40Z</time>
      </trkpt>
      <trkpt lat="42.70078" lon="0.97662">
        <ele>2077.55</ele>
        <time>2010-02-07T09:54:01Z</time>
      </trkpt>
      <trkpt lat="42.70078" lon="0.97662">
        <ele>2081.87</ele>
        <time>2010-02-07T09:54:21Z</time>
      </trkpt>
      <trkpt lat="42.70078" lon="0.97662">
        <ele>2078.99</ele>
        <time>2010-02-07T09:54:22Z</time>
      </trkpt>
      <trkpt lat="42.70078" lon="0.97662">
        <ele>2073.7</ele>
        <time>2010-02-07T09:54:23Z</time>
      </trkpt>
      <trkpt lat="42.70078" lon="0.97662">
        <ele>2077.07</ele>
        <time>2010-02-07T09:54:24Z</time>
      </trkpt>
      <trkpt lat="42.70078" lon="0.97661">
        <ele>2078.51</ele>
        <time>2010-02-07T09:54:37Z</time>
      </trkpt>
      <trkpt lat="42.70078" lon="0.97662">
        <ele>2078.51</ele>
        <time>2010-02-07T09:55:15Z</time>
      </trkpt>
      <trkpt lat="42.70079" lon="0.97664">
        <ele>2078.99</ele>
        <time>2010-02-07T09:56:05Z</time>
      </trkpt>
      <trkpt lat="42.70079" lon="0.97669">
        <ele>2079.47</ele>
        <time>2010-02-07T09:56:16Z</time>
      </trkpt>
      <trkpt lat="42.70078" lon="0.97673">
        <ele>2079.47</ele>
        <time>2010-02-07T09:56:28Z</time>
      </trkpt>
      <trkpt lat="42.70074" lon="0.97681">
        <ele>2080.91</ele>
        <time>2010-02-07T09:56:39Z</time>
      </trkpt>
      <trkpt lat="42.70071" lon="0.97686">
        <ele>2080.91</ele>
        <time>2010-02-07T09:56:46Z</time>
      </trkpt>
      <trkpt lat="42.70066" lon="0.97694">
        <ele>2082.35</ele>
        <time>2010-02-07T09:56:59Z</time>
      </trkpt>
      <trkpt lat="42.70062" lon="0.97699">
        <ele>2083.79</ele>
        <time>2010-02-07T09:57:19Z</time>
      </trkpt>
      <trkpt lat="42.70056" lon="0.97709">
        <ele>2085.72</ele>
        <time>2010-02-07T09:57:32Z</time>
      </trkpt>
      <trkpt lat="42.70052" lon="0.97715">
        <ele>2087.16</ele>
        <time>2010-02-07T09:57:43Z</time>
      </trkpt>
      <trkpt lat="42.70047" lon="0.97723">
        <ele>2088.6</ele>
        <time>2010-02-07T09:57:56Z</time>
      </trkpt>
      <trkpt lat="42.70042" lon="0.97733">
        <ele>2089.56</ele>
        <time>2010-02-07T09:58:10Z</time>
      </trkpt>
      <trkpt lat="42.70043" lon="0.97744">
        <ele>2091.97</ele>
        <time>2010-02-07T09:58:23Z</time>
      </trkpt>
      <trkpt lat="42.70045" lon="0.97755">
        <ele>2094.37</ele>
        <time>2010-02-07T09:58:38Z</time>
      </trkpt>
      <trkpt lat="42.70045" lon="0.97768">
        <ele>2096.29</ele>
        <time>2010-02-07T09:58:53Z</time>
      </trkpt>
      <trkpt lat="42.70047" lon="0.97779">
        <ele>2098.21</ele>
        <time>2010-02-07T09:59:08Z</time>
      </trkpt>
      <trkpt lat="42.70047" lon="0.97789">
        <ele>2099.66</ele>
        <time>2010-02-07T09:59:21Z</time>
      </trkpt>
      <trkpt lat="42.70046" lon="0.97796">
        <ele>2101.58</ele>
        <time>2010-02-07T09:59:34Z</time>
      </trkpt>
      <trkpt lat="42.70047" lon="0.97806">
        <ele>2103.02</ele>
        <time>2010-02-07T09:59:49Z</time>
      </trkpt>
      <trkpt lat="42.70049" lon="0.97815">
        <ele>2104.46</ele>
        <time>2010-02-07T10:00:03Z</time>
      </trkpt>
      <trkpt lat="42.7005" lon="0.97825">
        <ele>2106.87</ele>
        <time>2010-02-07T10:00:17Z</time>
      </trkpt>
      <trkpt lat="42.7005" lon="0.97831">
        <ele>2108.79</ele>
        <time>2010-02-07T10:00:29Z</time>
      </trkpt>
      <trkpt lat="42.70054" lon="0.9784">
        <ele>2109.75</ele>
        <time>2010-02-07T10:00:44Z</time>
      </trkpt>
      <trkpt lat="42.70057" lon="0.97846">
        <ele>2110.71</ele>
        <time>2010-02-07T10:00:57Z</time>
      </trkpt>
      <trkpt lat="42.7006" lon="0.97854">
        <ele>2112.63</ele>
        <time>2010-02-07T10:01:10Z</time>
      </trkpt>
      <trkpt lat="42.70064" lon="0.97864">
        <ele>2113.6</ele>
        <time>2010-02-07T10:01:23Z</time>
      </trkpt>
      <trkpt lat="42.70069" lon="0.9787">
        <ele>2116</ele>
        <time>2010-02-07T10:01:36Z</time>
      </trkpt>
      <trkpt lat="42.70074" lon="0.97877">
        <ele>2117.44</ele>
        <time>2010-02-07T10:01:50Z</time>
      </trkpt>
      <trkpt lat="42.70077" lon="0.97882">
        <ele>2119.36</ele>
        <time>2010-02-07T10:02:02Z</time>
      </trkpt>
      <trkpt lat="42.70082" lon="0.97892">
        <ele>2121.29</ele>
        <time>2010-02-07T10:02:16Z</time>
      </trkpt>
      <trkpt lat="42.70085" lon="0.979">
        <ele>2121.77</ele>
        <time>2010-02-07T10:02:29Z</time>
      </trkpt>
      <trkpt lat="42.70085" lon="0.979">
        <ele>2121.29</ele>
        <time>2010-02-07T10:02:41Z</time>
      </trkpt>
      <trkpt lat="42.70088" lon="0.97908">
        <ele>2122.73</ele>
        <time>2010-02-07T10:02:51Z</time>
      </trkpt>
      <trkpt lat="42.70091" lon="0.97915">
        <ele>2122.25</ele>
        <time>2010-02-07T10:03:03Z</time>
      </trkpt>
      <trkpt lat="42.70093" lon="0.97919">
        <ele>2121.77</ele>
        <time>2010-02-07T10:03:13Z</time>
      </trkpt>
      <trkpt lat="42.70099" lon="0.97931">
        <ele>2121.29</ele>
        <time>2010-02-07T10:03:18Z</time>
      </trkpt>
      <trkpt lat="42.70098" lon="0.97939">
        <ele>2119.36</ele>
        <time>2010-02-07T10:03:24Z</time>
      </trkpt>
      <trkpt lat="42.70094" lon="0.97944">
        <ele>2119.36</ele>
        <time>2010-02-07T10:03:31Z</time>
      </trkpt>
      <trkpt lat="42.70092" lon="0.97947">
        <ele>2119.84</ele>
        <time>2010-02-07T10:03:35Z</time>
      </trkpt>
      <trkpt lat="42.70083" lon="0.9796">
        <ele>2119.84</ele>
        <time>2010-02-07T10:03:47Z</time>
      </trkpt>
      <trkpt lat="42.70081" lon="0.97962">
        <ele>2119.36</ele>
        <time>2010-02-07T10:03:49Z</time>
      </trkpt>
      <trkpt lat="42.70072" lon="0.97974">
        <ele>2119.84</ele>
        <time>2010-02-07T10:04:01Z</time>
      </trkpt>
      <trkpt lat="42.70067" lon="0.97977">
        <ele>2119.84</ele>
        <time>2010-02-07T10:04:07Z</time>
      </trkpt>
      <trkpt lat="42.70059" lon="0.97984">
        <ele>2119.84</ele>
        <time>2010-02-07T10:04:17Z</time>
      </trkpt>
      <trkpt lat="42.70053" lon="0.97991">
        <ele>2119.84</ele>
        <time>2010-02-07T10:04:25Z</time>
      </trkpt>
      <trkpt lat="42.70045" lon="0.97999">
        <ele>2120.32</ele>
        <time>2010-02-07T10:04:38Z</time>
      </trkpt>
      <trkpt lat="42.70044" lon="0.98002">
        <ele>2121.29</ele>
        <time>2010-02-07T10:04:41Z</time>
      </trkpt>
      <trkpt lat="42.70042" lon="0.98005">
        <ele>2120.32</ele>
        <time>2010-02-07T10:04:45Z</time>
      </trkpt>
      <trkpt lat="42.70033" lon="0.98014">
        <ele>2121.77</ele>
        <time>2010-02-07T10:04:58Z</time>
      </trkpt>
      <trkpt lat="42.70024" lon="0.98024">
        <ele>2122.25</ele>
        <time>2010-02-07T10:05:12Z</time>
      </trkpt>
      <trkpt lat="42.70018" lon="0.98031">
        <ele>2122.73</ele>
        <time>2010-02-07T10:05:24Z</time>
      </trkpt>
      <trkpt lat="42.70011" lon="0.98039">
        <ele>2124.17</ele>
        <time>2010-02-07T10:05:37Z</time>
      </trkpt>
      <trkpt lat="42.70005" lon="0.98047">
        <ele>2125.13</ele>
        <time>2010-02-07T10:05:50Z</time>
      </trkpt>
      <trkpt lat="42.69999" lon="0.98054">
        <ele>2126.57</ele>
        <time>2010-02-07T10:06:03Z</time>
      </trkpt>
      <trkpt lat="42.69996" lon="0.9806">
        <ele>2128.5</ele>
        <time>2010-02-07T10:06:15Z</time>
      </trkpt>
      <trkpt lat="42.6999" lon="0.98068">
        <ele>2129.94</ele>
        <time>2010-02-07T10:06:28Z</time>
      </trkpt>
      <trkpt lat="42.69984" lon="0.98074">
        <ele>2131.38</ele>
        <time>2010-02-07T10:06:40Z</time>
      </trkpt>
      <trkpt lat="42.69977" lon="0.98078">
        <ele>2131.86</ele>
        <time>2010-02-07T10:06:50Z</time>
      </trkpt>
      <trkpt lat="42.69969" lon="0.98079">
        <ele>2131.86</ele>
        <time>2010-02-07T10:07:03Z</time>
      </trkpt>
      <trkpt lat="42.69956" lon="0.98082">
        <ele>2130.9</ele>
        <time>2010-02-07T10:07:17Z</time>
      </trkpt>
      <trkpt lat="42.6995" lon="0.98084">
        <ele>2131.38</ele>
        <time>2010-02-07T10:07:24Z</time>
      </trkpt>
      <trkpt lat="42.69948" lon="0.98085">
        <ele>2130.9</ele>
        <time>2010-02-07T10:07:26Z</time>
      </trkpt>
      <trkpt lat="42.69944" lon="0.98087">
        <ele>2131.38</ele>
        <time>2010-02-07T10:07:29Z</time>
      </trkpt>
      <trkpt lat="42.69936" lon="0.98102">
        <ele>2129.94</ele>
        <time>2010-02-07T10:07:37Z</time>
      </trkpt>
      <trkpt lat="42.69933" lon="0.98112">
        <ele>2129.46</ele>
        <time>2010-02-07T10:07:46Z</time>
      </trkpt>
      <trkpt lat="42.69931" lon="0.98115">
        <ele>2129.94</ele>
        <time>2010-02-07T10:07:50Z</time>
      </trkpt>
      <trkpt lat="42.69926" lon="0.98125">
        <ele>2130.42</ele>
        <time>2010-02-07T10:08:02Z</time>
      </trkpt>
      <trkpt lat="42.69922" lon="0.98133">
        <ele>2130.9</ele>
        <time>2010-02-07T10:08:11Z</time>
      </trkpt>
      <trkpt lat="42.6992" lon="0.98137">
        <ele>2131.38</ele>
        <time>2010-02-07T10:08:15Z</time>
      </trkpt>
      <trkpt lat="42.69915" lon="0.98147">
        <ele>2132.34</ele>
        <time>2010-02-07T10:08:27Z</time>
      </trkpt>
      <trkpt lat="42.69911" lon="0.98158">
        <ele>2132.34</ele>
        <time>2010-02-07T10:08:39Z</time>
      </trkpt>
      <trkpt lat="42.69909" lon="0.98166">
        <ele>2133.3</ele>
        <time>2010-02-07T10:08:50Z</time>
      </trkpt>
      <trkpt lat="42.69907" lon="0.98176">
        <ele>2135.23</ele>
        <time>2010-02-07T10:09:05Z</time>
      </trkpt>
      <trkpt lat="42.69908" lon="0.98185">
        <ele>2136.19</ele>
        <time>2010-02-07T10:09:16Z</time>
      </trkpt>
      <trkpt lat="42.69907" lon="0.98197">
        <ele>2138.11</ele>
        <time>2010-02-07T10:09:30Z</time>
      </trkpt>
      <trkpt lat="42.69909" lon="0.98201">
        <ele>2138.11</ele>
        <time>2010-02-07T10:09:34Z</time>
      </trkpt>
      <trkpt lat="42.69909" lon="0.98212">
        <ele>2138.59</ele>
        <time>2010-02-07T10:09:47Z</time>
      </trkpt>
      <trkpt lat="42.69908" lon="0.98224">
        <ele>2140.99</ele>
        <time>2010-02-07T10:10:01Z</time>
      </trkpt>
      <trkpt lat="42.69906" lon="0.98229">
        <ele>2140.51</ele>
        <time>2010-02-07T10:10:07Z</time>
      </trkpt>
      <trkpt lat="42.69903" lon="0.98241">
        <ele>2140.99</ele>
        <time>2010-02-07T10:10:21Z</time>
      </trkpt>
      <trkpt lat="42.69903" lon="0.98242">
        <ele>2141.47</ele>
        <time>2010-02-07T10:10:22Z</time>
      </trkpt>
      <trkpt lat="42.69902" lon="0.98254">
        <ele>2141.95</ele>
        <time>2010-02-07T10:10:34Z</time>
      </trkpt>
      <trkpt lat="42.69902" lon="0.98255">
        <ele>2142.44</ele>
        <time>2010-02-07T10:10:40Z</time>
      </trkpt>
      <trkpt lat="42.69899" lon="0.98265">
        <ele>2142.92</ele>
        <time>2010-02-07T10:10:53Z</time>
      </trkpt>
      <trkpt lat="42.69896" lon="0.98274">
        <ele>2143.4</ele>
        <time>2010-02-07T10:11:05Z</time>
      </trkpt>
      <trkpt lat="42.69891" lon="0.9828">
        <ele>2144.36</ele>
        <time>2010-02-07T10:11:17Z</time>
      </trkpt>
      <trkpt lat="42.69884" lon="0.98286">
        <ele>2144.84</ele>
        <time>2010-02-07T10:11:30Z</time>
      </trkpt>
      <trkpt lat="42.6988" lon="0.9829">
        <ele>2145.32</ele>
        <time>2010-02-07T10:11:57Z</time>
      </trkpt>
      <trkpt lat="42.69878" lon="0.9829">
        <ele>2144.84</ele>
        <time>2010-02-07T10:12:14Z</time>
      </trkpt>
      <trkpt lat="42.69873" lon="0.98296">
        <ele>2146.76</ele>
        <time>2010-02-07T10:12:34Z</time>
      </trkpt>
      <trkpt lat="42.69871" lon="0.98299">
        <ele>2146.76</ele>
        <time>2010-02-07T10:12:47Z</time>
      </trkpt>
      <trkpt lat="42.6987" lon="0.98302">
        <ele>2147.24</ele>
        <time>2010-02-07T10:13:01Z</time>
      </trkpt>
      <trkpt lat="42.69871" lon="0.98304">
        <ele>2147.24</ele>
        <time>2010-02-07T10:13:05Z</time>
      </trkpt>
      <trkpt lat="42.69871" lon="0.98309">
        <ele>2148.2</ele>
        <time>2010-02-07T10:13:20Z</time>
      </trkpt>
      <trkpt lat="42.6987" lon="0.98312">
        <ele>2149.16</ele>
        <time>2010-02-07T10:13:24Z</time>
      </trkpt>
      <trkpt lat="42.69869" lon="0.98313">
        <ele>2150.13</ele>
        <time>2010-02-07T10:13:25Z</time>
      </trkpt>
      <trkpt lat="42.69864" lon="0.98326">
        <ele>2151.09</ele>
        <time>2010-02-07T10:13:39Z</time>
      </trkpt>
      <trkpt lat="42.69863" lon="0.9833">
        <ele>2152.05</ele>
        <time>2010-02-07T10:13:48Z</time>
      </trkpt>
      <trkpt lat="42.69867" lon="0.9833">
        <ele>2153.97</ele>
        <time>2010-02-07T10:13:59Z</time>
      </trkpt>
      <trkpt lat="42.6987" lon="0.98334">
        <ele>2155.41</ele>
        <time>2010-02-07T10:14:10Z</time>
      </trkpt>
      <trkpt lat="42.6987" lon="0.98342">
        <ele>2156.37</ele>
        <time>2010-02-07T10:14:22Z</time>
      </trkpt>
      <trkpt lat="42.69875" lon="0.98351">
        <ele>2158.78</ele>
        <time>2010-02-07T10:14:37Z</time>
      </trkpt>
      <trkpt lat="42.69877" lon="0.98354">
        <ele>2160.7</ele>
        <time>2010-02-07T10:14:49Z</time>
      </trkpt>
      <trkpt lat="42.6988" lon="0.98361">
        <ele>2161.66</ele>
        <time>2010-02-07T10:15:02Z</time>
      </trkpt>
      <trkpt lat="42.69877" lon="0.98369">
        <ele>2164.06</ele>
        <time>2010-02-07T10:15:14Z</time>
      </trkpt>
      <trkpt lat="42.69873" lon="0.98374">
        <ele>2165.03</ele>
        <time>2010-02-07T10:15:27Z</time>
      </trkpt>
      <trkpt lat="42.6987" lon="0.98377">
        <ele>2166.47</ele>
        <time>2010-02-07T10:15:39Z</time>
      </trkpt>
      <trkpt lat="42.69868" lon="0.98387">
        <ele>2167.43</ele>
        <time>2010-02-07T10:15:50Z</time>
      </trkpt>
      <trkpt lat="42.69866" lon="0.98396">
        <ele>2169.35</ele>
        <time>2010-02-07T10:16:04Z</time>
      </trkpt>
      <trkpt lat="42.69863" lon="0.98407">
        <ele>2170.79</ele>
        <time>2010-02-07T10:16:18Z</time>
      </trkpt>
      <trkpt lat="42.69861" lon="0.98412">
        <ele>2172.72</ele>
        <time>2010-02-07T10:16:29Z</time>
      </trkpt>
      <trkpt lat="42.69859" lon="0.9842">
        <ele>2173.68</ele>
        <time>2010-02-07T10:16:44Z</time>
      </trkpt>
      <trkpt lat="42.69863" lon="0.98421">
        <ele>2174.64</ele>
        <time>2010-02-07T10:16:54Z</time>
      </trkpt>
      <trkpt lat="42.69869" lon="0.98421">
        <ele>2177.04</ele>
        <time>2010-02-07T10:17:06Z</time>
      </trkpt>
      <trkpt lat="42.69875" lon="0.98427">
        <ele>2178</ele>
        <time>2010-02-07T10:17:19Z</time>
      </trkpt>
      <trkpt lat="42.69878" lon="0.98433">
        <ele>2178.97</ele>
        <time>2010-02-07T10:17:33Z</time>
      </trkpt>
      <trkpt lat="42.69879" lon="0.98436">
        <ele>2180.41</ele>
        <time>2010-02-07T10:17:38Z</time>
      </trkpt>
      <trkpt lat="42.69879" lon="0.98443">
        <ele>2181.85</ele>
        <time>2010-02-07T10:17:49Z</time>
      </trkpt>
      <trkpt lat="42.69874" lon="0.98451">
        <ele>2183.77</ele>
        <time>2010-02-07T10:18:03Z</time>
      </trkpt>
      <trkpt lat="42.69872" lon="0.98457">
        <ele>2184.73</ele>
        <time>2010-02-07T10:18:14Z</time>
      </trkpt>
      <trkpt lat="42.69875" lon="0.98462">
        <ele>2185.69</ele>
        <time>2010-02-07T10:18:24Z</time>
      </trkpt>
      <trkpt lat="42.6988" lon="0.98467">
        <ele>2187.14</ele>
        <time>2010-02-07T10:18:37Z</time>
      </trkpt>
      <trkpt lat="42.69882" lon="0.9847">
        <ele>2188.58</ele>
        <time>2010-02-07T10:18:50Z</time>
      </trkpt>
      <trkpt lat="42.69881" lon="0.98474">
        <ele>2189.54</ele>
        <time>2010-02-07T10:19:02Z</time>
      </trkpt>
      <trkpt lat="42.69882" lon="0.98481">
        <ele>2191.46</ele>
        <time>2010-02-07T10:19:11Z</time>
      </trkpt>
      <trkpt lat="42.69883" lon="0.98488">
        <ele>2192.9</ele>
        <time>2010-02-07T10:19:24Z</time>
      </trkpt>
      <trkpt lat="42.69884" lon="0.98498">
        <ele>2195.79</ele>
        <time>2010-02-07T10:19:42Z</time>
      </trkpt>
      <trkpt lat="42.69885" lon="0.98504">
        <ele>2196.75</ele>
        <time>2010-02-07T10:19:49Z</time>
      </trkpt>
      <trkpt lat="42.69885" lon="0.98511">
        <ele>2197.23</ele>
        <time>2010-02-07T10:20:01Z</time>
      </trkpt>
      <trkpt lat="42.69885" lon="0.98526">
        <ele>2198.67</ele>
        <time>2010-02-07T10:20:19Z</time>
      </trkpt>
      <trkpt lat="42.69887" lon="0.98538">
        <ele>2200.59</ele>
        <time>2010-02-07T10:20:33Z</time>
      </trkpt>
      <trkpt lat="42.69888" lon="0.98546">
        <ele>2201.56</ele>
        <time>2010-02-07T10:20:46Z</time>
      </trkpt>
      <trkpt lat="42.69889" lon="0.98556">
        <ele>2203.48</ele>
        <time>2010-02-07T10:21:01Z</time>
      </trkpt>
      <trkpt lat="42.6989" lon="0.98567">
        <ele>2204.92</ele>
        <time>2010-02-07T10:21:17Z</time>
      </trkpt>
      <trkpt lat="42.6989" lon="0.98574">
        <ele>2206.36</ele>
        <time>2010-02-07T10:21:32Z</time>
      </trkpt>
      <trkpt lat="42.69892" lon="0.98588">
        <ele>2208.29</ele>
        <time>2010-02-07T10:21:47Z</time>
      </trkpt>
      <trkpt lat="42.69893" lon="0.98601">
        <ele>2209.25</ele>
        <time>2010-02-07T10:22:03Z</time>
      </trkpt>
      <trkpt lat="42.69892" lon="0.98614">
        <ele>2209.73</ele>
        <time>2010-02-07T10:22:19Z</time>
      </trkpt>
      <trkpt lat="42.69892" lon="0.98626">
        <ele>2212.13</ele>
        <time>2010-02-07T10:22:34Z</time>
      </trkpt>
      <trkpt lat="42.69892" lon="0.98639">
        <ele>2212.61</ele>
        <time>2010-02-07T10:22:48Z</time>
      </trkpt>
      <trkpt lat="42.69892" lon="0.9865">
        <ele>2213.09</ele>
        <time>2010-02-07T10:23:00Z</time>
      </trkpt>
      <trkpt lat="42.6989" lon="0.98662">
        <ele>2214.53</ele>
        <time>2010-02-07T10:23:14Z</time>
      </trkpt>
      <trkpt lat="42.69888" lon="0.98674">
        <ele>2215.01</ele>
        <time>2010-02-07T10:23:28Z</time>
      </trkpt>
      <trkpt lat="42.69886" lon="0.98682">
        <ele>2215.5</ele>
        <time>2010-02-07T10:23:41Z</time>
      </trkpt>
      <trkpt lat="42.69886" lon="0.98693">
        <ele>2217.42</ele>
        <time>2010-02-07T10:23:57Z</time>
      </trkpt>
      <trkpt lat="42.69885" lon="0.98702">
        <ele>2219.82</ele>
        <time>2010-02-07T10:24:11Z</time>
      </trkpt>
      <trkpt lat="42.69883" lon="0.98706">
        <ele>2220.78</ele>
        <time>2010-02-07T10:24:21Z</time>
      </trkpt>
      <trkpt lat="42.69881" lon="0.98716">
        <ele>2221.74</ele>
        <time>2010-02-07T10:24:33Z</time>
      </trkpt>
      <trkpt lat="42.69882" lon="0.98722">
        <ele>2222.71</ele>
        <time>2010-02-07T10:24:43Z</time>
      </trkpt>
      <trkpt lat="42.69885" lon="0.98726">
        <ele>2223.67</ele>
        <time>2010-02-07T10:24:58Z</time>
      </trkpt>
      <trkpt lat="42.69886" lon="0.98727">
        <ele>2225.59</ele>
        <time>2010-02-07T10:25:00Z</time>
      </trkpt>
      <trkpt lat="42.6989" lon="0.98736">
        <ele>2226.07</ele>
        <time>2010-02-07T10:25:16Z</time>
      </trkpt>
      <trkpt lat="42.69894" lon="0.98741">
        <ele>2227.03</ele>
        <time>2010-02-07T10:25:26Z</time>
      </trkpt>
      <trkpt lat="42.69896" lon="0.98745">
        <ele>2227.99</ele>
        <time>2010-02-07T10:25:37Z</time>
      </trkpt>
      <trkpt lat="42.69897" lon="0.98751">
        <ele>2228.95</ele>
        <time>2010-02-07T10:25:48Z</time>
      </trkpt>
      <trkpt lat="42.69892" lon="0.98754">
        <ele>2230.88</ele>
        <time>2010-02-07T10:26:00Z</time>
      </trkpt>
      <trkpt lat="42.69888" lon="0.98758">
        <ele>2232.8</ele>
        <time>2010-02-07T10:26:13Z</time>
      </trkpt>
      <trkpt lat="42.69892" lon="0.98763">
        <ele>2233.76</ele>
        <time>2010-02-07T10:26:28Z</time>
      </trkpt>
      <trkpt lat="42.69901" lon="0.98768">
        <ele>2235.68</ele>
        <time>2010-02-07T10:26:41Z</time>
      </trkpt>
      <trkpt lat="42.69908" lon="0.98769">
        <ele>2237.61</ele>
        <time>2010-02-07T10:26:53Z</time>
      </trkpt>
      <trkpt lat="42.6991" lon="0.98771">
        <ele>2238.57</ele>
        <time>2010-02-07T10:26:56Z</time>
      </trkpt>
      <trkpt lat="42.69912" lon="0.98776">
        <ele>2239.53</ele>
        <time>2010-02-07T10:27:02Z</time>
      </trkpt>
      <trkpt lat="42.69911" lon="0.98785">
        <ele>2241.45</ele>
        <time>2010-02-07T10:27:14Z</time>
      </trkpt>
      <trkpt lat="42.69908" lon="0.98791">
        <ele>2243.85</ele>
        <time>2010-02-07T10:27:28Z</time>
      </trkpt>
      <trkpt lat="42.69909" lon="0.98795">
        <ele>2245.3</ele>
        <time>2010-02-07T10:27:45Z</time>
      </trkpt>
      <trkpt lat="42.69914" lon="0.98804">
        <ele>2246.74</ele>
        <time>2010-02-07T10:27:58Z</time>
      </trkpt>
      <trkpt lat="42.69917" lon="0.98811">
        <ele>2246.74</ele>
        <time>2010-02-07T10:28:10Z</time>
      </trkpt>
      <trkpt lat="42.69922" lon="0.98819">
        <ele>2248.18</ele>
        <time>2010-02-07T10:28:24Z</time>
      </trkpt>
      <trkpt lat="42.69926" lon="0.9883">
        <ele>2249.62</ele>
        <time>2010-02-07T10:28:38Z</time>
      </trkpt>
      <trkpt lat="42.69932" lon="0.9884">
        <ele>2250.1</ele>
        <time>2010-02-07T10:28:52Z</time>
      </trkpt>
      <trkpt lat="42.69936" lon="0.98845">
        <ele>2251.06</ele>
        <time>2010-02-07T10:29:05Z</time>
      </trkpt>
      <trkpt lat="42.69942" lon="0.98855">
        <ele>2251.06</ele>
        <time>2010-02-07T10:29:17Z</time>
      </trkpt>
      <trkpt lat="42.69946" lon="0.98859">
        <ele>2252.03</ele>
        <time>2010-02-07T10:29:29Z</time>
      </trkpt>
      <trkpt lat="42.69951" lon="0.98863">
        <ele>2253.47</ele>
        <time>2010-02-07T10:29:45Z</time>
      </trkpt>
      <trkpt lat="42.69959" lon="0.9887">
        <ele>2253.95</ele>
        <time>2010-02-07T10:29:59Z</time>
      </trkpt>
      <trkpt lat="42.69963" lon="0.98875">
        <ele>2255.87</ele>
        <time>2010-02-07T10:30:20Z</time>
      </trkpt>
      <trkpt lat="42.69965" lon="0.98878">
        <ele>2257.31</ele>
        <time>2010-02-07T10:30:29Z</time>
      </trkpt>
      <trkpt lat="42.69966" lon="0.98881">
        <ele>2256.83</ele>
        <time>2010-02-07T10:30:33Z</time>
      </trkpt>
      <trkpt lat="42.69966" lon="0.98886">
        <ele>2257.79</ele>
        <time>2010-02-07T10:30:39Z</time>
      </trkpt>
      <trkpt lat="42.69967" lon="0.98888">
        <ele>2258.75</ele>
        <time>2010-02-07T10:30:43Z</time>
      </trkpt>
      <trkpt lat="42.69967" lon="0.98888">
        <ele>2259.72</ele>
        <time>2010-02-07T10:30:48Z</time>
      </trkpt>
      <trkpt lat="42.69968" lon="0.98896">
        <ele>2260.68</ele>
        <time>2010-02-07T10:31:00Z</time>
      </trkpt>
      <trkpt lat="42.69968" lon="0.98901">
        <ele>2262.6</ele>
        <time>2010-02-07T10:31:14Z</time>
      </trkpt>
      <trkpt lat="42.69968" lon="0.98902">
        <ele>2263.56</ele>
        <time>2010-02-07T10:31:21Z</time>
      </trkpt>
      <trkpt lat="42.69969" lon="0.98908">
        <ele>2264.04</ele>
        <time>2010-02-07T10:31:33Z</time>
      </trkpt>
      <trkpt lat="42.69971" lon="0.98913">
        <ele>2265.48</ele>
        <time>2010-02-07T10:31:44Z</time>
      </trkpt>
      <trkpt lat="42.69972" lon="0.9892">
        <ele>2266.93</ele>
        <time>2010-02-07T10:31:57Z</time>
      </trkpt>
      <trkpt lat="42.69972" lon="0.98927">
        <ele>2268.37</ele>
        <time>2010-02-07T10:32:10Z</time>
      </trkpt>
      <trkpt lat="42.69974" lon="0.98933">
        <ele>2270.29</ele>
        <time>2010-02-07T10:32:22Z</time>
      </trkpt>
      <trkpt lat="42.69977" lon="0.98938">
        <ele>2271.73</ele>
        <time>2010-02-07T10:32:33Z</time>
      </trkpt>
      <trkpt lat="42.69977" lon="0.98943">
        <ele>2273.17</ele>
        <time>2010-02-07T10:32:46Z</time>
      </trkpt>
      <trkpt lat="42.69982" lon="0.98951">
        <ele>2273.66</ele>
        <time>2010-02-07T10:32:57Z</time>
      </trkpt>
      <trkpt lat="42.69985" lon="0.9896">
        <ele>2276.06</ele>
        <time>2010-02-07T10:33:10Z</time>
      </trkpt>
      <trkpt lat="42.69987" lon="0.98969">
        <ele>2277.02</ele>
        <time>2010-02-07T10:33:24Z</time>
      </trkpt>
      <trkpt lat="42.69991" lon="0.9898">
        <ele>2278.46</ele>
        <time>2010-02-07T10:33:38Z</time>
      </trkpt>
      <trkpt lat="42.69994" lon="0.98991">
        <ele>2279.42</ele>
        <time>2010-02-07T10:33:52Z</time>
      </trkpt>
      <trkpt lat="42.69997" lon="0.99">
        <ele>2280.87</ele>
        <time>2010-02-07T10:34:07Z</time>
      </trkpt>
      <trkpt lat="42.69999" lon="0.99013">
        <ele>2281.35</ele>
        <time>2010-02-07T10:34:21Z</time>
      </trkpt>
      <trkpt lat="42.7" lon="0.99025">
        <ele>2283.27</ele>
        <time>2010-02-07T10:34:34Z</time>
      </trkpt>
      <trkpt lat="42.70002" lon="0.99033">
        <ele>2284.71</ele>
        <time>2010-02-07T10:34:48Z</time>
      </trkpt>
      <trkpt lat="42.70003" lon="0.99039">
        <ele>2285.67</ele>
        <time>2010-02-07T10:34:57Z</time>
      </trkpt>
      <trkpt lat="42.70006" lon="0.99049">
        <ele>2289.04</ele>
        <time>2010-02-07T10:35:15Z</time>
      </trkpt>
      <trkpt lat="42.70011" lon="0.99059">
        <ele>2289.52</ele>
        <time>2010-02-07T10:35:29Z</time>
      </trkpt>
      <trkpt lat="42.70014" lon="0.99068">
        <ele>2291.44</ele>
        <time>2010-02-07T10:35:43Z</time>
      </trkpt>
      <trkpt lat="42.70015" lon="0.99072">
        <ele>2292.4</ele>
        <time>2010-02-07T10:35:54Z</time>
      </trkpt>
      <trkpt lat="42.70015" lon="0.99072">
        <ele>2291.44</ele>
        <time>2010-02-07T10:36:07Z</time>
      </trkpt>
      <trkpt lat="42.70016" lon="0.99072">
        <ele>2291.92</ele>
        <time>2010-02-07T10:36:31Z</time>
      </trkpt>
      <trkpt lat="42.70016" lon="0.99073">
        <ele>2290.48</ele>
        <time>2010-02-07T10:36:40Z</time>
      </trkpt>
      <trkpt lat="42.70016" lon="0.99072">
        <ele>2291.44</ele>
        <time>2010-02-07T10:37:06Z</time>
      </trkpt>
      <trkpt lat="42.70016" lon="0.99072">
        <ele>2291.44</ele>
        <time>2010-02-07T10:37:35Z</time>
      </trkpt>
      <trkpt lat="42.70015" lon="0.99076">
        <ele>2291.92</ele>
        <time>2010-02-07T10:37:48Z</time>
      </trkpt>
      <trkpt lat="42.70015" lon="0.99078">
        <ele>2290.96</ele>
        <time>2010-02-07T10:37:55Z</time>
      </trkpt>
      <trkpt lat="42.70015" lon="0.99074">
        <ele>2291.92</ele>
        <time>2010-02-07T10:38:17Z</time>
      </trkpt>
      <trkpt lat="42.70015" lon="0.99074">
        <ele>2291.44</ele>
        <time>2010-02-07T10:38:48Z</time>
      </trkpt>
      <trkpt lat="42.70015" lon="0.99074">
        <ele>2290.96</ele>
        <time>2010-02-07T10:40:17Z</time>
      </trkpt>
      <trkpt lat="42.70015" lon="0.99074">
        <ele>2291.44</ele>
        <time>2010-02-07T10:40:54Z</time>
      </trkpt>
      <trkpt lat="42.70015" lon="0.99074">
        <ele>2291.92</ele>
        <time>2010-02-07T10:41:33Z</time>
      </trkpt>
      <trkpt lat="42.70015" lon="0.99074">
        <ele>2290.96</ele>
        <time>2010-02-07T10:42:26Z</time>
      </trkpt>
      <trkpt lat="42.70014" lon="0.99073">
        <ele>2291.44</ele>
        <time>2010-02-07T10:42:44Z</time>
      </trkpt>
      <trkpt lat="42.70017" lon="0.99074">
        <ele>2291.44</ele>
        <time>2010-02-07T10:42:54Z</time>
      </trkpt>
      <trkpt lat="42.70021" lon="0.99078">
        <ele>2292.4</ele>
        <time>2010-02-07T10:43:06Z</time>
      </trkpt>
      <trkpt lat="42.70025" lon="0.99084">
        <ele>2293.84</ele>
        <time>2010-02-07T10:43:20Z</time>
      </trkpt>
      <trkpt lat="42.70027" lon="0.99086">
        <ele>2293.36</ele>
        <time>2010-02-07T10:43:24Z</time>
      </trkpt>
      <trkpt lat="42.70035" lon="0.99099">
        <ele>2292.88</ele>
        <time>2010-02-07T10:43:39Z</time>
      </trkpt>
      <trkpt lat="42.70039" lon="0.99107">
        <ele>2293.84</ele>
        <time>2010-02-07T10:43:50Z</time>
      </trkpt>
      <trkpt lat="42.70041" lon="0.99115">
        <ele>2295.28</ele>
        <time>2010-02-07T10:44:00Z</time>
      </trkpt>
      <trkpt lat="42.70041" lon="0.99119">
        <ele>2295.28</ele>
        <time>2010-02-07T10:44:04Z</time>
      </trkpt>
      <trkpt lat="42.70041" lon="0.99129">
        <ele>2296.73</ele>
        <time>2010-02-07T10:44:17Z</time>
      </trkpt>
      <trkpt lat="42.70041" lon="0.99131">
        <ele>2297.21</ele>
        <time>2010-02-07T10:44:32Z</time>
      </trkpt>
      <trkpt lat="42.70044" lon="0.99139">
        <ele>2299.61</ele>
        <time>2010-02-07T10:44:43Z</time>
      </trkpt>
      <trkpt lat="42.70052" lon="0.99145">
        <ele>2300.57</ele>
        <time>2010-02-07T10:44:54Z</time>
      </trkpt>
      <trkpt lat="42.70057" lon="0.99149">
        <ele>2302.49</ele>
        <time>2010-02-07T10:45:06Z</time>
      </trkpt>
      <trkpt lat="42.7006" lon="0.99161">
        <ele>2303.46</ele>
        <time>2010-02-07T10:45:19Z</time>
      </trkpt>
      <trkpt lat="42.70062" lon="0.99172">
        <ele>2303.94</ele>
        <time>2010-02-07T10:45:31Z</time>
      </trkpt>
      <trkpt lat="42.70064" lon="0.99184">
        <ele>2305.38</ele>
        <time>2010-02-07T10:45:42Z</time>
      </trkpt>
      <trkpt lat="42.70064" lon="0.99185">
        <ele>2305.38</ele>
        <time>2010-02-07T10:45:43Z</time>
      </trkpt>
      <trkpt lat="42.70065" lon="0.99194">
        <ele>2305.86</ele>
        <time>2010-02-07T10:45:52Z</time>
      </trkpt>
      <trkpt lat="42.70069" lon="0.99208">
        <ele>2306.34</ele>
        <time>2010-02-07T10:46:06Z</time>
      </trkpt>
      <trkpt lat="42.70071" lon="0.99218">
        <ele>2307.3</ele>
        <time>2010-02-07T10:46:19Z</time>
      </trkpt>
      <trkpt lat="42.70073" lon="0.99229">
        <ele>2309.22</ele>
        <time>2010-02-07T10:46:33Z</time>
      </trkpt>
      <trkpt lat="42.70076" lon="0.99236">
        <ele>2309.22</ele>
        <time>2010-02-07T10:46:45Z</time>
      </trkpt>
      <trkpt lat="42.70078" lon="0.99246">
        <ele>2311.15</ele>
        <time>2010-02-07T10:46:59Z</time>
      </trkpt>
      <trkpt lat="42.70082" lon="0.99258">
        <ele>2313.07</ele>
        <time>2010-02-07T10:47:12Z</time>
      </trkpt>
      <trkpt lat="42.70085" lon="0.9927">
        <ele>2314.51</ele>
        <time>2010-02-07T10:47:25Z</time>
      </trkpt>
      <trkpt lat="42.70085" lon="0.99271">
        <ele>2314.51</ele>
        <time>2010-02-07T10:47:26Z</time>
      </trkpt>
      <trkpt lat="42.70087" lon="0.99278">
        <ele>2314.03</ele>
        <time>2010-02-07T10:47:38Z</time>
      </trkpt>
      <trkpt lat="42.70087" lon="0.99283">
        <ele>2314.03</ele>
        <time>2010-02-07T10:47:51Z</time>
      </trkpt>
      <trkpt lat="42.7009" lon="0.99302">
        <ele>2314.99</ele>
        <time>2010-02-07T10:48:05Z</time>
      </trkpt>
      <trkpt lat="42.70091" lon="0.99309">
        <ele>2314.99</ele>
        <time>2010-02-07T10:48:14Z</time>
      </trkpt>
      <trkpt lat="42.70091" lon="0.99312">
        <ele>2315.47</ele>
        <time>2010-02-07T10:48:17Z</time>
      </trkpt>
      <trkpt lat="42.70093" lon="0.99319">
        <ele>2316.43</ele>
        <time>2010-02-07T10:48:23Z</time>
      </trkpt>
      <trkpt lat="42.70093" lon="0.9932">
        <ele>2315.95</ele>
        <time>2010-02-07T10:48:24Z</time>
      </trkpt>
      <trkpt lat="42.70096" lon="0.99333">
        <ele>2316.43</ele>
        <time>2010-02-07T10:48:35Z</time>
      </trkpt>
      <trkpt lat="42.70098" lon="0.99336">
        <ele>2316.91</ele>
        <time>2010-02-07T10:48:39Z</time>
      </trkpt>
      <trkpt lat="42.701" lon="0.99343">
        <ele>2315.95</ele>
        <time>2010-02-07T10:48:44Z</time>
      </trkpt>
      <trkpt lat="42.70106" lon="0.9936">
        <ele>2316.43</ele>
        <time>2010-02-07T10:48:59Z</time>
      </trkpt>
      <trkpt lat="42.70111" lon="0.99374">
        <ele>2315.47</ele>
        <time>2010-02-07T10:49:11Z</time>
      </trkpt>
      <trkpt lat="42.70118" lon="0.9939">
        <ele>2316.43</ele>
        <time>2010-02-07T10:49:25Z</time>
      </trkpt>
      <trkpt lat="42.70126" lon="0.99403">
        <ele>2316.43</ele>
        <time>2010-02-07T10:49:39Z</time>
      </trkpt>
      <trkpt lat="42.70132" lon="0.99408">
        <ele>2316.91</ele>
        <time>2010-02-07T10:49:47Z</time>
      </trkpt>
      <trkpt lat="42.70135" lon="0.99411">
        <ele>2317.4</ele>
        <time>2010-02-07T10:49:51Z</time>
      </trkpt>
      <trkpt lat="42.70141" lon="0.99421">
        <ele>2317.4</ele>
        <time>2010-02-07T10:50:04Z</time>
      </trkpt>
      <trkpt lat="42.70143" lon="0.99426">
        <ele>2316.43</ele>
        <time>2010-02-07T10:50:11Z</time>
      </trkpt>
      <trkpt lat="42.70147" lon="0.99434">
        <ele>2316.43</ele>
        <time>2010-02-07T10:50:18Z</time>
      </trkpt>
      <trkpt lat="42.70157" lon="0.99451">
        <ele>2314.99</ele>
        <time>2010-02-07T10:50:28Z</time>
      </trkpt>
      <trkpt lat="42.7016" lon="0.99456">
        <ele>2314.03</ele>
        <time>2010-02-07T10:50:32Z</time>
      </trkpt>
      <trkpt lat="42.70162" lon="0.99459">
        <ele>2314.03</ele>
        <time>2010-02-07T10:50:36Z</time>
      </trkpt>
      <trkpt lat="42.7017" lon="0.99469">
        <ele>2314.03</ele>
        <time>2010-02-07T10:50:49Z</time>
      </trkpt>
      <trkpt lat="42.70179" lon="0.99475">
        <ele>2314.03</ele>
        <time>2010-02-07T10:51:02Z</time>
      </trkpt>
      <trkpt lat="42.70186" lon="0.99477">
        <ele>2314.51</ele>
        <time>2010-02-07T10:51:14Z</time>
      </trkpt>
      <trkpt lat="42.70195" lon="0.99479">
        <ele>2315.95</ele>
        <time>2010-02-07T10:51:28Z</time>
      </trkpt>
      <trkpt lat="42.70203" lon="0.99475">
        <ele>2316.91</ele>
        <time>2010-02-07T10:51:40Z</time>
      </trkpt>
      <trkpt lat="42.70206" lon="0.99472">
        <ele>2316.43</ele>
        <time>2010-02-07T10:51:44Z</time>
      </trkpt>
      <trkpt lat="42.70213" lon="0.99469">
        <ele>2314.99</ele>
        <time>2010-02-07T10:51:50Z</time>
      </trkpt>
      <trkpt lat="42.7022" lon="0.99469">
        <ele>2314.03</ele>
        <time>2010-02-07T10:51:56Z</time>
      </trkpt>
      <trkpt lat="42.70229" lon="0.99467">
        <ele>2314.99</ele>
        <time>2010-02-07T10:52:08Z</time>
      </trkpt>
      <trkpt lat="42.70239" lon="0.99469">
        <ele>2315.47</ele>
        <time>2010-02-07T10:52:20Z</time>
      </trkpt>
      <trkpt lat="42.70247" lon="0.99475">
        <ele>2315.95</ele>
        <time>2010-02-07T10:52:32Z</time>
      </trkpt>
      <trkpt lat="42.70255" lon="0.99483">
        <ele>2316.43</ele>
        <time>2010-02-07T10:52:44Z</time>
      </trkpt>
      <trkpt lat="42.70257" lon="0.99484">
        <ele>2315.95</ele>
        <time>2010-02-07T10:52:47Z</time>
      </trkpt>
      <trkpt lat="42.70265" lon="0.99493">
        <ele>2317.4</ele>
        <time>2010-02-07T10:53:01Z</time>
      </trkpt>
      <trkpt lat="42.70272" lon="0.99504">
        <ele>2317.88</ele>
        <time>2010-02-07T10:53:15Z</time>
      </trkpt>
      <trkpt lat="42.70277" lon="0.99513">
        <ele>2318.36</ele>
        <time>2010-02-07T10:53:27Z</time>
      </trkpt>
      <trkpt lat="42.70282" lon="0.99524">
        <ele>2318.36</ele>
        <time>2010-02-07T10:53:39Z</time>
      </trkpt>
      <trkpt lat="42.70289" lon="0.99529">
        <ele>2319.32</ele>
        <time>2010-02-07T10:53:52Z</time>
      </trkpt>
      <trkpt lat="42.70294" lon="0.99532">
        <ele>2319.32</ele>
        <time>2010-02-07T10:54:02Z</time>
      </trkpt>
      <trkpt lat="42.70301" lon="0.99535">
        <ele>2320.28</ele>
        <time>2010-02-07T10:54:15Z</time>
      </trkpt>
      <trkpt lat="42.7031" lon="0.99539">
        <ele>2322.2</ele>
        <time>2010-02-07T10:54:29Z</time>
      </trkpt>
      <trkpt lat="42.70317" lon="0.99548">
        <ele>2322.68</ele>
        <time>2010-02-07T10:54:42Z</time>
      </trkpt>
      <trkpt lat="42.70317" lon="0.99549">
        <ele>2323.16</ele>
        <time>2010-02-07T10:54:43Z</time>
      </trkpt>
      <trkpt lat="42.70322" lon="0.99557">
        <ele>2323.64</ele>
        <time>2010-02-07T10:54:54Z</time>
      </trkpt>
      <trkpt lat="42.70322" lon="0.99561">
        <ele>2322.68</ele>
        <time>2010-02-07T10:54:58Z</time>
      </trkpt>
      <trkpt lat="42.70329" lon="0.9957">
        <ele>2324.12</ele>
        <time>2010-02-07T10:55:10Z</time>
      </trkpt>
      <trkpt lat="42.70334" lon="0.99574">
        <ele>2323.16</ele>
        <time>2010-02-07T10:55:15Z</time>
      </trkpt>
      <trkpt lat="42.70346" lon="0.99579">
        <ele>2322.2</ele>
        <time>2010-02-07T10:55:29Z</time>
      </trkpt>
      <trkpt lat="42.70348" lon="0.99581">
        <ele>2321.72</ele>
        <time>2010-02-07T10:55:45Z</time>
      </trkpt>
      <trkpt lat="42.70348" lon="0.99583">
        <ele>2322.2</ele>
        <time>2010-02-07T10:55:55Z</time>
      </trkpt>
      <trkpt lat="42.70358" lon="0.99588">
        <ele>2323.64</ele>
        <time>2010-02-07T10:56:07Z</time>
      </trkpt>
      <trkpt lat="42.70363" lon="0.99591">
        <ele>2324.12</ele>
        <time>2010-02-07T10:56:20Z</time>
      </trkpt>
      <trkpt lat="42.70371" lon="0.99595">
        <ele>2325.57</ele>
        <time>2010-02-07T10:56:33Z</time>
      </trkpt>
      <trkpt lat="42.70376" lon="0.996">
        <ele>2327.97</ele>
        <time>2010-02-07T10:56:47Z</time>
      </trkpt>
      <trkpt lat="42.70381" lon="0.99604">
        <ele>2329.89</ele>
        <time>2010-02-07T10:56:58Z</time>
      </trkpt>
      <trkpt lat="42.70387" lon="0.99608">
        <ele>2331.33</ele>
        <time>2010-02-07T10:57:09Z</time>
      </trkpt>
      <trkpt lat="42.70396" lon="0.99614">
        <ele>2332.3</ele>
        <time>2010-02-07T10:57:23Z</time>
      </trkpt>
      <trkpt lat="42.70404" lon="0.99618">
        <ele>2334.22</ele>
        <time>2010-02-07T10:57:37Z</time>
      </trkpt>
      <trkpt lat="42.70405" lon="0.99619">
        <ele>2335.18</ele>
        <time>2010-02-07T10:57:40Z</time>
      </trkpt>
      <trkpt lat="42.70409" lon="0.9962">
        <ele>2336.14</ele>
        <time>2010-02-07T10:57:45Z</time>
      </trkpt>
      <trkpt lat="42.7041" lon="0.99621">
        <ele>2334.7</ele>
        <time>2010-02-07T10:57:47Z</time>
      </trkpt>
      <trkpt lat="42.70418" lon="0.99626">
        <ele>2336.62</ele>
        <time>2010-02-07T10:58:00Z</time>
      </trkpt>
      <trkpt lat="42.70424" lon="0.99631">
        <ele>2337.58</ele>
        <time>2010-02-07T10:58:13Z</time>
      </trkpt>
      <trkpt lat="42.70429" lon="0.99638">
        <ele>2339.51</ele>
        <time>2010-02-07T10:58:26Z</time>
      </trkpt>
      <trkpt lat="42.70436" lon="0.99644">
        <ele>2341.91</ele>
        <time>2010-02-07T10:58:39Z</time>
      </trkpt>
      <trkpt lat="42.70438" lon="0.99645">
        <ele>2342.87</ele>
        <time>2010-02-07T10:58:43Z</time>
      </trkpt>
      <trkpt lat="42.70443" lon="0.9965">
        <ele>2344.31</ele>
        <time>2010-02-07T10:58:55Z</time>
      </trkpt>
      <trkpt lat="42.70448" lon="0.99653">
        <ele>2345.27</ele>
        <time>2010-02-07T10:59:06Z</time>
      </trkpt>
      <trkpt lat="42.70454" lon="0.99662">
        <ele>2347.2</ele>
        <time>2010-02-07T10:59:20Z</time>
      </trkpt>
      <trkpt lat="42.7046" lon="0.99669">
        <ele>2348.16</ele>
        <time>2010-02-07T10:59:33Z</time>
      </trkpt>
      <trkpt lat="42.70464" lon="0.9967">
        <ele>2349.12</ele>
        <time>2010-02-07T10:59:45Z</time>
      </trkpt>
      <trkpt lat="42.70468" lon="0.99663">
        <ele>2351.52</ele>
        <time>2010-02-07T10:59:55Z</time>
      </trkpt>
      <trkpt lat="42.70471" lon="0.99659">
        <ele>2352.96</ele>
        <time>2010-02-07T11:00:09Z</time>
      </trkpt>
      <trkpt lat="42.70475" lon="0.99653">
        <ele>2355.85</ele>
        <time>2010-02-07T11:00:21Z</time>
      </trkpt>
      <trkpt lat="42.70479" lon="0.99645">
        <ele>2358.25</ele>
        <time>2010-02-07T11:00:39Z</time>
      </trkpt>
      <trkpt lat="42.70481" lon="0.99641">
        <ele>2359.21</ele>
        <time>2010-02-07T11:00:54Z</time>
      </trkpt>
      <trkpt lat="42.70482" lon="0.99637">
        <ele>2360.17</ele>
        <time>2010-02-07T11:01:17Z</time>
      </trkpt>
      <trkpt lat="42.70486" lon="0.99643">
        <ele>2362.1</ele>
        <time>2010-02-07T11:01:30Z</time>
      </trkpt>
      <trkpt lat="42.7049" lon="0.99655">
        <ele>2364.98</ele>
        <time>2010-02-07T11:01:45Z</time>
      </trkpt>
      <trkpt lat="42.70492" lon="0.99657">
        <ele>2366.42</ele>
        <time>2010-02-07T11:01:55Z</time>
      </trkpt>
      <trkpt lat="42.70492" lon="0.99657">
        <ele>2366.9</ele>
        <time>2010-02-07T11:01:56Z</time>
      </trkpt>
      <trkpt lat="42.70497" lon="0.99645">
        <ele>2367.86</ele>
        <time>2010-02-07T11:02:09Z</time>
      </trkpt>
      <trkpt lat="42.70501" lon="0.99634">
        <ele>2369.79</ele>
        <time>2010-02-07T11:02:23Z</time>
      </trkpt>
      <trkpt lat="42.70507" lon="0.99623">
        <ele>2371.71</ele>
        <time>2010-02-07T11:02:36Z</time>
      </trkpt>
      <trkpt lat="42.70512" lon="0.99614">
        <ele>2371.71</ele>
        <time>2010-02-07T11:02:50Z</time>
      </trkpt>
      <trkpt lat="42.70512" lon="0.99612">
        <ele>2371.23</ele>
        <time>2010-02-07T11:03:17Z</time>
      </trkpt>
      <trkpt lat="42.70512" lon="0.9961">
        <ele>2370.75</ele>
        <time>2010-02-07T11:03:51Z</time>
      </trkpt>
      <trkpt lat="42.70514" lon="0.99606">
        <ele>2371.23</ele>
        <time>2010-02-07T11:05:19Z</time>
      </trkpt>
      <trkpt lat="42.70519" lon="0.99599">
        <ele>2374.11</ele>
        <time>2010-02-07T11:05:32Z</time>
      </trkpt>
      <trkpt lat="42.70522" lon="0.99592">
        <ele>2376.52</ele>
        <time>2010-02-07T11:05:43Z</time>
      </trkpt>
      <trkpt lat="42.70526" lon="0.99584">
        <ele>2377.48</ele>
        <time>2010-02-07T11:05:55Z</time>
      </trkpt>
      <trkpt lat="42.7053" lon="0.99583">
        <ele>2378.92</ele>
        <time>2010-02-07T11:06:06Z</time>
      </trkpt>
      <trkpt lat="42.70534" lon="0.99584">
        <ele>2380.36</ele>
        <time>2010-02-07T11:06:21Z</time>
      </trkpt>
      <trkpt lat="42.70539" lon="0.99586">
        <ele>2381.8</ele>
        <time>2010-02-07T11:06:31Z</time>
      </trkpt>
      <trkpt lat="42.70546" lon="0.99586">
        <ele>2383.73</ele>
        <time>2010-02-07T11:06:44Z</time>
      </trkpt>
      <trkpt lat="42.70547" lon="0.99579">
        <ele>2384.21</ele>
        <time>2010-02-07T11:06:54Z</time>
      </trkpt>
      <trkpt lat="42.70547" lon="0.99574">
        <ele>2386.61</ele>
        <time>2010-02-07T11:07:05Z</time>
      </trkpt>
      <trkpt lat="42.70547" lon="0.99569">
        <ele>2387.09</ele>
        <time>2010-02-07T11:07:12Z</time>
      </trkpt>
      <trkpt lat="42.70546" lon="0.99564">
        <ele>2389.01</ele>
        <time>2010-02-07T11:07:24Z</time>
      </trkpt>
      <trkpt lat="42.70545" lon="0.99557">
        <ele>2390.94</ele>
        <time>2010-02-07T11:07:38Z</time>
      </trkpt>
      <trkpt lat="42.70545" lon="0.99557">
        <ele>2390.46</ele>
        <time>2010-02-07T11:07:40Z</time>
      </trkpt>
      <trkpt lat="42.70546" lon="0.99552">
        <ele>2391.42</ele>
        <time>2010-02-07T11:07:49Z</time>
      </trkpt>
      <trkpt lat="42.70554" lon="0.99559">
        <ele>2393.34</ele>
        <time>2010-02-07T11:08:04Z</time>
      </trkpt>
      <trkpt lat="42.70562" lon="0.99563">
        <ele>2394.78</ele>
        <time>2010-02-07T11:08:16Z</time>
      </trkpt>
      <trkpt lat="42.70565" lon="0.99564">
        <ele>2394.78</ele>
        <time>2010-02-07T11:08:24Z</time>
      </trkpt>
      <trkpt lat="42.70564" lon="0.99557">
        <ele>2397.67</ele>
        <time>2010-02-07T11:08:36Z</time>
      </trkpt>
      <trkpt lat="42.70564" lon="0.99556">
        <ele>2397.67</ele>
        <time>2010-02-07T11:08:37Z</time>
      </trkpt>
      <trkpt lat="42.70565" lon="0.99548">
        <ele>2399.11</ele>
        <time>2010-02-07T11:08:48Z</time>
      </trkpt>
      <trkpt lat="42.70565" lon="0.99544">
        <ele>2400.55</ele>
        <time>2010-02-07T11:08:59Z</time>
      </trkpt>
      <trkpt lat="42.70564" lon="0.99539">
        <ele>2400.55</ele>
        <time>2010-02-07T11:09:05Z</time>
      </trkpt>
      <trkpt lat="42.70565" lon="0.99536">
        <ele>2401.51</ele>
        <time>2010-02-07T11:09:12Z</time>
      </trkpt>
      <trkpt lat="42.70571" lon="0.9954">
        <ele>2402.95</ele>
        <time>2010-02-07T11:09:23Z</time>
      </trkpt>
      <trkpt lat="42.70578" lon="0.99548">
        <ele>2405.36</ele>
        <time>2010-02-07T11:09:37Z</time>
      </trkpt>
      <trkpt lat="42.70581" lon="0.9955">
        <ele>2406.32</ele>
        <time>2010-02-07T11:09:52Z</time>
      </trkpt>
      <trkpt lat="42.70583" lon="0.9955">
        <ele>2406.32</ele>
        <time>2010-02-07T11:10:11Z</time>
      </trkpt>
      <trkpt lat="42.70586" lon="0.99555">
        <ele>2409.2</ele>
        <time>2010-02-07T11:10:23Z</time>
      </trkpt>
      <trkpt lat="42.70586" lon="0.99553">
        <ele>2409.68</ele>
        <time>2010-02-07T11:10:38Z</time>
      </trkpt>
      <trkpt lat="42.70583" lon="0.9954">
        <ele>2410.64</ele>
        <time>2010-02-07T11:10:52Z</time>
      </trkpt>
      <trkpt lat="42.70583" lon="0.9953">
        <ele>2412.09</ele>
        <time>2010-02-07T11:11:03Z</time>
      </trkpt>
      <trkpt lat="42.70584" lon="0.99518">
        <ele>2413.53</ele>
        <time>2010-02-07T11:11:15Z</time>
      </trkpt>
      <trkpt lat="42.70587" lon="0.99504">
        <ele>2415.93</ele>
        <time>2010-02-07T11:11:29Z</time>
      </trkpt>
      <trkpt lat="42.70589" lon="0.99494">
        <ele>2418.33</ele>
        <time>2010-02-07T11:11:41Z</time>
      </trkpt>
      <trkpt lat="42.7059" lon="0.99492">
        <ele>2418.81</ele>
        <time>2010-02-07T11:11:44Z</time>
      </trkpt>
      <trkpt lat="42.7059" lon="0.99485">
        <ele>2419.78</ele>
        <time>2010-02-07T11:12:03Z</time>
      </trkpt>
      <trkpt lat="42.70592" lon="0.9948">
        <ele>2423.14</ele>
        <time>2010-02-07T11:12:14Z</time>
      </trkpt>
      <trkpt lat="42.70595" lon="0.9947">
        <ele>2424.1</ele>
        <time>2010-02-07T11:12:26Z</time>
      </trkpt>
      <trkpt lat="42.70596" lon="0.99463">
        <ele>2426.02</ele>
        <time>2010-02-07T11:12:39Z</time>
      </trkpt>
      <trkpt lat="42.70597" lon="0.99455">
        <ele>2427.47</ele>
        <time>2010-02-07T11:12:54Z</time>
      </trkpt>
      <trkpt lat="42.70598" lon="0.99447">
        <ele>2429.87</ele>
        <time>2010-02-07T11:13:05Z</time>
      </trkpt>
      <trkpt lat="42.70598" lon="0.99437">
        <ele>2431.79</ele>
        <time>2010-02-07T11:13:16Z</time>
      </trkpt>
      <trkpt lat="42.70597" lon="0.99428">
        <ele>2433.23</ele>
        <time>2010-02-07T11:13:28Z</time>
      </trkpt>
      <trkpt lat="42.70596" lon="0.99422">
        <ele>2434.2</ele>
        <time>2010-02-07T11:13:41Z</time>
      </trkpt>
      <trkpt lat="42.70598" lon="0.99412">
        <ele>2435.64</ele>
        <time>2010-02-07T11:13:52Z</time>
      </trkpt>
      <trkpt lat="42.70598" lon="0.99402">
        <ele>2437.56</ele>
        <time>2010-02-07T11:14:04Z</time>
      </trkpt>
      <trkpt lat="42.70597" lon="0.9939">
        <ele>2438.04</ele>
        <time>2010-02-07T11:14:17Z</time>
      </trkpt>
      <trkpt lat="42.70592" lon="0.99379">
        <ele>2438.04</ele>
        <time>2010-02-07T11:14:30Z</time>
      </trkpt>
      <trkpt lat="42.70594" lon="0.99368">
        <ele>2439.48</ele>
        <time>2010-02-07T11:14:43Z</time>
      </trkpt>
      <trkpt lat="42.70598" lon="0.99355">
        <ele>2440.44</ele>
        <time>2010-02-07T11:14:57Z</time>
      </trkpt>
      <trkpt lat="42.706" lon="0.99345">
        <ele>2441.89</ele>
        <time>2010-02-07T11:15:10Z</time>
      </trkpt>
      <trkpt lat="42.70601" lon="0.99331">
        <ele>2443.81</ele>
        <time>2010-02-07T11:15:24Z</time>
      </trkpt>
      <trkpt lat="42.70602" lon="0.99322">
        <ele>2444.29</ele>
        <time>2010-02-07T11:15:37Z</time>
      </trkpt>
      <trkpt lat="42.70602" lon="0.99322">
        <ele>2444.29</ele>
        <time>2010-02-07T11:15:38Z</time>
      </trkpt>
      <trkpt lat="42.70604" lon="0.99308">
        <ele>2445.25</ele>
        <time>2010-02-07T11:15:57Z</time>
      </trkpt>
      <trkpt lat="42.70611" lon="0.99299">
        <ele>2446.21</ele>
        <time>2010-02-07T11:16:11Z</time>
      </trkpt>
      <trkpt lat="42.70612" lon="0.99298">
        <ele>2446.21</ele>
        <time>2010-02-07T11:16:33Z</time>
      </trkpt>
      <trkpt lat="42.70614" lon="0.99298">
        <ele>2446.69</ele>
        <time>2010-02-07T11:16:46Z</time>
      </trkpt>
      <trkpt lat="42.70613" lon="0.99298">
        <ele>2445.25</ele>
        <time>2010-02-07T11:16:51Z</time>
      </trkpt>
      <trkpt lat="42.70613" lon="0.99298">
        <ele>2446.21</ele>
        <time>2010-02-07T11:17:15Z</time>
      </trkpt>
      <trkpt lat="42.70613" lon="0.99299">
        <ele>2446.21</ele>
        <time>2010-02-07T11:17:33Z</time>
      </trkpt>
      <trkpt lat="42.70613" lon="0.99299">
        <ele>2446.21</ele>
        <time>2010-02-07T11:18:34Z</time>
      </trkpt>
      <trkpt lat="42.70614" lon="0.99298">
        <ele>2446.69</ele>
        <time>2010-02-07T11:19:32Z</time>
      </trkpt>
      <trkpt lat="42.70614" lon="0.99298">
        <ele>2446.21</ele>
        <time>2010-02-07T11:19:51Z</time>
      </trkpt>
      <trkpt lat="42.70613" lon="0.99298">
        <ele>2446.21</ele>
        <time>2010-02-07T11:20:11Z</time>
      </trkpt>
      <trkpt lat="42.70613" lon="0.99299">
        <ele>2445.25</ele>
        <time>2010-02-07T11:20:26Z</time>
      </trkpt>
      <trkpt lat="42.70613" lon="0.993">
        <ele>2443.81</ele>
        <time>2010-02-07T11:20:33Z</time>
      </trkpt>
      <trkpt lat="42.70613" lon="0.993">
        <ele>2444.77</ele>
        <time>2010-02-07T11:21:19Z</time>
      </trkpt>
      <trkpt lat="42.70613" lon="0.99299">
        <ele>2444.77</ele>
        <time>2010-02-07T11:23:17Z</time>
      </trkpt>
      <trkpt lat="42.70613" lon="0.99299">
        <ele>2441.89</ele>
        <time>2010-02-07T11:23:24Z</time>
      </trkpt>
      <trkpt lat="42.70613" lon="0.99299">
        <ele>2447.65</ele>
        <time>2010-02-07T11:23:25Z</time>
      </trkpt>
      <trkpt lat="42.70613" lon="0.993">
        <ele>2446.21</ele>
        <time>2010-02-07T11:23:26Z</time>
      </trkpt>
      <trkpt lat="42.70613" lon="0.993">
        <ele>2444.77</ele>
        <time>2010-02-07T11:23:29Z</time>
      </trkpt>
      <trkpt lat="42.70613" lon="0.993">
        <ele>2441.89</ele>
        <time>2010-02-07T11:23:31Z</time>
      </trkpt>
      <trkpt lat="42.70613" lon="0.993">
        <ele>2443.33</ele>
        <time>2010-02-07T11:23:32Z</time>
      </trkpt>
      <trkpt lat="42.70613" lon="0.993">
        <ele>2439</ele>
        <time>2010-02-07T11:23:34Z</time>
      </trkpt>
      <trkpt lat="42.70613" lon="0.993">
        <ele>2443.33</ele>
        <time>2010-02-07T11:23:35Z</time>
      </trkpt>
      <trkpt lat="42.70613" lon="0.993">
        <ele>2444.29</ele>
        <time>2010-02-07T11:23:37Z</time>
      </trkpt>
      <trkpt lat="42.70613" lon="0.99298">
        <ele>2445.73</ele>
        <time>2010-02-07T11:23:49Z</time>
      </trkpt>
      <trkpt lat="42.70614" lon="0.99299">
        <ele>2450.06</ele>
        <time>2010-02-07T11:23:56Z</time>
      </trkpt>
      <trkpt lat="42.70614" lon="0.99299">
        <ele>2443.33</ele>
        <time>2010-02-07T11:23:57Z</time>
      </trkpt>
      <trkpt lat="42.70614" lon="0.99299">
        <ele>2439.48</ele>
        <time>2010-02-07T11:24:25Z</time>
      </trkpt>
      <trkpt lat="42.70614" lon="0.99299">
        <ele>2444.77</ele>
        <time>2010-02-07T11:24:26Z</time>
      </trkpt>
      <trkpt lat="42.70614" lon="0.99299">
        <ele>2444.77</ele>
        <time>2010-02-07T11:24:35Z</time>
      </trkpt>
      <trkpt lat="42.70614" lon="0.99298">
        <ele>2445.25</ele>
        <time>2010-02-07T11:24:54Z</time>
      </trkpt>
      <trkpt lat="42.70614" lon="0.99298">
        <ele>2445.25</ele>
        <time>2010-02-07T11:25:12Z</time>
      </trkpt>
      <trkpt lat="42.70615" lon="0.99295">
        <ele>2444.77</ele>
        <time>2010-02-07T11:25:23Z</time>
      </trkpt>
      <trkpt lat="42.70615" lon="0.99295">
        <ele>2445.25</ele>
        <time>2010-02-07T11:25:25Z</time>
      </trkpt>
      <trkpt lat="42.70616" lon="0.99296">
        <ele>2443.81</ele>
        <time>2010-02-07T11:25:28Z</time>
      </trkpt>
      <trkpt lat="42.70616" lon="0.99295">
        <ele>2445.25</ele>
        <time>2010-02-07T11:25:30Z</time>
      </trkpt>
      <trkpt lat="42.70617" lon="0.99293">
        <ele>2445.73</ele>
        <time>2010-02-07T11:25:32Z</time>
      </trkpt>
      <trkpt lat="42.70626" lon="0.99281">
        <ele>2443.33</ele>
        <time>2010-02-07T11:25:41Z</time>
      </trkpt>
      <trkpt lat="42.70643" lon="0.99266">
        <ele>2439.96</ele>
        <time>2010-02-07T11:25:52Z</time>
      </trkpt>
      <trkpt lat="42.70648" lon="0.99263">
        <ele>2439.48</ele>
        <time>2010-02-07T11:25:55Z</time>
      </trkpt>
      <trkpt lat="42.70651" lon="0.9926">
        <ele>2438.04</ele>
        <time>2010-02-07T11:25:58Z</time>
      </trkpt>
      <trkpt lat="42.70665" lon="0.99248">
        <ele>2434.68</ele>
        <time>2010-02-07T11:26:07Z</time>
      </trkpt>
      <trkpt lat="42.70678" lon="0.99237">
        <ele>2433.71</ele>
        <time>2010-02-07T11:26:13Z</time>
      </trkpt>
      <trkpt lat="42.70695" lon="0.99223">
        <ele>2431.31</ele>
        <time>2010-02-07T11:26:24Z</time>
      </trkpt>
      <trkpt lat="42.70711" lon="0.99207">
        <ele>2429.87</ele>
        <time>2010-02-07T11:26:36Z</time>
      </trkpt>
      <trkpt lat="42.70724" lon="0.99191">
        <ele>2430.35</ele>
        <time>2010-02-07T11:26:48Z</time>
      </trkpt>
      <trkpt lat="42.70727" lon="0.99188">
        <ele>2430.83</ele>
        <time>2010-02-07T11:26:53Z</time>
      </trkpt>
      <trkpt lat="42.70736" lon="0.99179">
        <ele>2431.79</ele>
        <time>2010-02-07T11:27:05Z</time>
      </trkpt>
      <trkpt lat="42.7074" lon="0.99174">
        <ele>2432.27</ele>
        <time>2010-02-07T11:27:09Z</time>
      </trkpt>
      <trkpt lat="42.70746" lon="0.99168">
        <ele>2433.23</ele>
        <time>2010-02-07T11:27:18Z</time>
      </trkpt>
      <trkpt lat="42.70749" lon="0.99166">
        <ele>2434.2</ele>
        <time>2010-02-07T11:27:22Z</time>
      </trkpt>
      <trkpt lat="42.70758" lon="0.99158">
        <ele>2435.64</ele>
        <time>2010-02-07T11:27:34Z</time>
      </trkpt>
      <trkpt lat="42.70764" lon="0.99156">
        <ele>2436.12</ele>
        <time>2010-02-07T11:27:40Z</time>
      </trkpt>
      <trkpt lat="42.70775" lon="0.99151">
        <ele>2438.52</ele>
        <time>2010-02-07T11:27:52Z</time>
      </trkpt>
      <trkpt lat="42.70779" lon="0.99149">
        <ele>2438.04</ele>
        <time>2010-02-07T11:27:56Z</time>
      </trkpt>
      <trkpt lat="42.70786" lon="0.99146">
        <ele>2440.44</ele>
        <time>2010-02-07T11:28:04Z</time>
      </trkpt>
      <trkpt lat="42.70795" lon="0.99145">
        <ele>2440.92</ele>
        <time>2010-02-07T11:28:13Z</time>
      </trkpt>
      <trkpt lat="42.70797" lon="0.99145">
        <ele>2440.92</ele>
        <time>2010-02-07T11:28:20Z</time>
      </trkpt>
      <trkpt lat="42.70798" lon="0.99146">
        <ele>2441.89</ele>
        <time>2010-02-07T11:28:31Z</time>
      </trkpt>
      <trkpt lat="42.70804" lon="0.99144">
        <ele>2442.37</ele>
        <time>2010-02-07T11:28:41Z</time>
      </trkpt>
      <trkpt lat="42.7081" lon="0.99142">
        <ele>2443.81</ele>
        <time>2010-02-07T11:28:54Z</time>
      </trkpt>
      <trkpt lat="42.70815" lon="0.99142">
        <ele>2444.77</ele>
        <time>2010-02-07T11:29:04Z</time>
      </trkpt>
      <trkpt lat="42.70823" lon="0.9914">
        <ele>2446.69</ele>
        <time>2010-02-07T11:29:15Z</time>
      </trkpt>
      <trkpt lat="42.70832" lon="0.99136">
        <ele>2449.1</ele>
        <time>2010-02-07T11:29:29Z</time>
      </trkpt>
      <trkpt lat="42.70838" lon="0.99131">
        <ele>2451.02</ele>
        <time>2010-02-07T11:29:40Z</time>
      </trkpt>
      <trkpt lat="42.70845" lon="0.99126">
        <ele>2452.46</ele>
        <time>2010-02-07T11:29:55Z</time>
      </trkpt>
      <trkpt lat="42.70851" lon="0.99127">
        <ele>2452.94</ele>
        <time>2010-02-07T11:30:03Z</time>
      </trkpt>
      <trkpt lat="42.70859" lon="0.99129">
        <ele>2455.82</ele>
        <time>2010-02-07T11:30:15Z</time>
      </trkpt>
      <trkpt lat="42.70866" lon="0.99133">
        <ele>2456.31</ele>
        <time>2010-02-07T11:30:27Z</time>
      </trkpt>
      <trkpt lat="42.70876" lon="0.9914">
        <ele>2456.79</ele>
        <time>2010-02-07T11:30:40Z</time>
      </trkpt>
      <trkpt lat="42.70885" lon="0.99148">
        <ele>2456.31</ele>
        <time>2010-02-07T11:30:53Z</time>
      </trkpt>
      <trkpt lat="42.70891" lon="0.99153">
        <ele>2457.27</ele>
        <time>2010-02-07T11:31:06Z</time>
      </trkpt>
      <trkpt lat="42.70896" lon="0.99156">
        <ele>2458.71</ele>
        <time>2010-02-07T11:31:21Z</time>
      </trkpt>
      <trkpt lat="42.70905" lon="0.99161">
        <ele>2460.15</ele>
        <time>2010-02-07T11:31:34Z</time>
      </trkpt>
      <trkpt lat="42.70909" lon="0.99164">
        <ele>2462.07</ele>
        <time>2010-02-07T11:31:47Z</time>
      </trkpt>
      <trkpt lat="42.70916" lon="0.99168">
        <ele>2463.04</ele>
        <time>2010-02-07T11:32:02Z</time>
      </trkpt>
      <trkpt lat="42.70921" lon="0.9917">
        <ele>2464.48</ele>
        <time>2010-02-07T11:32:14Z</time>
      </trkpt>
      <trkpt lat="42.70926" lon="0.99176">
        <ele>2466.4</ele>
        <time>2010-02-07T11:32:24Z</time>
      </trkpt>
      <trkpt lat="42.70926" lon="0.9918">
        <ele>2467.84</ele>
        <time>2010-02-07T11:32:35Z</time>
      </trkpt>
      <trkpt lat="42.70925" lon="0.99187">
        <ele>2468.8</ele>
        <time>2010-02-07T11:32:47Z</time>
      </trkpt>
      <trkpt lat="42.70923" lon="0.99194">
        <ele>2471.21</ele>
        <time>2010-02-07T11:33:00Z</time>
      </trkpt>
      <trkpt lat="42.70922" lon="0.992">
        <ele>2473.13</ele>
        <time>2010-02-07T11:33:13Z</time>
      </trkpt>
      <trkpt lat="42.70919" lon="0.99209">
        <ele>2474.57</ele>
        <time>2010-02-07T11:33:26Z</time>
      </trkpt>
      <trkpt lat="42.70918" lon="0.99212">
        <ele>2473.61</ele>
        <time>2010-02-07T11:33:40Z</time>
      </trkpt>
      <trkpt lat="42.70918" lon="0.99212">
        <ele>2471.69</ele>
        <time>2010-02-07T11:33:43Z</time>
      </trkpt>
      <trkpt lat="42.70918" lon="0.99212">
        <ele>2473.13</ele>
        <time>2010-02-07T11:33:46Z</time>
      </trkpt>
      <trkpt lat="42.70918" lon="0.99213">
        <ele>2463.52</ele>
        <time>2010-02-07T11:34:05Z</time>
      </trkpt>
      <trkpt lat="42.70918" lon="0.99213">
        <ele>2471.21</ele>
        <time>2010-02-07T11:34:06Z</time>
      </trkpt>
      <trkpt lat="42.70918" lon="0.99213">
        <ele>2473.13</ele>
        <time>2010-02-07T11:34:08Z</time>
      </trkpt>
      <trkpt lat="42.70918" lon="0.99212">
        <ele>2476.01</ele>
        <time>2010-02-07T11:34:21Z</time>
      </trkpt>
      <trkpt lat="42.70918" lon="0.99212">
        <ele>2474.09</ele>
        <time>2010-02-07T11:34:39Z</time>
      </trkpt>
      <trkpt lat="42.70917" lon="0.99219">
        <ele>2476.49</ele>
        <time>2010-02-07T11:34:47Z</time>
      </trkpt>
      <trkpt lat="42.70913" lon="0.99229">
        <ele>2479.38</ele>
        <time>2010-02-07T11:35:00Z</time>
      </trkpt>
      <trkpt lat="42.70912" lon="0.99232">
        <ele>2479.86</ele>
        <time>2010-02-07T11:35:03Z</time>
      </trkpt>
      <trkpt lat="42.7091" lon="0.99237">
        <ele>2481.78</ele>
        <time>2010-02-07T11:35:16Z</time>
      </trkpt>
      <trkpt lat="42.70909" lon="0.99237">
        <ele>2481.3</ele>
        <time>2010-02-07T11:35:37Z</time>
      </trkpt>
      <trkpt lat="42.70907" lon="0.99244">
        <ele>2483.22</ele>
        <time>2010-02-07T11:35:51Z</time>
      </trkpt>
      <trkpt lat="42.70907" lon="0.99247">
        <ele>2483.7</ele>
        <time>2010-02-07T11:35:55Z</time>
      </trkpt>
      <trkpt lat="42.70903" lon="0.99257">
        <ele>2485.63</ele>
        <time>2010-02-07T11:36:07Z</time>
      </trkpt>
      <trkpt lat="42.709" lon="0.99265">
        <ele>2488.99</ele>
        <time>2010-02-07T11:36:19Z</time>
      </trkpt>
      <trkpt lat="42.70898" lon="0.99271">
        <ele>2489.95</ele>
        <time>2010-02-07T11:36:27Z</time>
      </trkpt>
      <trkpt lat="42.70899" lon="0.99276">
        <ele>2492.84</ele>
        <time>2010-02-07T11:36:38Z</time>
      </trkpt>
      <trkpt lat="42.70904" lon="0.9928">
        <ele>2494.28</ele>
        <time>2010-02-07T11:36:48Z</time>
      </trkpt>
      <trkpt lat="42.70908" lon="0.99284">
        <ele>2495.24</ele>
        <time>2010-02-07T11:36:59Z</time>
      </trkpt>
      <trkpt lat="42.70913" lon="0.99287">
        <ele>2496.68</ele>
        <time>2010-02-07T11:37:10Z</time>
      </trkpt>
      <trkpt lat="42.70919" lon="0.99292">
        <ele>2498.6</ele>
        <time>2010-02-07T11:37:22Z</time>
      </trkpt>
      <trkpt lat="42.7092" lon="0.99293">
        <ele>2499.57</ele>
        <time>2010-02-07T11:37:26Z</time>
      </trkpt>
      <trkpt lat="42.70924" lon="0.99297">
        <ele>2500.53</ele>
        <time>2010-02-07T11:37:37Z</time>
      </trkpt>
      <trkpt lat="42.70927" lon="0.99305">
        <ele>2502.93</ele>
        <time>2010-02-07T11:37:51Z</time>
      </trkpt>
      <trkpt lat="42.70922" lon="0.99315">
        <ele>2505.33</ele>
        <time>2010-02-07T11:38:04Z</time>
      </trkpt>
      <trkpt lat="42.7092" lon="0.9932">
        <ele>2506.77</ele>
        <time>2010-02-07T11:38:13Z</time>
      </trkpt>
      <trkpt lat="42.70917" lon="0.99326">
        <ele>2508.7</ele>
        <time>2010-02-07T11:38:27Z</time>
      </trkpt>
      <trkpt lat="42.70916" lon="0.99331">
        <ele>2511.58</ele>
        <time>2010-02-07T11:38:40Z</time>
      </trkpt>
      <trkpt lat="42.70916" lon="0.99338">
        <ele>2513.02</ele>
        <time>2010-02-07T11:38:50Z</time>
      </trkpt>
      <trkpt lat="42.70917" lon="0.9934">
        <ele>2512.54</ele>
        <time>2010-02-07T11:38:51Z</time>
      </trkpt>
      <trkpt lat="42.70919" lon="0.99344">
        <ele>2514.95</ele>
        <time>2010-02-07T11:38:57Z</time>
      </trkpt>
      <trkpt lat="42.70923" lon="0.99348">
        <ele>2515.43</ele>
        <time>2010-02-07T11:39:03Z</time>
      </trkpt>
      <trkpt lat="42.70928" lon="0.99354">
        <ele>2518.31</ele>
        <time>2010-02-07T11:39:13Z</time>
      </trkpt>
      <trkpt lat="42.70936" lon="0.99362">
        <ele>2519.75</ele>
        <time>2010-02-07T11:39:26Z</time>
      </trkpt>
      <trkpt lat="42.70936" lon="0.99364">
        <ele>2521.19</ele>
        <time>2010-02-07T11:39:28Z</time>
      </trkpt>
      <trkpt lat="42.70937" lon="0.99365">
        <ele>2521.19</ele>
        <time>2010-02-07T11:39:30Z</time>
      </trkpt>
      <trkpt lat="42.70936" lon="0.99374">
        <ele>2523.6</ele>
        <time>2010-02-07T11:39:40Z</time>
      </trkpt>
      <trkpt lat="42.70935" lon="0.99375">
        <ele>2524.56</ele>
        <time>2010-02-07T11:39:42Z</time>
      </trkpt>
      <trkpt lat="42.70932" lon="0.99383">
        <ele>2526.48</ele>
        <time>2010-02-07T11:39:49Z</time>
      </trkpt>
      <trkpt lat="42.70933" lon="0.99385">
        <ele>2526.96</ele>
        <time>2010-02-07T11:39:55Z</time>
      </trkpt>
      <trkpt lat="42.70941" lon="0.9939">
        <ele>2529.85</ele>
        <time>2010-02-07T11:40:07Z</time>
      </trkpt>
      <trkpt lat="42.70942" lon="0.99391">
        <ele>2529.85</ele>
        <time>2010-02-07T11:40:23Z</time>
      </trkpt>
      <trkpt lat="42.70946" lon="0.99391">
        <ele>2530.81</ele>
        <time>2010-02-07T11:40:43Z</time>
      </trkpt>
      <trkpt lat="42.70953" lon="0.99393">
        <ele>2532.25</ele>
        <time>2010-02-07T11:40:55Z</time>
      </trkpt>
      <trkpt lat="42.70956" lon="0.99393">
        <ele>2532.73</ele>
        <time>2010-02-07T11:41:00Z</time>
      </trkpt>
      <trkpt lat="42.70959" lon="0.99392">
        <ele>2533.69</ele>
        <time>2010-02-07T11:41:03Z</time>
      </trkpt>
      <trkpt lat="42.70965" lon="0.99395">
        <ele>2534.65</ele>
        <time>2010-02-07T11:41:14Z</time>
      </trkpt>
      <trkpt lat="42.7097" lon="0.99395">
        <ele>2536.1</ele>
        <time>2010-02-07T11:41:26Z</time>
      </trkpt>
      <trkpt lat="42.70972" lon="0.99395">
        <ele>2537.06</ele>
        <time>2010-02-07T11:41:44Z</time>
      </trkpt>
      <trkpt lat="42.70972" lon="0.99396">
        <ele>2537.06</ele>
        <time>2010-02-07T11:42:07Z</time>
      </trkpt>
      <trkpt lat="42.70977" lon="0.99397">
        <ele>2537.06</ele>
        <time>2010-02-07T11:42:32Z</time>
      </trkpt>
      <trkpt lat="42.70987" lon="0.99398">
        <ele>2538.5</ele>
        <time>2010-02-07T11:42:44Z</time>
      </trkpt>
      <trkpt lat="42.70993" lon="0.99397">
        <ele>2539.46</ele>
        <time>2010-02-07T11:42:55Z</time>
      </trkpt>
      <trkpt lat="42.70999" lon="0.99396">
        <ele>2541.38</ele>
        <time>2010-02-07T11:43:05Z</time>
      </trkpt>
      <trkpt lat="42.71003" lon="0.99395">
        <ele>2542.82</ele>
        <time>2010-02-07T11:43:13Z</time>
      </trkpt>
      <trkpt lat="42.71007" lon="0.99394">
        <ele>2544.27</ele>
        <time>2010-02-07T11:43:19Z</time>
      </trkpt>
      <trkpt lat="42.71016" lon="0.99392">
        <ele>2546.19</ele>
        <time>2010-02-07T11:43:31Z</time>
      </trkpt>
      <trkpt lat="42.71022" lon="0.99388">
        <ele>2547.63</ele>
        <time>2010-02-07T11:43:44Z</time>
      </trkpt>
      <trkpt lat="42.71022" lon="0.99388">
        <ele>2547.63</ele>
        <time>2010-02-07T11:43:45Z</time>
      </trkpt>
      <trkpt lat="42.7103" lon="0.99383">
        <ele>2549.55</ele>
        <time>2010-02-07T11:43:57Z</time>
      </trkpt>
      <trkpt lat="42.71032" lon="0.99382">
        <ele>2550.51</ele>
        <time>2010-02-07T11:44:03Z</time>
      </trkpt>
      <trkpt lat="42.71036" lon="0.99381">
        <ele>2551.48</ele>
        <time>2010-02-07T11:44:18Z</time>
      </trkpt>
      <trkpt lat="42.71037" lon="0.9938">
        <ele>2551.48</ele>
        <time>2010-02-07T11:44:46Z</time>
      </trkpt>
      <trkpt lat="42.71041" lon="0.99379">
        <ele>2553.4</ele>
        <time>2010-02-07T11:45:00Z</time>
      </trkpt>
      <trkpt lat="42.71048" lon="0.99376">
        <ele>2554.36</ele>
        <time>2010-02-07T11:45:09Z</time>
      </trkpt>
      <trkpt lat="42.71053" lon="0.99373">
        <ele>2557.24</ele>
        <time>2010-02-07T11:45:20Z</time>
      </trkpt>
      <trkpt lat="42.71057" lon="0.9937">
        <ele>2559.17</ele>
        <time>2010-02-07T11:45:32Z</time>
      </trkpt>
      <trkpt lat="42.71065" lon="0.99366">
        <ele>2560.61</ele>
        <time>2010-02-07T11:45:47Z</time>
      </trkpt>
      <trkpt lat="42.71069" lon="0.99364">
        <ele>2563.01</ele>
        <time>2010-02-07T11:46:03Z</time>
      </trkpt>
      <trkpt lat="42.71074" lon="0.99361">
        <ele>2564.93</ele>
        <time>2010-02-07T11:46:17Z</time>
      </trkpt>
      <trkpt lat="42.7108" lon="0.99356">
        <ele>2566.38</ele>
        <time>2010-02-07T11:46:34Z</time>
      </trkpt>
      <trkpt lat="42.71086" lon="0.99354">
        <ele>2568.78</ele>
        <time>2010-02-07T11:46:49Z</time>
      </trkpt>
      <trkpt lat="42.7109" lon="0.99351">
        <ele>2570.22</ele>
        <time>2010-02-07T11:47:02Z</time>
      </trkpt>
      <trkpt lat="42.71097" lon="0.99348">
        <ele>2571.18</ele>
        <time>2010-02-07T11:47:13Z</time>
      </trkpt>
      <trkpt lat="42.71101" lon="0.99346">
        <ele>2573.11</ele>
        <time>2010-02-07T11:47:25Z</time>
      </trkpt>
      <trkpt lat="42.71104" lon="0.99345">
        <ele>2574.07</ele>
        <time>2010-02-07T11:47:36Z</time>
      </trkpt>
      <trkpt lat="42.71108" lon="0.99343">
        <ele>2575.51</ele>
        <time>2010-02-07T11:47:46Z</time>
      </trkpt>
      <trkpt lat="42.71112" lon="0.99342">
        <ele>2577.43</ele>
        <time>2010-02-07T11:47:58Z</time>
      </trkpt>
      <trkpt lat="42.71117" lon="0.9934">
        <ele>2578.39</ele>
        <time>2010-02-07T11:48:09Z</time>
      </trkpt>
      <trkpt lat="42.71122" lon="0.99338">
        <ele>2580.32</ele>
        <time>2010-02-07T11:48:22Z</time>
      </trkpt>
      <trkpt lat="42.71129" lon="0.99334">
        <ele>2582.72</ele>
        <time>2010-02-07T11:48:34Z</time>
      </trkpt>
      <trkpt lat="42.71135" lon="0.99332">
        <ele>2584.64</ele>
        <time>2010-02-07T11:48:44Z</time>
      </trkpt>
      <trkpt lat="42.71138" lon="0.99331">
        <ele>2587.04</ele>
        <time>2010-02-07T11:48:56Z</time>
      </trkpt>
      <trkpt lat="42.71139" lon="0.99333">
        <ele>2587.53</ele>
        <time>2010-02-07T11:48:59Z</time>
      </trkpt>
      <trkpt lat="42.71141" lon="0.99338">
        <ele>2589.45</ele>
        <time>2010-02-07T11:49:12Z</time>
      </trkpt>
      <trkpt lat="42.71141" lon="0.99337">
        <ele>2588.49</ele>
        <time>2010-02-07T11:49:35Z</time>
      </trkpt>
      <trkpt lat="42.7114" lon="0.99338">
        <ele>2588.49</ele>
        <time>2010-02-07T11:49:45Z</time>
      </trkpt>
      <trkpt lat="42.71139" lon="0.99338">
        <ele>2588.97</ele>
        <time>2010-02-07T11:50:10Z</time>
      </trkpt>
      <trkpt lat="42.7114" lon="0.99337">
        <ele>2588.01</ele>
        <time>2010-02-07T11:50:27Z</time>
      </trkpt>
      <trkpt lat="42.71139" lon="0.99336">
        <ele>2588.01</ele>
        <time>2010-02-07T11:50:37Z</time>
      </trkpt>
      <trkpt lat="42.7114" lon="0.99336">
        <ele>2587.53</ele>
        <time>2010-02-07T11:52:42Z</time>
      </trkpt>
      <trkpt lat="42.7114" lon="0.99336">
        <ele>2585.12</ele>
        <time>2010-02-07T11:54:12Z</time>
      </trkpt>
      <trkpt lat="42.7114" lon="0.99336">
        <ele>2584.16</ele>
        <time>2010-02-07T11:54:15Z</time>
      </trkpt>
      <trkpt lat="42.7114" lon="0.99337">
        <ele>2586.08</ele>
        <time>2010-02-07T11:54:20Z</time>
      </trkpt>
      <trkpt lat="42.71141" lon="0.99337">
        <ele>2586.08</ele>
        <time>2010-02-07T11:56:50Z</time>
      </trkpt>
      <trkpt lat="42.7114" lon="0.99337">
        <ele>2587.04</ele>
        <time>2010-02-07T11:57:38Z</time>
      </trkpt>
      <trkpt lat="42.71141" lon="0.99337">
        <ele>2587.53</ele>
        <time>2010-02-07T11:58:02Z</time>
      </trkpt>
      <trkpt lat="42.71144" lon="0.99334">
        <ele>2588.49</ele>
        <time>2010-02-07T11:58:15Z</time>
      </trkpt>
      <trkpt lat="42.71146" lon="0.99332">
        <ele>2589.93</ele>
        <time>2010-02-07T11:58:27Z</time>
      </trkpt>
      <trkpt lat="42.71146" lon="0.99332">
        <ele>2589.45</ele>
        <time>2010-02-07T11:58:41Z</time>
      </trkpt>
      <trkpt lat="42.71148" lon="0.9933">
        <ele>2590.41</ele>
        <time>2010-02-07T11:58:51Z</time>
      </trkpt>
      <trkpt lat="42.71148" lon="0.99326">
        <ele>2590.89</ele>
        <time>2010-02-07T11:59:09Z</time>
      </trkpt>
      <trkpt lat="42.71149" lon="0.99324">
        <ele>2591.37</ele>
        <time>2010-02-07T11:59:21Z</time>
      </trkpt>
      <trkpt lat="42.71153" lon="0.99319">
        <ele>2592.81</ele>
        <time>2010-02-07T11:59:51Z</time>
      </trkpt>
      <trkpt lat="42.71155" lon="0.99317">
        <ele>2593.77</ele>
        <time>2010-02-07T12:00:03Z</time>
      </trkpt>
      <trkpt lat="42.71157" lon="0.99314">
        <ele>2595.22</ele>
        <time>2010-02-07T12:00:16Z</time>
      </trkpt>
      <trkpt lat="42.71159" lon="0.99312">
        <ele>2596.18</ele>
        <time>2010-02-07T12:00:29Z</time>
      </trkpt>
      <trkpt lat="42.7116" lon="0.99313">
        <ele>2598.1</ele>
        <time>2010-02-07T12:00:39Z</time>
      </trkpt>
      <trkpt lat="42.71166" lon="0.9931">
        <ele>2600.98</ele>
        <time>2010-02-07T12:00:49Z</time>
      </trkpt>
      <trkpt lat="42.7117" lon="0.99308">
        <ele>2601.95</ele>
        <time>2010-02-07T12:01:00Z</time>
      </trkpt>
      <trkpt lat="42.71173" lon="0.99305">
        <ele>2604.83</ele>
        <time>2010-02-07T12:01:06Z</time>
      </trkpt>
      <trkpt lat="42.71177" lon="0.99301">
        <ele>2606.75</ele>
        <time>2010-02-07T12:01:17Z</time>
      </trkpt>
      <trkpt lat="42.71181" lon="0.99298">
        <ele>2608.19</ele>
        <time>2010-02-07T12:01:30Z</time>
      </trkpt>
      <trkpt lat="42.71183" lon="0.99295">
        <ele>2610.6</ele>
        <time>2010-02-07T12:01:39Z</time>
      </trkpt>
      <trkpt lat="42.71186" lon="0.99292">
        <ele>2611.56</ele>
        <time>2010-02-07T12:01:51Z</time>
      </trkpt>
      <trkpt lat="42.71189" lon="0.99289">
        <ele>2613.48</ele>
        <time>2010-02-07T12:02:03Z</time>
      </trkpt>
      <trkpt lat="42.71193" lon="0.99286">
        <ele>2616.37</ele>
        <time>2010-02-07T12:02:15Z</time>
      </trkpt>
      <trkpt lat="42.71197" lon="0.99282">
        <ele>2617.81</ele>
        <time>2010-02-07T12:02:27Z</time>
      </trkpt>
      <trkpt lat="42.71199" lon="0.99279">
        <ele>2620.21</ele>
        <time>2010-02-07T12:02:39Z</time>
      </trkpt>
      <trkpt lat="42.71205" lon="0.99271">
        <ele>2621.65</ele>
        <time>2010-02-07T12:02:51Z</time>
      </trkpt>
      <trkpt lat="42.71206" lon="0.9927">
        <ele>2623.09</ele>
        <time>2010-02-07T12:02:53Z</time>
      </trkpt>
      <trkpt lat="42.71211" lon="0.99261">
        <ele>2624.06</ele>
        <time>2010-02-07T12:03:10Z</time>
      </trkpt>
      <trkpt lat="42.71215" lon="0.99258">
        <ele>2625.98</ele>
        <time>2010-02-07T12:03:22Z</time>
      </trkpt>
      <trkpt lat="42.71218" lon="0.99253">
        <ele>2627.42</ele>
        <time>2010-02-07T12:03:32Z</time>
      </trkpt>
      <trkpt lat="42.71218" lon="0.99253">
        <ele>2626.94</ele>
        <time>2010-02-07T12:03:51Z</time>
      </trkpt>
      <trkpt lat="42.71223" lon="0.99245">
        <ele>2630.3</ele>
        <time>2010-02-07T12:04:06Z</time>
      </trkpt>
      <trkpt lat="42.71227" lon="0.99239">
        <ele>2631.27</ele>
        <time>2010-02-07T12:04:18Z</time>
      </trkpt>
      <trkpt lat="42.71231" lon="0.99232">
        <ele>2632.71</ele>
        <time>2010-02-07T12:04:30Z</time>
      </trkpt>
      <trkpt lat="42.71235" lon="0.99228">
        <ele>2634.63</ele>
        <time>2010-02-07T12:04:40Z</time>
      </trkpt>
      <trkpt lat="42.71237" lon="0.99224">
        <ele>2636.55</ele>
        <time>2010-02-07T12:04:51Z</time>
      </trkpt>
      <trkpt lat="42.71237" lon="0.99223">
        <ele>2637.51</ele>
        <time>2010-02-07T12:04:53Z</time>
      </trkpt>
      <trkpt lat="42.71242" lon="0.99216">
        <ele>2638.96</ele>
        <time>2010-02-07T12:05:05Z</time>
      </trkpt>
      <trkpt lat="42.71244" lon="0.99214">
        <ele>2640.4</ele>
        <time>2010-02-07T12:05:12Z</time>
      </trkpt>
      <trkpt lat="42.71251" lon="0.99207">
        <ele>2642.8</ele>
        <time>2010-02-07T12:05:26Z</time>
      </trkpt>
      <trkpt lat="42.71256" lon="0.992">
        <ele>2645.69</ele>
        <time>2010-02-07T12:05:39Z</time>
      </trkpt>
      <trkpt lat="42.71258" lon="0.99196">
        <ele>2646.17</ele>
        <time>2010-02-07T12:05:45Z</time>
      </trkpt>
      <trkpt lat="42.7126" lon="0.99186">
        <ele>2647.13</ele>
        <time>2010-02-07T12:05:58Z</time>
      </trkpt>
      <trkpt lat="42.71259" lon="0.99182">
        <ele>2647.13</ele>
        <time>2010-02-07T12:06:10Z</time>
      </trkpt>
      <trkpt lat="42.7126" lon="0.99182">
        <ele>2646.65</ele>
        <time>2010-02-07T12:06:35Z</time>
      </trkpt>
      <trkpt lat="42.71261" lon="0.99176">
        <ele>2646.65</ele>
        <time>2010-02-07T12:06:46Z</time>
      </trkpt>
      <trkpt lat="42.71261" lon="0.99175">
        <ele>2646.65</ele>
        <time>2010-02-07T12:07:00Z</time>
      </trkpt>
      <trkpt lat="42.71261" lon="0.99174">
        <ele>2646.65</ele>
        <time>2010-02-07T12:07:06Z</time>
      </trkpt>
      <trkpt lat="42.71262" lon="0.99174">
        <ele>2646.17</ele>
        <time>2010-02-07T12:07:18Z</time>
      </trkpt>
      <trkpt lat="42.7126" lon="0.99173">
        <ele>2645.69</ele>
        <time>2010-02-07T12:07:28Z</time>
      </trkpt>
      <trkpt lat="42.7126" lon="0.99174">
        <ele>2641.36</ele>
        <time>2010-02-07T12:07:39Z</time>
      </trkpt>
      <trkpt lat="42.71261" lon="0.99174">
        <ele>2635.59</ele>
        <time>2010-02-07T12:07:40Z</time>
      </trkpt>
      <trkpt lat="42.71261" lon="0.99174">
        <ele>2640.4</ele>
        <time>2010-02-07T12:07:41Z</time>
      </trkpt>
      <trkpt lat="42.71261" lon="0.99174">
        <ele>2644.72</ele>
        <time>2010-02-07T12:07:42Z</time>
      </trkpt>
      <trkpt lat="42.71261" lon="0.99174">
        <ele>2644.72</ele>
        <time>2010-02-07T12:07:43Z</time>
      </trkpt>
      <trkpt lat="42.7126" lon="0.99174">
        <ele>2646.17</ele>
        <time>2010-02-07T12:09:38Z</time>
      </trkpt>
      <trkpt lat="42.7126" lon="0.99174">
        <ele>2642.32</ele>
        <time>2010-02-07T12:09:41Z</time>
      </trkpt>
      <trkpt lat="42.7126" lon="0.99174">
        <ele>2646.17</ele>
        <time>2010-02-07T12:09:43Z</time>
      </trkpt>
      <trkpt lat="42.7126" lon="0.99174">
        <ele>2645.21</ele>
        <time>2010-02-07T12:09:44Z</time>
      </trkpt>
      <trkpt lat="42.7126" lon="0.99174">
        <ele>2644.72</ele>
        <time>2010-02-07T12:11:23Z</time>
      </trkpt>
      <trkpt lat="42.71261" lon="0.99173">
        <ele>2644.24</ele>
        <time>2010-02-07T12:11:43Z</time>
      </trkpt>
      <trkpt lat="42.71262" lon="0.99173">
        <ele>2642.8</ele>
        <time>2010-02-07T12:18:21Z</time>
      </trkpt>
      <trkpt lat="42.71262" lon="0.99173">
        <ele>2643.28</ele>
        <time>2010-02-07T12:20:01Z</time>
      </trkpt>
      <trkpt lat="42.71261" lon="0.99172">
        <ele>2642.8</ele>
        <time>2010-02-07T12:22:33Z</time>
      </trkpt>
      <trkpt lat="42.71261" lon="0.99174">
        <ele>2639.44</ele>
        <time>2010-02-07T12:22:44Z</time>
      </trkpt>
      <trkpt lat="42.71261" lon="0.99174">
        <ele>2643.28</ele>
        <time>2010-02-07T12:22:50Z</time>
      </trkpt>
      <trkpt lat="42.71261" lon="0.99174">
        <ele>2642.32</ele>
        <time>2010-02-07T12:22:51Z</time>
      </trkpt>
      <trkpt lat="42.71261" lon="0.99174">
        <ele>2644.24</ele>
        <time>2010-02-07T12:23:01Z</time>
      </trkpt>
      <trkpt lat="42.71261" lon="0.99174">
        <ele>2643.76</ele>
        <time>2010-02-07T12:23:25Z</time>
      </trkpt>
      <trkpt lat="42.71261" lon="0.99174">
        <ele>2643.28</ele>
        <time>2010-02-07T12:23:39Z</time>
      </trkpt>
      <trkpt lat="42.71262" lon="0.99174">
        <ele>2644.24</ele>
        <time>2010-02-07T12:23:57Z</time>
      </trkpt>
      <trkpt lat="42.71262" lon="0.99175">
        <ele>2642.8</ele>
        <time>2010-02-07T12:24:13Z</time>
      </trkpt>
      <trkpt lat="42.71262" lon="0.99174">
        <ele>2643.28</ele>
        <time>2010-02-07T12:24:24Z</time>
      </trkpt>
      <trkpt lat="42.71261" lon="0.99175">
        <ele>2643.76</ele>
        <time>2010-02-07T12:24:32Z</time>
      </trkpt>
      <trkpt lat="42.71262" lon="0.99175">
        <ele>2643.76</ele>
        <time>2010-02-07T12:24:43Z</time>
      </trkpt>
      <trkpt lat="42.71261" lon="0.99175">
        <ele>2642.8</ele>
        <time>2010-02-07T12:24:53Z</time>
      </trkpt>
      <trkpt lat="42.71261" lon="0.99175">
        <ele>2642.32</ele>
        <time>2010-02-07T12:25:18Z</time>
      </trkpt>
      <trkpt lat="42.71261" lon="0.99175">
        <ele>2640.88</ele>
        <time>2010-02-07T12:27:24Z</time>
      </trkpt>
      <trkpt lat="42.71261" lon="0.99175">
        <ele>2643.28</ele>
        <time>2010-02-07T12:27:35Z</time>
      </trkpt>
      <trkpt lat="42.71261" lon="0.99173">
        <ele>2643.28</ele>
        <time>2010-02-07T12:27:44Z</time>
      </trkpt>
      <trkpt lat="42.7126" lon="0.99176">
        <ele>2643.28</ele>
        <time>2010-02-07T12:27:56Z</time>
      </trkpt>
      <trkpt lat="42.71259" lon="0.99181">
        <ele>2643.76</ele>
        <time>2010-02-07T12:28:06Z</time>
      </trkpt>
      <trkpt lat="42.71258" lon="0.99187">
        <ele>2643.76</ele>
        <time>2010-02-07T12:28:19Z</time>
      </trkpt>
      <trkpt lat="42.71258" lon="0.99187">
        <ele>2642.8</ele>
        <time>2010-02-07T12:28:29Z</time>
      </trkpt>
      <trkpt lat="42.71258" lon="0.99191">
        <ele>2642.32</ele>
        <time>2010-02-07T12:28:49Z</time>
      </trkpt>
      <trkpt lat="42.71257" lon="0.99192">
        <ele>2642.32</ele>
        <time>2010-02-07T12:28:57Z</time>
      </trkpt>
      <trkpt lat="42.71254" lon="0.99198">
        <ele>2642.32</ele>
        <time>2010-02-07T12:29:01Z</time>
      </trkpt>
      <trkpt lat="42.71251" lon="0.99197">
        <ele>2639.44</ele>
        <time>2010-02-07T12:29:06Z</time>
      </trkpt>
      <trkpt lat="42.71243" lon="0.99196">
        <ele>2637.03</ele>
        <time>2010-02-07T12:29:09Z</time>
      </trkpt>
      <trkpt lat="42.71237" lon="0.9919">
        <ele>2632.71</ele>
        <time>2010-02-07T12:29:11Z</time>
      </trkpt>
      <trkpt lat="42.71225" lon="0.99193">
        <ele>2627.9</ele>
        <time>2010-02-07T12:29:14Z</time>
      </trkpt>
      <trkpt lat="42.7122" lon="0.99199">
        <ele>2622.61</ele>
        <time>2010-02-07T12:29:16Z</time>
      </trkpt>
      <trkpt lat="42.71221" lon="0.99201">
        <ele>2622.13</ele>
        <time>2010-02-07T12:29:22Z</time>
      </trkpt>
      <trkpt lat="42.71215" lon="0.99192">
        <ele>2618.77</ele>
        <time>2010-02-07T12:29:26Z</time>
      </trkpt>
      <trkpt lat="42.71215" lon="0.99187">
        <ele>2617.81</ele>
        <time>2010-02-07T12:29:27Z</time>
      </trkpt>
      <trkpt lat="42.71215" lon="0.9918">
        <ele>2615.88</ele>
        <time>2010-02-07T12:29:30Z</time>
      </trkpt>
      <trkpt lat="42.71215" lon="0.99176">
        <ele>2615.88</ele>
        <time>2010-02-07T12:29:40Z</time>
      </trkpt>
      <trkpt lat="42.71209" lon="0.99171">
        <ele>2611.56</ele>
        <time>2010-02-07T12:29:43Z</time>
      </trkpt>
      <trkpt lat="42.71208" lon="0.99173">
        <ele>2607.71</ele>
        <time>2010-02-07T12:29:44Z</time>
      </trkpt>
      <trkpt lat="42.71207" lon="0.99173">
        <ele>2607.23</ele>
        <time>2010-02-07T12:29:45Z</time>
      </trkpt>
      <trkpt lat="42.71205" lon="0.99173">
        <ele>2606.75</ele>
        <time>2010-02-07T12:29:51Z</time>
      </trkpt>
      <trkpt lat="42.71205" lon="0.99175">
        <ele>2605.79</ele>
        <time>2010-02-07T12:29:55Z</time>
      </trkpt>
      <trkpt lat="42.712" lon="0.99173">
        <ele>2602.43</ele>
        <time>2010-02-07T12:29:59Z</time>
      </trkpt>
      <trkpt lat="42.712" lon="0.99164">
        <ele>2600.02</ele>
        <time>2010-02-07T12:30:04Z</time>
      </trkpt>
      <trkpt lat="42.71199" lon="0.99161">
        <ele>2599.06</ele>
        <time>2010-02-07T12:30:08Z</time>
      </trkpt>
      <trkpt lat="42.71192" lon="0.9916">
        <ele>2595.7</ele>
        <time>2010-02-07T12:30:12Z</time>
      </trkpt>
      <trkpt lat="42.71189" lon="0.99157">
        <ele>2591.85</ele>
        <time>2010-02-07T12:30:15Z</time>
      </trkpt>
      <trkpt lat="42.71189" lon="0.99158">
        <ele>2591.85</ele>
        <time>2010-02-07T12:30:16Z</time>
      </trkpt>
      <trkpt lat="42.71189" lon="0.99159">
        <ele>2591.85</ele>
        <time>2010-02-07T12:30:35Z</time>
      </trkpt>
      <trkpt lat="42.71188" lon="0.99157">
        <ele>2590.89</ele>
        <time>2010-02-07T12:30:56Z</time>
      </trkpt>
      <trkpt lat="42.71179" lon="0.99157">
        <ele>2586.56</ele>
        <time>2010-02-07T12:30:59Z</time>
      </trkpt>
      <trkpt lat="42.71177" lon="0.99157">
        <ele>2585.12</ele>
        <time>2010-02-07T12:31:00Z</time>
      </trkpt>
      <trkpt lat="42.71167" lon="0.99152">
        <ele>2578.39</ele>
        <time>2010-02-07T12:31:03Z</time>
      </trkpt>
      <trkpt lat="42.71161" lon="0.99152">
        <ele>2572.63</ele>
        <time>2010-02-07T12:31:05Z</time>
      </trkpt>
      <trkpt lat="42.71158" lon="0.9915">
        <ele>2569.74</ele>
        <time>2010-02-07T12:31:06Z</time>
      </trkpt>
      <trkpt lat="42.71154" lon="0.99146">
        <ele>2569.74</ele>
        <time>2010-02-07T12:31:07Z</time>
      </trkpt>
      <trkpt lat="42.71148" lon="0.99144">
        <ele>2563.49</ele>
        <time>2010-02-07T12:31:09Z</time>
      </trkpt>
      <trkpt lat="42.71144" lon="0.99142">
        <ele>2560.61</ele>
        <time>2010-02-07T12:31:10Z</time>
      </trkpt>
      <trkpt lat="42.71136" lon="0.99135">
        <ele>2555.8</ele>
        <time>2010-02-07T12:31:12Z</time>
      </trkpt>
      <trkpt lat="42.71131" lon="0.99132">
        <ele>2552.92</ele>
        <time>2010-02-07T12:31:13Z</time>
      </trkpt>
      <trkpt lat="42.71127" lon="0.99129">
        <ele>2549.55</ele>
        <time>2010-02-07T12:31:14Z</time>
      </trkpt>
      <trkpt lat="42.71119" lon="0.99124">
        <ele>2545.71</ele>
        <time>2010-02-07T12:31:16Z</time>
      </trkpt>
      <trkpt lat="42.71116" lon="0.99122">
        <ele>2541.86</ele>
        <time>2010-02-07T12:31:17Z</time>
      </trkpt>
      <trkpt lat="42.71109" lon="0.9912">
        <ele>2536.58</ele>
        <time>2010-02-07T12:31:19Z</time>
      </trkpt>
      <trkpt lat="42.71101" lon="0.99117">
        <ele>2531.77</ele>
        <time>2010-02-07T12:31:21Z</time>
      </trkpt>
      <trkpt lat="42.71093" lon="0.99113">
        <ele>2527.44</ele>
        <time>2010-02-07T12:31:23Z</time>
      </trkpt>
      <trkpt lat="42.71088" lon="0.99111">
        <ele>2523.6</ele>
        <time>2010-02-07T12:31:24Z</time>
      </trkpt>
      <trkpt lat="42.71079" lon="0.99111">
        <ele>2519.75</ele>
        <time>2010-02-07T12:31:26Z</time>
      </trkpt>
      <trkpt lat="42.71071" lon="0.99112">
        <ele>2513.98</ele>
        <time>2010-02-07T12:31:28Z</time>
      </trkpt>
      <trkpt lat="42.71068" lon="0.99113">
        <ele>2510.62</ele>
        <time>2010-02-07T12:31:30Z</time>
      </trkpt>
      <trkpt lat="42.71068" lon="0.99113">
        <ele>2510.62</ele>
        <time>2010-02-07T12:31:31Z</time>
      </trkpt>
      <trkpt lat="42.71069" lon="0.99116">
        <ele>2511.1</ele>
        <time>2010-02-07T12:31:42Z</time>
      </trkpt>
      <trkpt lat="42.71057" lon="0.991">
        <ele>2506.77</ele>
        <time>2010-02-07T12:31:47Z</time>
      </trkpt>
      <trkpt lat="42.71054" lon="0.99092">
        <ele>2505.81</ele>
        <time>2010-02-07T12:31:48Z</time>
      </trkpt>
      <trkpt lat="42.71043" lon="0.99055">
        <ele>2501.49</ele>
        <time>2010-02-07T12:31:53Z</time>
      </trkpt>
      <trkpt lat="42.7104" lon="0.99037">
        <ele>2499.57</ele>
        <time>2010-02-07T12:31:56Z</time>
      </trkpt>
      <trkpt lat="42.71029" lon="0.99031">
        <ele>2497.16</ele>
        <time>2010-02-07T12:31:59Z</time>
      </trkpt>
      <trkpt lat="42.71025" lon="0.99028">
        <ele>2493.8</ele>
        <time>2010-02-07T12:32:00Z</time>
      </trkpt>
      <trkpt lat="42.71008" lon="0.99021">
        <ele>2488.51</ele>
        <time>2010-02-07T12:32:03Z</time>
      </trkpt>
      <trkpt lat="42.70997" lon="0.99018">
        <ele>2481.78</ele>
        <time>2010-02-07T12:32:05Z</time>
      </trkpt>
      <trkpt lat="42.70993" lon="0.99018">
        <ele>2482.26</ele>
        <time>2010-02-07T12:32:06Z</time>
      </trkpt>
      <trkpt lat="42.70987" lon="0.99019">
        <ele>2478.9</ele>
        <time>2010-02-07T12:32:07Z</time>
      </trkpt>
      <trkpt lat="42.70976" lon="0.99024">
        <ele>2474.57</ele>
        <time>2010-02-07T12:32:09Z</time>
      </trkpt>
      <trkpt lat="42.70966" lon="0.99037">
        <ele>2470.73</ele>
        <time>2010-02-07T12:32:11Z</time>
      </trkpt>
      <trkpt lat="42.70949" lon="0.99047">
        <ele>2465.92</ele>
        <time>2010-02-07T12:32:13Z</time>
      </trkpt>
      <trkpt lat="42.70928" lon="0.99053">
        <ele>2463.52</ele>
        <time>2010-02-07T12:32:15Z</time>
      </trkpt>
      <trkpt lat="42.70898" lon="0.9907">
        <ele>2459.19</ele>
        <time>2010-02-07T12:32:19Z</time>
      </trkpt>
      <trkpt lat="42.7088" lon="0.99082">
        <ele>2455.82</ele>
        <time>2010-02-07T12:32:23Z</time>
      </trkpt>
      <trkpt lat="42.7088" lon="0.99082">
        <ele>2455.82</ele>
        <time>2010-02-07T12:32:24Z</time>
      </trkpt>
      <trkpt lat="42.70878" lon="0.99076">
        <ele>2455.34</ele>
        <time>2010-02-07T12:32:30Z</time>
      </trkpt>
      <trkpt lat="42.70874" lon="0.99072">
        <ele>2453.42</ele>
        <time>2010-02-07T12:32:34Z</time>
      </trkpt>
      <trkpt lat="42.70876" lon="0.99074">
        <ele>2453.9</ele>
        <time>2010-02-07T12:32:49Z</time>
      </trkpt>
      <trkpt lat="42.70875" lon="0.99074">
        <ele>2453.9</ele>
        <time>2010-02-07T12:32:59Z</time>
      </trkpt>
      <trkpt lat="42.70875" lon="0.99074">
        <ele>2453.42</ele>
        <time>2010-02-07T12:33:14Z</time>
      </trkpt>
      <trkpt lat="42.70874" lon="0.99076">
        <ele>2452.94</ele>
        <time>2010-02-07T12:33:29Z</time>
      </trkpt>
      <trkpt lat="42.70875" lon="0.99077">
        <ele>2453.9</ele>
        <time>2010-02-07T12:33:42Z</time>
      </trkpt>
      <trkpt lat="42.70875" lon="0.99077">
        <ele>2454.38</ele>
        <time>2010-02-07T12:33:49Z</time>
      </trkpt>
      <trkpt lat="42.70874" lon="0.99079">
        <ele>2453.42</ele>
        <time>2010-02-07T12:34:03Z</time>
      </trkpt>
      <trkpt lat="42.70874" lon="0.9908">
        <ele>2452.46</ele>
        <time>2010-02-07T12:34:05Z</time>
      </trkpt>
      <trkpt lat="42.70875" lon="0.99081">
        <ele>2449.1</ele>
        <time>2010-02-07T12:34:12Z</time>
      </trkpt>
      <trkpt lat="42.70875" lon="0.99081">
        <ele>2451.98</ele>
        <time>2010-02-07T12:34:13Z</time>
      </trkpt>
      <trkpt lat="42.70874" lon="0.99081">
        <ele>2443.81</ele>
        <time>2010-02-07T12:35:44Z</time>
      </trkpt>
      <trkpt lat="42.70874" lon="0.99081">
        <ele>2453.42</ele>
        <time>2010-02-07T12:35:45Z</time>
      </trkpt>
      <trkpt lat="42.70874" lon="0.9908">
        <ele>2451.5</ele>
        <time>2010-02-07T12:36:21Z</time>
      </trkpt>
      <trkpt lat="42.70874" lon="0.99079">
        <ele>2452.94</ele>
        <time>2010-02-07T12:36:56Z</time>
      </trkpt>
      <trkpt lat="42.70874" lon="0.99079">
        <ele>2452.46</ele>
        <time>2010-02-07T12:37:33Z</time>
      </trkpt>
      <trkpt lat="42.70875" lon="0.99078">
        <ele>2451.5</ele>
        <time>2010-02-07T12:37:43Z</time>
      </trkpt>
      <trkpt lat="42.70875" lon="0.99079">
        <ele>2455.34</ele>
        <time>2010-02-07T12:38:10Z</time>
      </trkpt>
      <trkpt lat="42.70875" lon="0.99079">
        <ele>2452.94</ele>
        <time>2010-02-07T12:38:11Z</time>
      </trkpt>
      <trkpt lat="42.70876" lon="0.99078">
        <ele>2451.98</ele>
        <time>2010-02-07T12:38:40Z</time>
      </trkpt>
      <trkpt lat="42.70875" lon="0.99077">
        <ele>2452.94</ele>
        <time>2010-02-07T12:40:32Z</time>
      </trkpt>
      <trkpt lat="42.70874" lon="0.99075">
        <ele>2451.5</ele>
        <time>2010-02-07T12:41:39Z</time>
      </trkpt>
      <trkpt lat="42.70874" lon="0.99074">
        <ele>2454.86</ele>
        <time>2010-02-07T12:53:59Z</time>
      </trkpt>
      <trkpt lat="42.70874" lon="0.99074">
        <ele>2454.38</ele>
        <time>2010-02-07T12:56:08Z</time>
      </trkpt>
      <trkpt lat="42.70875" lon="0.99075">
        <ele>2454.38</ele>
        <time>2010-02-07T13:00:54Z</time>
      </trkpt>
      <trkpt lat="42.70875" lon="0.99075">
        <ele>2452.46</ele>
        <time>2010-02-07T13:00:57Z</time>
      </trkpt>
      <trkpt lat="42.70875" lon="0.99075">
        <ele>2451.98</ele>
        <time>2010-02-07T13:01:08Z</time>
      </trkpt>
      <trkpt lat="42.70875" lon="0.99075">
        <ele>2451.02</ele>
        <time>2010-02-07T13:02:29Z</time>
      </trkpt>
      <trkpt lat="42.70875" lon="0.99075">
        <ele>2454.86</ele>
        <time>2010-02-07T13:02:31Z</time>
      </trkpt>
      <trkpt lat="42.70875" lon="0.99075">
        <ele>2454.38</ele>
        <time>2010-02-07T13:02:32Z</time>
      </trkpt>
      <trkpt lat="42.70875" lon="0.99075">
        <ele>2449.58</ele>
        <time>2010-02-07T13:02:33Z</time>
      </trkpt>
      <trkpt lat="42.70875" lon="0.99075">
        <ele>2456.31</ele>
        <time>2010-02-07T13:02:34Z</time>
      </trkpt>
      <trkpt lat="42.70875" lon="0.99075">
        <ele>2453.42</ele>
        <time>2010-02-07T13:02:35Z</time>
      </trkpt>
      <trkpt lat="42.70875" lon="0.99075">
        <ele>2451.98</ele>
        <time>2010-02-07T13:02:39Z</time>
      </trkpt>
      <trkpt lat="42.70875" lon="0.99076">
        <ele>2452.94</ele>
        <time>2010-02-07T13:03:17Z</time>
      </trkpt>
      <trkpt lat="42.70874" lon="0.99076">
        <ele>2453.42</ele>
        <time>2010-02-07T13:05:48Z</time>
      </trkpt>
      <trkpt lat="42.70874" lon="0.99077">
        <ele>2452.46</ele>
        <time>2010-02-07T13:06:30Z</time>
      </trkpt>
      <trkpt lat="42.70874" lon="0.99077">
        <ele>2455.34</ele>
        <time>2010-02-07T13:06:33Z</time>
      </trkpt>
      <trkpt lat="42.70874" lon="0.99078">
        <ele>2452.46</ele>
        <time>2010-02-07T13:06:53Z</time>
      </trkpt>
      <trkpt lat="42.70874" lon="0.99078">
        <ele>2456.79</ele>
        <time>2010-02-07T13:06:54Z</time>
      </trkpt>
      <trkpt lat="42.70874" lon="0.99078">
        <ele>2444.29</ele>
        <time>2010-02-07T13:06:55Z</time>
      </trkpt>
      <trkpt lat="42.70874" lon="0.99078">
        <ele>2451.02</ele>
        <time>2010-02-07T13:06:56Z</time>
      </trkpt>
      <trkpt lat="42.70874" lon="0.99078">
        <ele>2453.42</ele>
        <time>2010-02-07T13:06:59Z</time>
      </trkpt>
      <trkpt lat="42.70874" lon="0.99077">
        <ele>2452.94</ele>
        <time>2010-02-07T13:07:39Z</time>
      </trkpt>
      <trkpt lat="42.70874" lon="0.99073">
        <ele>2454.86</ele>
        <time>2010-02-07T13:08:07Z</time>
      </trkpt>
      <trkpt lat="42.70874" lon="0.99073">
        <ele>2455.34</ele>
        <time>2010-02-07T13:08:24Z</time>
      </trkpt>
      <trkpt lat="42.70874" lon="0.99075">
        <ele>2454.86</ele>
        <time>2010-02-07T13:08:36Z</time>
      </trkpt>
      <trkpt lat="42.70872" lon="0.99081">
        <ele>2453.42</ele>
        <time>2010-02-07T13:08:46Z</time>
      </trkpt>
      <trkpt lat="42.70871" lon="0.99085">
        <ele>2453.9</ele>
        <time>2010-02-07T13:08:57Z</time>
      </trkpt>
      <trkpt lat="42.70871" lon="0.99086">
        <ele>2453.9</ele>
        <time>2010-02-07T13:09:22Z</time>
      </trkpt>
      <trkpt lat="42.70871" lon="0.99085">
        <ele>2454.86</ele>
        <time>2010-02-07T13:09:47Z</time>
      </trkpt>
      <trkpt lat="42.70872" lon="0.99085">
        <ele>2453.9</ele>
        <time>2010-02-07T13:10:04Z</time>
      </trkpt>
      <trkpt lat="42.7087" lon="0.99086">
        <ele>2453.42</ele>
        <time>2010-02-07T13:10:16Z</time>
      </trkpt>
      <trkpt lat="42.7087" lon="0.99085">
        <ele>2453.9</ele>
        <time>2010-02-07T13:10:26Z</time>
      </trkpt>
      <trkpt lat="42.7087" lon="0.99086">
        <ele>2453.9</ele>
        <time>2010-02-07T13:10:37Z</time>
      </trkpt>
      <trkpt lat="42.70865" lon="0.99091">
        <ele>2453.42</ele>
        <time>2010-02-07T13:10:40Z</time>
      </trkpt>
      <trkpt lat="42.7086" lon="0.99088">
        <ele>2451.02</ele>
        <time>2010-02-07T13:10:48Z</time>
      </trkpt>
      <trkpt lat="42.7086" lon="0.99087">
        <ele>2451.02</ele>
        <time>2010-02-07T13:10:51Z</time>
      </trkpt>
      <trkpt lat="42.70839" lon="0.99076">
        <ele>2447.17</ele>
        <time>2010-02-07T13:10:57Z</time>
      </trkpt>
      <trkpt lat="42.70833" lon="0.99065">
        <ele>2444.29</ele>
        <time>2010-02-07T13:10:59Z</time>
      </trkpt>
      <trkpt lat="42.70832" lon="0.9906">
        <ele>2443.81</ele>
        <time>2010-02-07T13:11:00Z</time>
      </trkpt>
      <trkpt lat="42.70834" lon="0.99056">
        <ele>2442.85</ele>
        <time>2010-02-07T13:11:10Z</time>
      </trkpt>
      <trkpt lat="42.70835" lon="0.99051">
        <ele>2442.37</ele>
        <time>2010-02-07T13:11:20Z</time>
      </trkpt>
      <trkpt lat="42.70835" lon="0.99051">
        <ele>2441.89</ele>
        <time>2010-02-07T13:11:34Z</time>
      </trkpt>
      <trkpt lat="42.70836" lon="0.99041">
        <ele>2442.37</ele>
        <time>2010-02-07T13:11:38Z</time>
      </trkpt>
      <trkpt lat="42.70835" lon="0.99028">
        <ele>2440.44</ele>
        <time>2010-02-07T13:11:40Z</time>
      </trkpt>
      <trkpt lat="42.70833" lon="0.98994">
        <ele>2436.6</ele>
        <time>2010-02-07T13:11:44Z</time>
      </trkpt>
      <trkpt lat="42.70834" lon="0.98974">
        <ele>2434.68</ele>
        <time>2010-02-07T13:11:46Z</time>
      </trkpt>
      <trkpt lat="42.70837" lon="0.98962">
        <ele>2430.83</ele>
        <time>2010-02-07T13:11:47Z</time>
      </trkpt>
      <trkpt lat="42.70837" lon="0.9895">
        <ele>2430.83</ele>
        <time>2010-02-07T13:11:48Z</time>
      </trkpt>
      <trkpt lat="42.70834" lon="0.98941">
        <ele>2427.95</ele>
        <time>2010-02-07T13:11:49Z</time>
      </trkpt>
      <trkpt lat="42.70823" lon="0.98925">
        <ele>2424.58</ele>
        <time>2010-02-07T13:11:51Z</time>
      </trkpt>
      <trkpt lat="42.70817" lon="0.98907">
        <ele>2422.18</ele>
        <time>2010-02-07T13:11:53Z</time>
      </trkpt>
      <trkpt lat="42.70794" lon="0.98885">
        <ele>2415.45</ele>
        <time>2010-02-07T13:11:57Z</time>
      </trkpt>
      <trkpt lat="42.70788" lon="0.98881">
        <ele>2415.93</ele>
        <time>2010-02-07T13:11:58Z</time>
      </trkpt>
      <trkpt lat="42.70776" lon="0.98872">
        <ele>2417.37</ele>
        <time>2010-02-07T13:12:00Z</time>
      </trkpt>
      <trkpt lat="42.7077" lon="0.98868">
        <ele>2415.45</ele>
        <time>2010-02-07T13:12:01Z</time>
      </trkpt>
      <trkpt lat="42.70761" lon="0.98856">
        <ele>2413.05</ele>
        <time>2010-02-07T13:12:03Z</time>
      </trkpt>
      <trkpt lat="42.70743" lon="0.98846">
        <ele>2410.64</ele>
        <time>2010-02-07T13:12:08Z</time>
      </trkpt>
      <trkpt lat="42.70739" lon="0.98847">
        <ele>2410.64</ele>
        <time>2010-02-07T13:12:23Z</time>
      </trkpt>
      <trkpt lat="42.70738" lon="0.98842">
        <ele>2412.09</ele>
        <time>2010-02-07T13:12:25Z</time>
      </trkpt>
      <trkpt lat="42.70744" lon="0.98821">
        <ele>2409.2</ele>
        <time>2010-02-07T13:12:29Z</time>
      </trkpt>
      <trkpt lat="42.70746" lon="0.98815">
        <ele>2407.76</ele>
        <time>2010-02-07T13:12:30Z</time>
      </trkpt>
      <trkpt lat="42.7074" lon="0.98785">
        <ele>2401.03</ele>
        <time>2010-02-07T13:12:35Z</time>
      </trkpt>
      <trkpt lat="42.70733" lon="0.98777">
        <ele>2398.15</ele>
        <time>2010-02-07T13:12:38Z</time>
      </trkpt>
      <trkpt lat="42.70733" lon="0.98774">
        <ele>2399.11</ele>
        <time>2010-02-07T13:12:39Z</time>
      </trkpt>
      <trkpt lat="42.70729" lon="0.98766">
        <ele>2396.22</ele>
        <time>2010-02-07T13:12:42Z</time>
      </trkpt>
      <trkpt lat="42.70735" lon="0.98754">
        <ele>2392.86</ele>
        <time>2010-02-07T13:12:46Z</time>
      </trkpt>
      <trkpt lat="42.70737" lon="0.98749">
        <ele>2392.38</ele>
        <time>2010-02-07T13:12:50Z</time>
      </trkpt>
      <trkpt lat="42.70735" lon="0.9873">
        <ele>2389.49</ele>
        <time>2010-02-07T13:12:55Z</time>
      </trkpt>
      <trkpt lat="42.70733" lon="0.98716">
        <ele>2386.13</ele>
        <time>2010-02-07T13:12:58Z</time>
      </trkpt>
      <trkpt lat="42.70728" lon="0.98686">
        <ele>2382.28</ele>
        <time>2010-02-07T13:13:03Z</time>
      </trkpt>
      <trkpt lat="42.70722" lon="0.98671">
        <ele>2378.92</ele>
        <time>2010-02-07T13:13:05Z</time>
      </trkpt>
      <trkpt lat="42.70716" lon="0.98657">
        <ele>2375.07</ele>
        <time>2010-02-07T13:13:07Z</time>
      </trkpt>
      <trkpt lat="42.70714" lon="0.9863">
        <ele>2373.63</ele>
        <time>2010-02-07T13:13:10Z</time>
      </trkpt>
      <trkpt lat="42.7071" lon="0.98613">
        <ele>2374.11</ele>
        <time>2010-02-07T13:13:12Z</time>
      </trkpt>
      <trkpt lat="42.70703" lon="0.98585">
        <ele>2370.75</ele>
        <time>2010-02-07T13:13:15Z</time>
      </trkpt>
      <trkpt lat="42.70699" lon="0.98567">
        <ele>2369.31</ele>
        <time>2010-02-07T13:13:17Z</time>
      </trkpt>
      <trkpt lat="42.70694" lon="0.98539">
        <ele>2363.06</ele>
        <time>2010-02-07T13:13:20Z</time>
      </trkpt>
      <trkpt lat="42.70692" lon="0.9853">
        <ele>2364.5</ele>
        <time>2010-02-07T13:13:21Z</time>
      </trkpt>
      <trkpt lat="42.70686" lon="0.98514">
        <ele>2361.62</ele>
        <time>2010-02-07T13:13:23Z</time>
      </trkpt>
      <trkpt lat="42.70673" lon="0.98485">
        <ele>2358.25</ele>
        <time>2010-02-07T13:13:27Z</time>
      </trkpt>
      <trkpt lat="42.70672" lon="0.98477">
        <ele>2356.81</ele>
        <time>2010-02-07T13:13:28Z</time>
      </trkpt>
      <trkpt lat="42.70667" lon="0.98435">
        <ele>2354.89</ele>
        <time>2010-02-07T13:13:33Z</time>
      </trkpt>
      <trkpt lat="42.70663" lon="0.9842">
        <ele>2353.44</ele>
        <time>2010-02-07T13:13:35Z</time>
      </trkpt>
      <trkpt lat="42.70658" lon="0.98406">
        <ele>2350.08</ele>
        <time>2010-02-07T13:13:38Z</time>
      </trkpt>
      <trkpt lat="42.70658" lon="0.98406">
        <ele>2348.64</ele>
        <time>2010-02-07T13:13:40Z</time>
      </trkpt>
      <trkpt lat="42.70658" lon="0.98405">
        <ele>2347.68</ele>
        <time>2010-02-07T13:13:51Z</time>
      </trkpt>
      <trkpt lat="42.70659" lon="0.98404">
        <ele>2347.68</ele>
        <time>2010-02-07T13:14:04Z</time>
      </trkpt>
      <trkpt lat="42.70659" lon="0.98404">
        <ele>2348.64</ele>
        <time>2010-02-07T13:14:19Z</time>
      </trkpt>
      <trkpt lat="42.70659" lon="0.98404">
        <ele>2348.64</ele>
        <time>2010-02-07T13:14:49Z</time>
      </trkpt>
      <trkpt lat="42.70658" lon="0.98404">
        <ele>2349.12</ele>
        <time>2010-02-07T13:15:00Z</time>
      </trkpt>
      <trkpt lat="42.7065" lon="0.98396">
        <ele>2348.16</ele>
        <time>2010-02-07T13:15:04Z</time>
      </trkpt>
      <trkpt lat="42.70646" lon="0.98369">
        <ele>2344.79</ele>
        <time>2010-02-07T13:15:08Z</time>
      </trkpt>
      <trkpt lat="42.70641" lon="0.98347">
        <ele>2342.87</ele>
        <time>2010-02-07T13:15:11Z</time>
      </trkpt>
      <trkpt lat="42.70633" lon="0.98335">
        <ele>2341.91</ele>
        <time>2010-02-07T13:15:13Z</time>
      </trkpt>
      <trkpt lat="42.70625" lon="0.98313">
        <ele>2338.54</ele>
        <time>2010-02-07T13:15:16Z</time>
      </trkpt>
      <trkpt lat="42.70611" lon="0.98288">
        <ele>2334.22</ele>
        <time>2010-02-07T13:15:20Z</time>
      </trkpt>
      <trkpt lat="42.70604" lon="0.98277">
        <ele>2333.26</ele>
        <time>2010-02-07T13:15:22Z</time>
      </trkpt>
      <trkpt lat="42.70598" lon="0.98256">
        <ele>2327.49</ele>
        <time>2010-02-07T13:15:25Z</time>
      </trkpt>
      <trkpt lat="42.70597" lon="0.9825">
        <ele>2330.85</ele>
        <time>2010-02-07T13:15:26Z</time>
      </trkpt>
      <trkpt lat="42.70594" lon="0.98233">
        <ele>2326.05</ele>
        <time>2010-02-07T13:15:29Z</time>
      </trkpt>
      <trkpt lat="42.70594" lon="0.9823">
        <ele>2325.57</ele>
        <time>2010-02-07T13:15:30Z</time>
      </trkpt>
      <trkpt lat="42.70594" lon="0.98226">
        <ele>2325.57</ele>
        <time>2010-02-07T13:15:39Z</time>
      </trkpt>
      <trkpt lat="42.70594" lon="0.98226">
        <ele>2326.05</ele>
        <time>2010-02-07T13:15:46Z</time>
      </trkpt>
      <trkpt lat="42.70588" lon="0.98218">
        <ele>2322.2</ele>
        <time>2010-02-07T13:15:50Z</time>
      </trkpt>
      <trkpt lat="42.70583" lon="0.98217">
        <ele>2323.16</ele>
        <time>2010-02-07T13:15:51Z</time>
      </trkpt>
      <trkpt lat="42.70579" lon="0.98221">
        <ele>2321.72</ele>
        <time>2010-02-07T13:15:53Z</time>
      </trkpt>
      <trkpt lat="42.70577" lon="0.98226">
        <ele>2320.76</ele>
        <time>2010-02-07T13:15:55Z</time>
      </trkpt>
      <trkpt lat="42.70571" lon="0.98232">
        <ele>2319.8</ele>
        <time>2010-02-07T13:16:00Z</time>
      </trkpt>
      <trkpt lat="42.70571" lon="0.98232">
        <ele>2319.32</ele>
        <time>2010-02-07T13:16:08Z</time>
      </trkpt>
      <trkpt lat="42.70561" lon="0.9823">
        <ele>2316.43</ele>
        <time>2010-02-07T13:16:13Z</time>
      </trkpt>
      <trkpt lat="42.70544" lon="0.98225">
        <ele>2308.26</ele>
        <time>2010-02-07T13:16:17Z</time>
      </trkpt>
      <trkpt lat="42.70537" lon="0.98225">
        <ele>2308.26</ele>
        <time>2010-02-07T13:16:18Z</time>
      </trkpt>
      <trkpt lat="42.70527" lon="0.98201">
        <ele>2301.53</ele>
        <time>2010-02-07T13:16:22Z</time>
      </trkpt>
      <trkpt lat="42.70528" lon="0.98193">
        <ele>2301.53</ele>
        <time>2010-02-07T13:16:34Z</time>
      </trkpt>
      <trkpt lat="42.70528" lon="0.98193">
        <ele>2302.01</ele>
        <time>2010-02-07T13:16:37Z</time>
      </trkpt>
      <trkpt lat="42.70524" lon="0.98178">
        <ele>2299.61</ele>
        <time>2010-02-07T13:16:45Z</time>
      </trkpt>
      <trkpt lat="42.70524" lon="0.98155">
        <ele>2296.73</ele>
        <time>2010-02-07T13:16:54Z</time>
      </trkpt>
      <trkpt lat="42.70524" lon="0.98154">
        <ele>2297.69</ele>
        <time>2010-02-07T13:17:31Z</time>
      </trkpt>
      <trkpt lat="42.70524" lon="0.98153">
        <ele>2297.21</ele>
        <time>2010-02-07T13:17:35Z</time>
      </trkpt>
      <trkpt lat="42.70513" lon="0.9814">
        <ele>2292.88</ele>
        <time>2010-02-07T13:17:39Z</time>
      </trkpt>
      <trkpt lat="42.7051" lon="0.98132">
        <ele>2291.44</ele>
        <time>2010-02-07T13:17:40Z</time>
      </trkpt>
      <trkpt lat="42.70501" lon="0.98114">
        <ele>2284.71</ele>
        <time>2010-02-07T13:17:43Z</time>
      </trkpt>
      <trkpt lat="42.70497" lon="0.98107">
        <ele>2284.23</ele>
        <time>2010-02-07T13:17:44Z</time>
      </trkpt>
      <trkpt lat="42.70493" lon="0.98088">
        <ele>2277.98</ele>
        <time>2010-02-07T13:17:46Z</time>
      </trkpt>
      <trkpt lat="42.70488" lon="0.98067">
        <ele>2274.14</ele>
        <time>2010-02-07T13:17:48Z</time>
      </trkpt>
      <trkpt lat="42.70488" lon="0.98047">
        <ele>2269.33</ele>
        <time>2010-02-07T13:17:50Z</time>
      </trkpt>
      <trkpt lat="42.7049" lon="0.98043">
        <ele>2267.41</ele>
        <time>2010-02-07T13:17:52Z</time>
      </trkpt>
      <trkpt lat="42.70491" lon="0.98041">
        <ele>2267.89</ele>
        <time>2010-02-07T13:18:04Z</time>
      </trkpt>
      <trkpt lat="42.70492" lon="0.98042">
        <ele>2268.37</ele>
        <time>2010-02-07T13:18:17Z</time>
      </trkpt>
      <trkpt lat="42.70488" lon="0.98033">
        <ele>2266.45</ele>
        <time>2010-02-07T13:18:20Z</time>
      </trkpt>
      <trkpt lat="42.7049" lon="0.98006">
        <ele>2262.12</ele>
        <time>2010-02-07T13:18:24Z</time>
      </trkpt>
      <trkpt lat="42.70496" lon="0.97987">
        <ele>2257.79</ele>
        <time>2010-02-07T13:18:27Z</time>
      </trkpt>
      <trkpt lat="42.70499" lon="0.97975">
        <ele>2256.35</ele>
        <time>2010-02-07T13:18:34Z</time>
      </trkpt>
      <trkpt lat="42.70493" lon="0.97956">
        <ele>2252.51</ele>
        <time>2010-02-07T13:18:37Z</time>
      </trkpt>
      <trkpt lat="42.70486" lon="0.97931">
        <ele>2245.78</ele>
        <time>2010-02-07T13:18:40Z</time>
      </trkpt>
      <trkpt lat="42.70484" lon="0.97917">
        <ele>2239.05</ele>
        <time>2010-02-07T13:18:42Z</time>
      </trkpt>
      <trkpt lat="42.70481" lon="0.97911">
        <ele>2240.97</ele>
        <time>2010-02-07T13:18:43Z</time>
      </trkpt>
      <trkpt lat="42.70475" lon="0.97898">
        <ele>2231.36</ele>
        <time>2010-02-07T13:18:45Z</time>
      </trkpt>
      <trkpt lat="42.70471" lon="0.97891">
        <ele>2232.8</ele>
        <time>2010-02-07T13:18:46Z</time>
      </trkpt>
      <trkpt lat="42.70469" lon="0.97884">
        <ele>2228.95</ele>
        <time>2010-02-07T13:18:47Z</time>
      </trkpt>
      <trkpt lat="42.70464" lon="0.97864">
        <ele>2224.15</ele>
        <time>2010-02-07T13:18:50Z</time>
      </trkpt>
      <trkpt lat="42.70461" lon="0.97856">
        <ele>2220.78</ele>
        <time>2010-02-07T13:18:52Z</time>
      </trkpt>
      <trkpt lat="42.70462" lon="0.97855">
        <ele>2220.78</ele>
        <time>2010-02-07T13:18:53Z</time>
      </trkpt>
      <trkpt lat="42.70463" lon="0.97855">
        <ele>2219.34</ele>
        <time>2010-02-07T13:18:55Z</time>
      </trkpt>
      <trkpt lat="42.70463" lon="0.97856">
        <ele>2220.3</ele>
        <time>2010-02-07T13:20:09Z</time>
      </trkpt>
      <trkpt lat="42.70463" lon="0.97841">
        <ele>2219.82</ele>
        <time>2010-02-07T13:20:32Z</time>
      </trkpt>
      <trkpt lat="42.70465" lon="0.97827">
        <ele>2218.38</ele>
        <time>2010-02-07T13:20:34Z</time>
      </trkpt>
      <trkpt lat="42.70468" lon="0.97814">
        <ele>2216.94</ele>
        <time>2010-02-07T13:20:36Z</time>
      </trkpt>
      <trkpt lat="42.70467" lon="0.97797">
        <ele>2215.01</ele>
        <time>2010-02-07T13:20:38Z</time>
      </trkpt>
      <trkpt lat="42.70457" lon="0.97776">
        <ele>2210.21</ele>
        <time>2010-02-07T13:20:41Z</time>
      </trkpt>
      <trkpt lat="42.70447" lon="0.97762">
        <ele>2208.29</ele>
        <time>2010-02-07T13:20:43Z</time>
      </trkpt>
      <trkpt lat="42.70439" lon="0.97738">
        <ele>2203.48</ele>
        <time>2010-02-07T13:20:46Z</time>
      </trkpt>
      <trkpt lat="42.70435" lon="0.97718">
        <ele>2200.11</ele>
        <time>2010-02-07T13:20:49Z</time>
      </trkpt>
      <trkpt lat="42.70432" lon="0.97715">
        <ele>2196.75</ele>
        <time>2010-02-07T13:20:50Z</time>
      </trkpt>
      <trkpt lat="42.70428" lon="0.9771">
        <ele>2197.71</ele>
        <time>2010-02-07T13:20:51Z</time>
      </trkpt>
      <trkpt lat="42.70421" lon="0.97706">
        <ele>2193.87</ele>
        <time>2010-02-07T13:20:53Z</time>
      </trkpt>
      <trkpt lat="42.70419" lon="0.97704">
        <ele>2191.94</ele>
        <time>2010-02-07T13:21:02Z</time>
      </trkpt>
      <trkpt lat="42.70418" lon="0.97705">
        <ele>2192.42</ele>
        <time>2010-02-07T13:21:14Z</time>
      </trkpt>
      <trkpt lat="42.70415" lon="0.97706">
        <ele>2190.02</ele>
        <time>2010-02-07T13:21:17Z</time>
      </trkpt>
      <trkpt lat="42.70415" lon="0.97706">
        <ele>2191.46</ele>
        <time>2010-02-07T13:21:27Z</time>
      </trkpt>
      <trkpt lat="42.70413" lon="0.97708">
        <ele>2190.5</ele>
        <time>2010-02-07T13:21:30Z</time>
      </trkpt>
      <trkpt lat="42.70405" lon="0.9771">
        <ele>2188.58</ele>
        <time>2010-02-07T13:21:33Z</time>
      </trkpt>
      <trkpt lat="42.70403" lon="0.97709">
        <ele>2188.1</ele>
        <time>2010-02-07T13:21:50Z</time>
      </trkpt>
      <trkpt lat="42.70403" lon="0.97709">
        <ele>2188.1</ele>
        <time>2010-02-07T13:22:08Z</time>
      </trkpt>
      <trkpt lat="42.70403" lon="0.97708">
        <ele>2188.58</ele>
        <time>2010-02-07T13:22:22Z</time>
      </trkpt>
      <trkpt lat="42.70403" lon="0.97708">
        <ele>2188.58</ele>
        <time>2010-02-07T13:22:31Z</time>
      </trkpt>
      <trkpt lat="42.70405" lon="0.97705">
        <ele>2187.14</ele>
        <time>2010-02-07T13:22:48Z</time>
      </trkpt>
      <trkpt lat="42.70405" lon="0.97705">
        <ele>2187.62</ele>
        <time>2010-02-07T13:22:57Z</time>
      </trkpt>
      <trkpt lat="42.70403" lon="0.97691">
        <ele>2183.29</ele>
        <time>2010-02-07T13:23:02Z</time>
      </trkpt>
      <trkpt lat="42.70401" lon="0.97693">
        <ele>2180.89</ele>
        <time>2010-02-07T13:23:05Z</time>
      </trkpt>
      <trkpt lat="42.70401" lon="0.97692">
        <ele>2180.41</ele>
        <time>2010-02-07T13:23:08Z</time>
      </trkpt>
      <trkpt lat="42.70393" lon="0.97684">
        <ele>2176.08</ele>
        <time>2010-02-07T13:23:12Z</time>
      </trkpt>
      <trkpt lat="42.70391" lon="0.97682">
        <ele>2173.2</ele>
        <time>2010-02-07T13:23:13Z</time>
      </trkpt>
      <trkpt lat="42.7039" lon="0.97677">
        <ele>2170.31</ele>
        <time>2010-02-07T13:23:18Z</time>
      </trkpt>
      <trkpt lat="42.70386" lon="0.97676">
        <ele>2174.16</ele>
        <time>2010-02-07T13:23:20Z</time>
      </trkpt>
      <trkpt lat="42.70382" lon="0.97676">
        <ele>2168.39</ele>
        <time>2010-02-07T13:23:21Z</time>
      </trkpt>
      <trkpt lat="42.70377" lon="0.97676">
        <ele>2165.03</ele>
        <time>2010-02-07T13:23:23Z</time>
      </trkpt>
      <trkpt lat="42.70377" lon="0.97675">
        <ele>2162.62</ele>
        <time>2010-02-07T13:23:24Z</time>
      </trkpt>
      <trkpt lat="42.70376" lon="0.97677">
        <ele>2160.7</ele>
        <time>2010-02-07T13:23:26Z</time>
      </trkpt>
      <trkpt lat="42.70375" lon="0.97676">
        <ele>2161.66</ele>
        <time>2010-02-07T13:23:27Z</time>
      </trkpt>
      <trkpt lat="42.70375" lon="0.97671">
        <ele>2159.74</ele>
        <time>2010-02-07T13:23:29Z</time>
      </trkpt>
      <trkpt lat="42.70375" lon="0.97672">
        <ele>2159.74</ele>
        <time>2010-02-07T13:23:32Z</time>
      </trkpt>
      <trkpt lat="42.70372" lon="0.97669">
        <ele>2156.37</ele>
        <time>2010-02-07T13:23:35Z</time>
      </trkpt>
      <trkpt lat="42.70372" lon="0.97669">
        <ele>2156.37</ele>
        <time>2010-02-07T13:23:36Z</time>
      </trkpt>
      <trkpt lat="42.70367" lon="0.97666">
        <ele>2153.49</ele>
        <time>2010-02-07T13:23:40Z</time>
      </trkpt>
      <trkpt lat="42.70364" lon="0.97664">
        <ele>2150.61</ele>
        <time>2010-02-07T13:23:43Z</time>
      </trkpt>
      <trkpt lat="42.70364" lon="0.97664">
        <ele>2150.61</ele>
        <time>2010-02-07T13:23:45Z</time>
      </trkpt>
      <trkpt lat="42.70363" lon="0.97667">
        <ele>2149.65</ele>
        <time>2010-02-07T13:23:47Z</time>
      </trkpt>
      <trkpt lat="42.7036" lon="0.97661">
        <ele>2146.76</ele>
        <time>2010-02-07T13:23:53Z</time>
      </trkpt>
      <trkpt lat="42.70359" lon="0.9766">
        <ele>2147.24</ele>
        <time>2010-02-07T13:23:57Z</time>
      </trkpt>
      <trkpt lat="42.70346" lon="0.97671">
        <ele>2141.47</ele>
        <time>2010-02-07T13:24:00Z</time>
      </trkpt>
      <trkpt lat="42.70344" lon="0.97673">
        <ele>2141.47</ele>
        <time>2010-02-07T13:24:01Z</time>
      </trkpt>
      <trkpt lat="42.70343" lon="0.97675">
        <ele>2141.47</ele>
        <time>2010-02-07T13:24:11Z</time>
      </trkpt>
      <trkpt lat="42.70343" lon="0.97675">
        <ele>2141.47</ele>
        <time>2010-02-07T13:24:12Z</time>
      </trkpt>
      <trkpt lat="42.70336" lon="0.97667">
        <ele>2137.15</ele>
        <time>2010-02-07T13:24:16Z</time>
      </trkpt>
      <trkpt lat="42.70331" lon="0.97661">
        <ele>2131.86</ele>
        <time>2010-02-07T13:24:18Z</time>
      </trkpt>
      <trkpt lat="42.70327" lon="0.97663">
        <ele>2129.94</ele>
        <time>2010-02-07T13:24:21Z</time>
      </trkpt>
      <trkpt lat="42.70315" lon="0.97668">
        <ele>2125.61</ele>
        <time>2010-02-07T13:24:26Z</time>
      </trkpt>
      <trkpt lat="42.70313" lon="0.97665">
        <ele>2128.98</ele>
        <time>2010-02-07T13:24:28Z</time>
      </trkpt>
      <trkpt lat="42.7031" lon="0.97665">
        <ele>2122.25</ele>
        <time>2010-02-07T13:24:29Z</time>
      </trkpt>
      <trkpt lat="42.7031" lon="0.97666">
        <ele>2120.81</ele>
        <time>2010-02-07T13:24:30Z</time>
      </trkpt>
      <trkpt lat="42.70309" lon="0.97665">
        <ele>2119.36</ele>
        <time>2010-02-07T13:24:32Z</time>
      </trkpt>
      <trkpt lat="42.70309" lon="0.97664">
        <ele>2126.09</ele>
        <time>2010-02-07T13:24:35Z</time>
      </trkpt>
      <trkpt lat="42.70308" lon="0.97664">
        <ele>2118.4</ele>
        <time>2010-02-07T13:24:36Z</time>
      </trkpt>
      <trkpt lat="42.70308" lon="0.97665">
        <ele>2118.4</ele>
        <time>2010-02-07T13:25:01Z</time>
      </trkpt>
      <trkpt lat="42.70309" lon="0.97663">
        <ele>2119.36</ele>
        <time>2010-02-07T13:25:51Z</time>
      </trkpt>
      <trkpt lat="42.70308" lon="0.97662">
        <ele>2118.88</ele>
        <time>2010-02-07T13:26:37Z</time>
      </trkpt>
      <trkpt lat="42.70308" lon="0.97662">
        <ele>2119.36</ele>
        <time>2010-02-07T13:26:44Z</time>
      </trkpt>
      <trkpt lat="42.70307" lon="0.97655">
        <ele>2124.17</ele>
        <time>2010-02-07T13:26:47Z</time>
      </trkpt>
      <trkpt lat="42.70307" lon="0.97653">
        <ele>2116</ele>
        <time>2010-02-07T13:26:48Z</time>
      </trkpt>
      <trkpt lat="42.70309" lon="0.97642">
        <ele>2112.63</ele>
        <time>2010-02-07T13:26:51Z</time>
      </trkpt>
      <trkpt lat="42.70309" lon="0.97642">
        <ele>2112.15</ele>
        <time>2010-02-07T13:26:53Z</time>
      </trkpt>
      <trkpt lat="42.70306" lon="0.97639">
        <ele>2112.63</ele>
        <time>2010-02-07T13:26:55Z</time>
      </trkpt>
      <trkpt lat="42.70302" lon="0.97634">
        <ele>2108.79</ele>
        <time>2010-02-07T13:26:57Z</time>
      </trkpt>
      <trkpt lat="42.70303" lon="0.97631">
        <ele>2105.91</ele>
        <time>2010-02-07T13:26:59Z</time>
      </trkpt>
      <trkpt lat="42.70305" lon="0.97632">
        <ele>2105.42</ele>
        <time>2010-02-07T13:27:16Z</time>
      </trkpt>
      <trkpt lat="42.70305" lon="0.97631">
        <ele>2104.94</ele>
        <time>2010-02-07T13:27:51Z</time>
      </trkpt>
      <trkpt lat="42.70305" lon="0.97621">
        <ele>2100.62</ele>
        <time>2010-02-07T13:27:56Z</time>
      </trkpt>
      <trkpt lat="42.70304" lon="0.9762">
        <ele>2101.58</ele>
        <time>2010-02-07T13:28:23Z</time>
      </trkpt>
      <trkpt lat="42.70314" lon="0.9761">
        <ele>2099.66</ele>
        <time>2010-02-07T13:28:30Z</time>
      </trkpt>
      <trkpt lat="42.70316" lon="0.9761">
        <ele>2099.18</ele>
        <time>2010-02-07T13:28:33Z</time>
      </trkpt>
      <trkpt lat="42.70321" lon="0.97604">
        <ele>2097.73</ele>
        <time>2010-02-07T13:28:46Z</time>
      </trkpt>
      <trkpt lat="42.70322" lon="0.976">
        <ele>2097.73</ele>
        <time>2010-02-07T13:28:53Z</time>
      </trkpt>
      <trkpt lat="42.70325" lon="0.97599">
        <ele>2093.89</ele>
        <time>2010-02-07T13:28:56Z</time>
      </trkpt>
      <trkpt lat="42.70325" lon="0.97595">
        <ele>2093.89</ele>
        <time>2010-02-07T13:29:05Z</time>
      </trkpt>
      <trkpt lat="42.70326" lon="0.97592">
        <ele>2092.45</ele>
        <time>2010-02-07T13:29:10Z</time>
      </trkpt>
      <trkpt lat="42.7033" lon="0.97586">
        <ele>2090.52</ele>
        <time>2010-02-07T13:29:21Z</time>
      </trkpt>
      <trkpt lat="42.7033" lon="0.97585">
        <ele>2090.04</ele>
        <time>2010-02-07T13:29:42Z</time>
      </trkpt>
      <trkpt lat="42.70325" lon="0.9758">
        <ele>2085.24</ele>
        <time>2010-02-07T13:29:45Z</time>
      </trkpt>
      <trkpt lat="42.70324" lon="0.97578">
        <ele>2085.24</ele>
        <time>2010-02-07T13:30:00Z</time>
      </trkpt>
      <trkpt lat="42.70324" lon="0.97577">
        <ele>2083.79</ele>
        <time>2010-02-07T13:30:11Z</time>
      </trkpt>
      <trkpt lat="42.70324" lon="0.97577">
        <ele>2083.31</ele>
        <time>2010-02-07T13:30:36Z</time>
      </trkpt>
      <trkpt lat="42.70324" lon="0.97576">
        <ele>2082.83</ele>
        <time>2010-02-07T13:30:56Z</time>
      </trkpt>
      <trkpt lat="42.70324" lon="0.97575">
        <ele>2081.87</ele>
        <time>2010-02-07T13:31:28Z</time>
      </trkpt>
      <trkpt lat="42.70325" lon="0.97574">
        <ele>2082.35</ele>
        <time>2010-02-07T13:31:31Z</time>
      </trkpt>
      <trkpt lat="42.70324" lon="0.97571">
        <ele>2079.47</ele>
        <time>2010-02-07T13:31:33Z</time>
      </trkpt>
      <trkpt lat="42.70324" lon="0.97566">
        <ele>2078.03</ele>
        <time>2010-02-07T13:31:35Z</time>
      </trkpt>
      <trkpt lat="42.70324" lon="0.97562">
        <ele>2076.59</ele>
        <time>2010-02-07T13:31:36Z</time>
      </trkpt>
      <trkpt lat="42.70329" lon="0.97553">
        <ele>2072.26</ele>
        <time>2010-02-07T13:31:40Z</time>
      </trkpt>
      <trkpt lat="42.7033" lon="0.97547">
        <ele>2071.78</ele>
        <time>2010-02-07T13:31:50Z</time>
      </trkpt>
      <trkpt lat="42.70331" lon="0.97547">
        <ele>2072.26</ele>
        <time>2010-02-07T13:31:55Z</time>
      </trkpt>
      <trkpt lat="42.70331" lon="0.9753">
        <ele>2066.01</ele>
        <time>2010-02-07T13:31:58Z</time>
      </trkpt>
      <trkpt lat="42.70328" lon="0.97523">
        <ele>2061.68</ele>
        <time>2010-02-07T13:32:00Z</time>
      </trkpt>
      <trkpt lat="42.70324" lon="0.97522">
        <ele>2060.24</ele>
        <time>2010-02-07T13:32:07Z</time>
      </trkpt>
      <trkpt lat="42.70325" lon="0.97522">
        <ele>2060.24</ele>
        <time>2010-02-07T13:32:28Z</time>
      </trkpt>
      <trkpt lat="42.70325" lon="0.97522">
        <ele>2060.72</ele>
        <time>2010-02-07T13:32:52Z</time>
      </trkpt>
      <trkpt lat="42.70325" lon="0.97522">
        <ele>2060.72</ele>
        <time>2010-02-07T13:33:03Z</time>
      </trkpt>
      <trkpt lat="42.70325" lon="0.97522">
        <ele>2060.24</ele>
        <time>2010-02-07T13:33:14Z</time>
      </trkpt>
      <trkpt lat="42.70325" lon="0.9751">
        <ele>2056.4</ele>
        <time>2010-02-07T13:33:18Z</time>
      </trkpt>
      <trkpt lat="42.70328" lon="0.97492">
        <ele>2051.11</ele>
        <time>2010-02-07T13:33:21Z</time>
      </trkpt>
      <trkpt lat="42.70329" lon="0.97487">
        <ele>2054.47</ele>
        <time>2010-02-07T13:33:22Z</time>
      </trkpt>
      <trkpt lat="42.7033" lon="0.97481">
        <ele>2048.71</ele>
        <time>2010-02-07T13:33:23Z</time>
      </trkpt>
      <trkpt lat="42.70334" lon="0.97461">
        <ele>2044.86</ele>
        <time>2010-02-07T13:33:26Z</time>
      </trkpt>
      <trkpt lat="42.70336" lon="0.97446">
        <ele>2043.42</ele>
        <time>2010-02-07T13:33:28Z</time>
      </trkpt>
      <trkpt lat="42.70342" lon="0.97423">
        <ele>2040.54</ele>
        <time>2010-02-07T13:33:31Z</time>
      </trkpt>
      <trkpt lat="42.70347" lon="0.97402">
        <ele>2037.65</ele>
        <time>2010-02-07T13:33:38Z</time>
      </trkpt>
      <trkpt lat="42.70343" lon="0.97395">
        <ele>2036.21</ele>
        <time>2010-02-07T13:33:41Z</time>
      </trkpt>
      <trkpt lat="42.7034" lon="0.97384">
        <ele>2029.96</ele>
        <time>2010-02-07T13:33:43Z</time>
      </trkpt>
      <trkpt lat="42.70339" lon="0.9737">
        <ele>2027.08</ele>
        <time>2010-02-07T13:33:45Z</time>
      </trkpt>
      <trkpt lat="42.70341" lon="0.97349">
        <ele>2020.35</ele>
        <time>2010-02-07T13:33:48Z</time>
      </trkpt>
      <trkpt lat="42.70343" lon="0.97345">
        <ele>2016.02</ele>
        <time>2010-02-07T13:33:50Z</time>
      </trkpt>
      <trkpt lat="42.70343" lon="0.97345">
        <ele>2016.98</ele>
        <time>2010-02-07T13:33:51Z</time>
      </trkpt>
      <trkpt lat="42.70342" lon="0.97344">
        <ele>2018.43</ele>
        <time>2010-02-07T13:34:17Z</time>
      </trkpt>
      <trkpt lat="42.70342" lon="0.97346">
        <ele>2018.43</ele>
        <time>2010-02-07T13:34:29Z</time>
      </trkpt>
      <trkpt lat="42.70341" lon="0.97344">
        <ele>2018.43</ele>
        <time>2010-02-07T13:34:44Z</time>
      </trkpt>
      <trkpt lat="42.70341" lon="0.97344">
        <ele>2019.39</ele>
        <time>2010-02-07T13:34:50Z</time>
      </trkpt>
      <trkpt lat="42.70341" lon="0.97344">
        <ele>2018.91</ele>
        <time>2010-02-07T13:35:19Z</time>
      </trkpt>
      <trkpt lat="42.7034" lon="0.97344">
        <ele>2018.91</ele>
        <time>2010-02-07T13:35:49Z</time>
      </trkpt>
      <trkpt lat="42.70339" lon="0.97343">
        <ele>2018.43</ele>
        <time>2010-02-07T13:35:55Z</time>
      </trkpt>
      <trkpt lat="42.70342" lon="0.97314">
        <ele>2015.06</ele>
        <time>2010-02-07T13:36:01Z</time>
      </trkpt>
      <trkpt lat="42.70346" lon="0.97306">
        <ele>2014.58</ele>
        <time>2010-02-07T13:36:02Z</time>
      </trkpt>
      <trkpt lat="42.70354" lon="0.9729">
        <ele>2011.22</ele>
        <time>2010-02-07T13:36:04Z</time>
      </trkpt>
      <trkpt lat="42.70366" lon="0.9725">
        <ele>2007.85</ele>
        <time>2010-02-07T13:36:09Z</time>
      </trkpt>
      <trkpt lat="42.70368" lon="0.97242">
        <ele>2006.89</ele>
        <time>2010-02-07T13:36:10Z</time>
      </trkpt>
      <trkpt lat="42.7037" lon="0.97224">
        <ele>2005.93</ele>
        <time>2010-02-07T13:36:12Z</time>
      </trkpt>
      <trkpt lat="42.7037" lon="0.97204">
        <ele>2003.04</ele>
        <time>2010-02-07T13:36:14Z</time>
      </trkpt>
      <trkpt lat="42.7037" lon="0.97193">
        <ele>2001.6</ele>
        <time>2010-02-07T13:36:15Z</time>
      </trkpt>
      <trkpt lat="42.70374" lon="0.97164">
        <ele>1999.2</ele>
        <time>2010-02-07T13:36:18Z</time>
      </trkpt>
      <trkpt lat="42.70373" lon="0.97137">
        <ele>1995.83</ele>
        <time>2010-02-07T13:36:22Z</time>
      </trkpt>
      <trkpt lat="42.70362" lon="0.97134">
        <ele>1991.99</ele>
        <time>2010-02-07T13:36:25Z</time>
      </trkpt>
      <trkpt lat="42.70349" lon="0.97139">
        <ele>1986.22</ele>
        <time>2010-02-07T13:36:31Z</time>
      </trkpt>
      <trkpt lat="42.70349" lon="0.97137">
        <ele>1986.7</ele>
        <time>2010-02-07T13:36:40Z</time>
      </trkpt>
      <trkpt lat="42.70349" lon="0.97137">
        <ele>1986.7</ele>
        <time>2010-02-07T13:36:42Z</time>
      </trkpt>
      <trkpt lat="42.70349" lon="0.97135">
        <ele>1986.7</ele>
        <time>2010-02-07T13:36:53Z</time>
      </trkpt>
      <trkpt lat="42.70344" lon="0.9712">
        <ele>1983.34</ele>
        <time>2010-02-07T13:36:59Z</time>
      </trkpt>
      <trkpt lat="42.70341" lon="0.9712">
        <ele>1981.9</ele>
        <time>2010-02-07T13:37:02Z</time>
      </trkpt>
      <trkpt lat="42.70335" lon="0.97103">
        <ele>1984.3</ele>
        <time>2010-02-07T13:37:06Z</time>
      </trkpt>
      <trkpt lat="42.70336" lon="0.97087">
        <ele>1972.76</ele>
        <time>2010-02-07T13:37:09Z</time>
      </trkpt>
      <trkpt lat="42.70337" lon="0.97088">
        <ele>1972.76</ele>
        <time>2010-02-07T13:37:25Z</time>
      </trkpt>
      <trkpt lat="42.70336" lon="0.97089">
        <ele>1973.24</ele>
        <time>2010-02-07T13:37:42Z</time>
      </trkpt>
      <trkpt lat="42.70336" lon="0.97089">
        <ele>1973.24</ele>
        <time>2010-02-07T13:37:43Z</time>
      </trkpt>
      <trkpt lat="42.70338" lon="0.9706">
        <ele>1968.92</ele>
        <time>2010-02-07T13:37:49Z</time>
      </trkpt>
      <trkpt lat="42.7034" lon="0.97054">
        <ele>1966.51</ele>
        <time>2010-02-07T13:37:50Z</time>
      </trkpt>
      <trkpt lat="42.70354" lon="0.9703">
        <ele>1964.11</ele>
        <time>2010-02-07T13:37:55Z</time>
      </trkpt>
      <trkpt lat="42.7036" lon="0.96996">
        <ele>1958.34</ele>
        <time>2010-02-07T13:37:59Z</time>
      </trkpt>
      <trkpt lat="42.70365" lon="0.96956">
        <ele>1953.54</ele>
        <time>2010-02-07T13:38:02Z</time>
      </trkpt>
      <trkpt lat="42.70363" lon="0.96918">
        <ele>1950.17</ele>
        <time>2010-02-07T13:38:05Z</time>
      </trkpt>
      <trkpt lat="42.70359" lon="0.96908">
        <ele>1948.73</ele>
        <time>2010-02-07T13:38:06Z</time>
      </trkpt>
      <trkpt lat="42.70349" lon="0.96877">
        <ele>1943.92</ele>
        <time>2010-02-07T13:38:09Z</time>
      </trkpt>
      <trkpt lat="42.7034" lon="0.96849">
        <ele>1941.52</ele>
        <time>2010-02-07T13:38:12Z</time>
      </trkpt>
      <trkpt lat="42.7033" lon="0.96824">
        <ele>1939.12</ele>
        <time>2010-02-07T13:38:15Z</time>
      </trkpt>
      <trkpt lat="42.70325" lon="0.96812">
        <ele>1937.19</ele>
        <time>2010-02-07T13:38:17Z</time>
      </trkpt>
      <trkpt lat="42.70317" lon="0.96792">
        <ele>1934.79</ele>
        <time>2010-02-07T13:38:20Z</time>
      </trkpt>
      <trkpt lat="42.70315" lon="0.96785">
        <ele>1932.87</ele>
        <time>2010-02-07T13:38:21Z</time>
      </trkpt>
      <trkpt lat="42.70305" lon="0.96755">
        <ele>1929.02</ele>
        <time>2010-02-07T13:38:25Z</time>
      </trkpt>
      <trkpt lat="42.70303" lon="0.96749">
        <ele>1928.54</ele>
        <time>2010-02-07T13:38:26Z</time>
      </trkpt>
      <trkpt lat="42.70298" lon="0.96737">
        <ele>1927.1</ele>
        <time>2010-02-07T13:38:28Z</time>
      </trkpt>
      <trkpt lat="42.70295" lon="0.96707">
        <ele>1922.29</ele>
        <time>2010-02-07T13:38:31Z</time>
      </trkpt>
      <trkpt lat="42.70297" lon="0.96689">
        <ele>1919.89</ele>
        <time>2010-02-07T13:38:33Z</time>
      </trkpt>
      <trkpt lat="42.70303" lon="0.96661">
        <ele>1918.93</ele>
        <time>2010-02-07T13:38:37Z</time>
      </trkpt>
      <trkpt lat="42.70312" lon="0.96624">
        <ele>1917.49</ele>
        <time>2010-02-07T13:38:49Z</time>
      </trkpt>
      <trkpt lat="42.70313" lon="0.96622">
        <ele>1917.01</ele>
        <time>2010-02-07T13:38:57Z</time>
      </trkpt>
      <trkpt lat="42.70301" lon="0.96599">
        <ele>1914.12</ele>
        <time>2010-02-07T13:39:03Z</time>
      </trkpt>
      <trkpt lat="42.70302" lon="0.96589">
        <ele>1914.12</ele>
        <time>2010-02-07T13:39:05Z</time>
      </trkpt>
      <trkpt lat="42.70302" lon="0.96571">
        <ele>1912.68</ele>
        <time>2010-02-07T13:39:10Z</time>
      </trkpt>
      <trkpt lat="42.70306" lon="0.96568">
        <ele>1910.76</ele>
        <time>2010-02-07T13:39:14Z</time>
      </trkpt>
      <trkpt lat="42.7031" lon="0.9656">
        <ele>1910.76</ele>
        <time>2010-02-07T13:39:27Z</time>
      </trkpt>
      <trkpt lat="42.7031" lon="0.96561">
        <ele>1910.76</ele>
        <time>2010-02-07T13:39:39Z</time>
      </trkpt>
      <trkpt lat="42.70309" lon="0.96561">
        <ele>1910.76</ele>
        <time>2010-02-07T13:39:41Z</time>
      </trkpt>
      <trkpt lat="42.70304" lon="0.96567">
        <ele>1912.2</ele>
        <time>2010-02-07T13:39:47Z</time>
      </trkpt>
      <trkpt lat="42.703" lon="0.96572">
        <ele>1911.72</ele>
        <time>2010-02-07T13:39:55Z</time>
      </trkpt>
      <trkpt lat="42.70299" lon="0.96573">
        <ele>1911.24</ele>
        <time>2010-02-07T13:39:57Z</time>
      </trkpt>
      <trkpt lat="42.70296" lon="0.96573">
        <ele>1911.24</ele>
        <time>2010-02-07T13:40:07Z</time>
      </trkpt>
      <trkpt lat="42.70294" lon="0.96574">
        <ele>1911.72</ele>
        <time>2010-02-07T13:40:19Z</time>
      </trkpt>
      <trkpt lat="42.70291" lon="0.96575">
        <ele>1912.68</ele>
        <time>2010-02-07T13:40:28Z</time>
      </trkpt>
      <trkpt lat="42.7029" lon="0.96575">
        <ele>1912.68</ele>
        <time>2010-02-07T13:40:38Z</time>
      </trkpt>
      <trkpt lat="42.7029" lon="0.96575">
        <ele>1912.2</ele>
        <time>2010-02-07T13:41:11Z</time>
      </trkpt>
      <trkpt lat="42.7029" lon="0.96575">
        <ele>1915.56</ele>
        <time>2010-02-07T13:41:15Z</time>
      </trkpt>
      <trkpt lat="42.7029" lon="0.96575">
        <ele>1913.16</ele>
        <time>2010-02-07T13:41:18Z</time>
      </trkpt>
      <trkpt lat="42.7029" lon="0.96574">
        <ele>1914.12</ele>
        <time>2010-02-07T13:41:20Z</time>
      </trkpt>
      <trkpt lat="42.70291" lon="0.96567">
        <ele>1915.08</ele>
        <time>2010-02-07T13:41:34Z</time>
      </trkpt>
      <trkpt lat="42.70291" lon="0.9656">
        <ele>1916.04</ele>
        <time>2010-02-07T13:41:44Z</time>
      </trkpt>
      <trkpt lat="42.70292" lon="0.96552">
        <ele>1916.53</ele>
        <time>2010-02-07T13:41:55Z</time>
      </trkpt>
      <trkpt lat="42.70292" lon="0.96549">
        <ele>1917.01</ele>
        <time>2010-02-07T13:41:59Z</time>
      </trkpt>
      <trkpt lat="42.70291" lon="0.96546">
        <ele>1917.97</ele>
        <time>2010-02-07T13:42:01Z</time>
      </trkpt>
      <trkpt lat="42.70292" lon="0.96544">
        <ele>1923.74</ele>
        <time>2010-02-07T13:42:02Z</time>
      </trkpt>
      <trkpt lat="42.70292" lon="0.96543">
        <ele>1917.49</ele>
        <time>2010-02-07T13:42:03Z</time>
      </trkpt>
      <trkpt lat="42.70293" lon="0.96542">
        <ele>1916.53</ele>
        <time>2010-02-07T13:42:05Z</time>
      </trkpt>
      <trkpt lat="42.70293" lon="0.96541">
        <ele>1916.53</ele>
        <time>2010-02-07T13:42:06Z</time>
      </trkpt>
      <trkpt lat="42.70294" lon="0.9654">
        <ele>1916.53</ele>
        <time>2010-02-07T13:42:08Z</time>
      </trkpt>
      <trkpt lat="42.70302" lon="0.96528">
        <ele>1916.53</ele>
        <time>2010-02-07T13:42:17Z</time>
      </trkpt>
      <trkpt lat="42.70304" lon="0.96526">
        <ele>1917.01</ele>
        <time>2010-02-07T13:42:21Z</time>
      </trkpt>
      <trkpt lat="42.70306" lon="0.96523">
        <ele>1923.25</ele>
        <time>2010-02-07T13:42:24Z</time>
      </trkpt>
      <trkpt lat="42.70307" lon="0.96522">
        <ele>1916.53</ele>
        <time>2010-02-07T13:42:25Z</time>
      </trkpt>
      <trkpt lat="42.70313" lon="0.96503">
        <ele>1916.04</ele>
        <time>2010-02-07T13:42:38Z</time>
      </trkpt>
      <trkpt lat="42.70317" lon="0.96486">
        <ele>1915.56</ele>
        <time>2010-02-07T13:42:50Z</time>
      </trkpt>
      <trkpt lat="42.7033" lon="0.9646">
        <ele>1913.64</ele>
        <time>2010-02-07T13:43:00Z</time>
      </trkpt>
      <trkpt lat="42.70333" lon="0.96447">
        <ele>1912.2</ele>
        <time>2010-02-07T13:43:02Z</time>
      </trkpt>
      <trkpt lat="42.70329" lon="0.96415">
        <ele>1908.83</ele>
        <time>2010-02-07T13:43:06Z</time>
      </trkpt>
      <trkpt lat="42.70328" lon="0.96404">
        <ele>1907.39</ele>
        <time>2010-02-07T13:43:12Z</time>
      </trkpt>
      <trkpt lat="42.70328" lon="0.96404">
        <ele>1906.91</ele>
        <time>2010-02-07T13:43:37Z</time>
      </trkpt>
      <trkpt lat="42.70333" lon="0.96387">
        <ele>1903.55</ele>
        <time>2010-02-07T13:43:43Z</time>
      </trkpt>
      <trkpt lat="42.70333" lon="0.96379">
        <ele>1902.11</ele>
        <time>2010-02-07T13:43:46Z</time>
      </trkpt>
      <trkpt lat="42.70331" lon="0.96376">
        <ele>1902.11</ele>
        <time>2010-02-07T13:43:55Z</time>
      </trkpt>
      <trkpt lat="42.70327" lon="0.96369">
        <ele>1903.07</ele>
        <time>2010-02-07T13:44:07Z</time>
      </trkpt>
      <trkpt lat="42.70326" lon="0.96356">
        <ele>1903.55</ele>
        <time>2010-02-07T13:44:13Z</time>
      </trkpt>
      <trkpt lat="42.70322" lon="0.96346">
        <ele>1903.07</ele>
        <time>2010-02-07T13:44:24Z</time>
      </trkpt>
      <trkpt lat="42.70321" lon="0.96345">
        <ele>1903.55</ele>
        <time>2010-02-07T13:44:52Z</time>
      </trkpt>
      <trkpt lat="42.70319" lon="0.96345">
        <ele>1903.07</ele>
        <time>2010-02-07T13:45:04Z</time>
      </trkpt>
      <trkpt lat="42.70319" lon="0.96345">
        <ele>1902.59</ele>
        <time>2010-02-07T13:45:38Z</time>
      </trkpt>
      <trkpt lat="42.70319" lon="0.96341">
        <ele>1903.07</ele>
        <time>2010-02-07T13:45:48Z</time>
      </trkpt>
      <trkpt lat="42.70317" lon="0.96336">
        <ele>1904.99</ele>
        <time>2010-02-07T13:45:56Z</time>
      </trkpt>
      <trkpt lat="42.70316" lon="0.96334">
        <ele>1903.07</ele>
        <time>2010-02-07T13:45:58Z</time>
      </trkpt>
      <trkpt lat="42.70311" lon="0.96329">
        <ele>1903.07</ele>
        <time>2010-02-07T13:46:04Z</time>
      </trkpt>
      <trkpt lat="42.70308" lon="0.96328">
        <ele>1902.59</ele>
        <time>2010-02-07T13:46:07Z</time>
      </trkpt>
      <trkpt lat="42.70305" lon="0.96326">
        <ele>1902.59</ele>
        <time>2010-02-07T13:46:16Z</time>
      </trkpt>
      <trkpt lat="42.70305" lon="0.96321">
        <ele>1904.51</ele>
        <time>2010-02-07T13:46:25Z</time>
      </trkpt>
      <trkpt lat="42.70304" lon="0.96319">
        <ele>1903.07</ele>
        <time>2010-02-07T13:46:28Z</time>
      </trkpt>
      <trkpt lat="42.70301" lon="0.96308">
        <ele>1904.03</ele>
        <time>2010-02-07T13:46:38Z</time>
      </trkpt>
      <trkpt lat="42.703" lon="0.96296">
        <ele>1904.51</ele>
        <time>2010-02-07T13:46:49Z</time>
      </trkpt>
      <trkpt lat="42.70301" lon="0.96287">
        <ele>1904.51</ele>
        <time>2010-02-07T13:46:59Z</time>
      </trkpt>
      <trkpt lat="42.703" lon="0.96281">
        <ele>1910.28</ele>
        <time>2010-02-07T13:47:03Z</time>
      </trkpt>
      <trkpt lat="42.703" lon="0.96279">
        <ele>1906.43</ele>
        <time>2010-02-07T13:47:04Z</time>
      </trkpt>
      <trkpt lat="42.70299" lon="0.96276">
        <ele>1904.99</ele>
        <time>2010-02-07T13:47:06Z</time>
      </trkpt>
      <trkpt lat="42.70295" lon="0.96269">
        <ele>1904.03</ele>
        <time>2010-02-07T13:47:17Z</time>
      </trkpt>
      <trkpt lat="42.70293" lon="0.96268">
        <ele>1904.99</ele>
        <time>2010-02-07T13:47:19Z</time>
      </trkpt>
      <trkpt lat="42.70291" lon="0.96264">
        <ele>1904.51</ele>
        <time>2010-02-07T13:47:30Z</time>
      </trkpt>
      <trkpt lat="42.70291" lon="0.96263">
        <ele>1904.03</ele>
        <time>2010-02-07T13:47:49Z</time>
      </trkpt>
      <trkpt lat="42.70291" lon="0.96263">
        <ele>1904.51</ele>
        <time>2010-02-07T13:48:12Z</time>
      </trkpt>
      <trkpt lat="42.70297" lon="0.9624">
        <ele>1904.03</ele>
        <time>2010-02-07T13:48:21Z</time>
      </trkpt>
      <trkpt lat="42.70302" lon="0.96224">
        <ele>1902.59</ele>
        <time>2010-02-07T13:48:25Z</time>
      </trkpt>
      <trkpt lat="42.70317" lon="0.96188">
        <ele>1898.74</ele>
        <time>2010-02-07T13:48:32Z</time>
      </trkpt>
      <trkpt lat="42.70326" lon="0.96163">
        <ele>1896.82</ele>
        <time>2010-02-07T13:48:36Z</time>
      </trkpt>
      <trkpt lat="42.70331" lon="0.96143">
        <ele>1895.86</ele>
        <time>2010-02-07T13:48:39Z</time>
      </trkpt>
      <trkpt lat="42.70333" lon="0.96129">
        <ele>1894.9</ele>
        <time>2010-02-07T13:48:41Z</time>
      </trkpt>
      <trkpt lat="42.70334" lon="0.9612">
        <ele>1893.45</ele>
        <time>2010-02-07T13:48:44Z</time>
      </trkpt>
      <trkpt lat="42.70342" lon="0.96101">
        <ele>1891.53</ele>
        <time>2010-02-07T13:48:48Z</time>
      </trkpt>
      <trkpt lat="42.70349" lon="0.9606">
        <ele>1887.69</ele>
        <time>2010-02-07T13:48:54Z</time>
      </trkpt>
      <trkpt lat="42.70351" lon="0.96054">
        <ele>1887.21</ele>
        <time>2010-02-07T13:48:55Z</time>
      </trkpt>
      <trkpt lat="42.70362" lon="0.96021">
        <ele>1883.84</ele>
        <time>2010-02-07T13:49:00Z</time>
      </trkpt>
      <trkpt lat="42.70366" lon="0.96008">
        <ele>1880.96</ele>
        <time>2010-02-07T13:49:02Z</time>
      </trkpt>
      <trkpt lat="42.7037" lon="0.96001">
        <ele>1880</ele>
        <time>2010-02-07T13:49:04Z</time>
      </trkpt>
      <trkpt lat="42.70379" lon="0.95982">
        <ele>1880</ele>
        <time>2010-02-07T13:49:07Z</time>
      </trkpt>
      <trkpt lat="42.7039" lon="0.95965">
        <ele>1876.63</ele>
        <time>2010-02-07T13:49:09Z</time>
      </trkpt>
      <trkpt lat="42.70398" lon="0.95957">
        <ele>1873.75</ele>
        <time>2010-02-07T13:49:10Z</time>
      </trkpt>
      <trkpt lat="42.70414" lon="0.95937">
        <ele>1870.86</ele>
        <time>2010-02-07T13:49:12Z</time>
      </trkpt>
      <trkpt lat="42.70422" lon="0.95926">
        <ele>1867.98</ele>
        <time>2010-02-07T13:49:13Z</time>
      </trkpt>
      <trkpt lat="42.7043" lon="0.95916">
        <ele>1865.58</ele>
        <time>2010-02-07T13:49:14Z</time>
      </trkpt>
      <trkpt lat="42.70467" lon="0.95884">
        <ele>1861.73</ele>
        <time>2010-02-07T13:49:19Z</time>
      </trkpt>
      <trkpt lat="42.70474" lon="0.95882">
        <ele>1859.81</ele>
        <time>2010-02-07T13:49:20Z</time>
      </trkpt>
      <trkpt lat="42.70499" lon="0.95874">
        <ele>1858.37</ele>
        <time>2010-02-07T13:49:23Z</time>
      </trkpt>
      <trkpt lat="42.70522" lon="0.95874">
        <ele>1856.44</ele>
        <time>2010-02-07T13:49:26Z</time>
      </trkpt>
      <trkpt lat="42.70551" lon="0.95873">
        <ele>1855</ele>
        <time>2010-02-07T13:49:31Z</time>
      </trkpt>
      <trkpt lat="42.70565" lon="0.95877">
        <ele>1854.52</ele>
        <time>2010-02-07T13:49:39Z</time>
      </trkpt>
      <trkpt lat="42.70565" lon="0.95877">
        <ele>1854.04</ele>
        <time>2010-02-07T13:49:50Z</time>
      </trkpt>
      <trkpt lat="42.70566" lon="0.95877">
        <ele>1854.04</ele>
        <time>2010-02-07T13:50:03Z</time>
      </trkpt>
      <trkpt lat="42.70565" lon="0.95877">
        <ele>1854.04</ele>
        <time>2010-02-07T13:50:25Z</time>
      </trkpt>
      <trkpt lat="42.70566" lon="0.95878">
        <ele>1854.04</ele>
        <time>2010-02-07T13:50:40Z</time>
      </trkpt>
      <trkpt lat="42.70565" lon="0.95879">
        <ele>1854.52</ele>
        <time>2010-02-07T13:51:01Z</time>
      </trkpt>
      <trkpt lat="42.70564" lon="0.95878">
        <ele>1855</ele>
        <time>2010-02-07T13:51:16Z</time>
      </trkpt>
      <trkpt lat="42.70565" lon="0.95878">
        <ele>1855.48</ele>
        <time>2010-02-07T13:51:31Z</time>
      </trkpt>
      <trkpt lat="42.70564" lon="0.95878">
        <ele>1855</ele>
        <time>2010-02-07T13:51:40Z</time>
      </trkpt>
      <trkpt lat="42.70563" lon="0.95876">
        <ele>1854.52</ele>
        <time>2010-02-07T13:51:49Z</time>
      </trkpt>
      <trkpt lat="42.70564" lon="0.95875">
        <ele>1854.52</ele>
        <time>2010-02-07T13:52:03Z</time>
      </trkpt>
      <trkpt lat="42.70564" lon="0.95874">
        <ele>1854.04</ele>
        <time>2010-02-07T13:52:14Z</time>
      </trkpt>
      <trkpt lat="42.70564" lon="0.95875">
        <ele>1854.52</ele>
        <time>2010-02-07T13:52:26Z</time>
      </trkpt>
      <trkpt lat="42.70563" lon="0.95876">
        <ele>1855</ele>
        <time>2010-02-07T13:52:34Z</time>
      </trkpt>
      <trkpt lat="42.70565" lon="0.95877">
        <ele>1855.96</ele>
        <time>2010-02-07T13:52:48Z</time>
      </trkpt>
      <trkpt lat="42.70565" lon="0.95877">
        <ele>1854.52</ele>
        <time>2010-02-07T13:52:51Z</time>
      </trkpt>
      <trkpt lat="42.70565" lon="0.95874">
        <ele>1855</ele>
        <time>2010-02-07T13:52:54Z</time>
      </trkpt>
      <trkpt lat="42.70569" lon="0.95871">
        <ele>1854.52</ele>
        <time>2010-02-07T13:53:02Z</time>
      </trkpt>
      <trkpt lat="42.70573" lon="0.95873">
        <ele>1855.96</ele>
        <time>2010-02-07T13:53:12Z</time>
      </trkpt>
      <trkpt lat="42.70567" lon="0.95867">
        <ele>1854.52</ele>
        <time>2010-02-07T13:53:19Z</time>
      </trkpt>
      <trkpt lat="42.70565" lon="0.95868">
        <ele>1853.56</ele>
        <time>2010-02-07T13:53:27Z</time>
      </trkpt>
      <trkpt lat="42.7057" lon="0.9587">
        <ele>1853.56</ele>
        <time>2010-02-07T13:53:33Z</time>
      </trkpt>
      <trkpt lat="42.70572" lon="0.9587">
        <ele>1855.48</ele>
        <time>2010-02-07T13:53:35Z</time>
      </trkpt>
      <trkpt lat="42.70573" lon="0.95875">
        <ele>1856.44</ele>
        <time>2010-02-07T13:53:43Z</time>
      </trkpt>
      <trkpt lat="42.70572" lon="0.95881">
        <ele>1855.96</ele>
        <time>2010-02-07T13:53:54Z</time>
      </trkpt>
      <trkpt lat="42.70571" lon="0.95881">
        <ele>1855.96</ele>
        <time>2010-02-07T13:54:03Z</time>
      </trkpt>
      <trkpt lat="42.70571" lon="0.95882">
        <ele>1855.96</ele>
        <time>2010-02-07T13:54:11Z</time>
      </trkpt>
      <trkpt lat="42.70571" lon="0.95882">
        <ele>1852.12</ele>
        <time>2010-02-07T13:54:24Z</time>
      </trkpt>
      <trkpt lat="42.70571" lon="0.95882">
        <ele>1855</ele>
        <time>2010-02-07T13:54:25Z</time>
      </trkpt>
      <trkpt lat="42.70571" lon="0.95882">
        <ele>1850.19</ele>
        <time>2010-02-07T13:54:26Z</time>
      </trkpt>
      <trkpt lat="42.70571" lon="0.95882">
        <ele>1857.4</ele>
        <time>2010-02-07T13:54:27Z</time>
      </trkpt>
      <trkpt lat="42.70571" lon="0.95882">
        <ele>1856.44</ele>
        <time>2010-02-07T13:54:28Z</time>
      </trkpt>
      <trkpt lat="42.70571" lon="0.95882">
        <ele>1851.64</ele>
        <time>2010-02-07T13:54:34Z</time>
      </trkpt>
      <trkpt lat="42.7057" lon="0.95882">
        <ele>1858.37</ele>
        <time>2010-02-07T13:54:35Z</time>
      </trkpt>
      <trkpt lat="42.7057" lon="0.95882">
        <ele>1855.48</ele>
        <time>2010-02-07T13:54:36Z</time>
      </trkpt>
      <trkpt lat="42.7057" lon="0.95883">
        <ele>1856.44</ele>
        <time>2010-02-07T13:54:45Z</time>
      </trkpt>
      <trkpt lat="42.7057" lon="0.95883">
        <ele>1856.44</ele>
        <time>2010-02-07T13:54:56Z</time>
      </trkpt>
    </trkseg>
  </trk>
</gpx>